Фактическая погода NOWCAST (расчётный прогноз на ближайшие 2 часа) AUTOTAF (расчётный прогноз на 9 часов) TAF (официальный синоптический прогноз)
Алматы
METAR UAAA 281400Z 04002MPS 020V090 9999 OVC007 M10/M12 Q1029 NOSIG


NOWCAST.SU UAAA 281400Z VRB02MPS 9999 BKN013 M11/M13 Q1031 NOSIG
RMK ICE: MOD FL40/FL50 FBL FL170/FL190 TURB: MOD FL40/FL50 MOD SFC/FL40
AUTOTAF.ME UAAA 280900Z 2810/2819 VRB02MPS 9999 SCT013 TXM09/2810Z TNM11/2812Z
BECMG 2815/2816 NSC
TAF UAAA 281112Z 2812/2912 36003MPS 3100 BR FU OVC011 TXM03/2909Z TNM12/2901Z
TEMPO 2814/2818 08003G08MPS 1200 -SN BR BKN005 OVC011
TEMPO 2818/2903 VRB02MPS 0500 -SN FZFG VV003
TEMPO 2903/2906 25003G08MPS
BECMG 2906/2907 5000 BKN020CB OVC100
TEMPO 2906/2912 04003G08MPS -SHSN BKN011 OVC020CB=
Балхаш
METAR UAAH 281130Z 08010MPS CAVOK M12/M22 Q1039 NOSIG RMK QFE741/0988


NOWCAST.SU UAAH 281400Z 06008G14MPS 9999 SKC M15/M22 Q1040 NOSIG
RMK TURB: MOD FL30/FL40
AUTOTAF.ME UAAH 280700Z 2808/2817 06009MPS CAVOK TXM12/2808Z TNM16/2816Z TAF UAAH 281101Z 2812/2821 06010G15MPS CAVOK=
Алматы (Боралдай)
 


NOWCAST.SU UAAR 281400Z VRB02MPS 7000 BR BKN012 M12/M13 Q1030 NOSIG
RMK ICE: MOD FL40/FL50 FBL FL170/FL190 TURB: MOD FL40/FL50 MOD SFC/FL40
AUTOTAF.ME UAAR 280700Z 2808/2817 VRB02MPS 9999 SCT013 TXM09/2808Z TNM12/2813Z
BECMG 2809/2810 BR
BECMG 2813/2814 7000
FM281500 VRB02MPS 0500 FZFG VV002
FM281600 VRB02MPS 7000 BR NSC
 
Талды-Корган
METAR UAAT 281330Z 04006MPS 9999 FEW013 SCT200 M15/M17 Q1032 NOSIG RMK QFE722/0963


NOWCAST.SU UAAT 281400Z VRB02MPS 9999 SKC M17/M19 Q1032 NOSIG
RMK ICE: FBL FL30/FL40
AUTOTAF.ME UAAT 280700Z 2808/2817 VRB02MPS CAVOK TXM11/2808Z TNM18/2816Z TAF AMD UAAT 281332Z 2812/2821 CNL=
Аягуз
 


NOWCAST.SU UAAY 281400Z 01005G10MPS 9999 SKC M25/M29 Q1042 NOSIG
RMK TURB: MOD SFC/FL40
AUTOTAF.ME UAAY 280700Z 2808/2817 02005G10MPS CAVOK TXM21/2808Z TNM25/2813Z  
Нур-Султан
METAR UACC 281400Z 08006MPS CAVOK M22/M27 Q1047 NOSIG RMK QFE753/1004


NOWCAST.SU UACC 281400Z 09005G11MPS 9999 SKC M19/M23 Q1046 NOSIG
RMK TURB: MOD SFC/FL20
AUTOTAF.ME UACC 281100Z 2812/2821 09005G11MPS CAVOK TXM19/2812Z TNM21/2819Z TAF UACC 281104Z 2812/2912 09005MPS CAVOK TXM13/2910Z TNM23/2823Z
FM290400 10006MPS 9999 SCT030=
Кокшетау
METAR UACK 281100Z 00000MPS CAVOK M17/M25 Q1049 NOSIG RMK QFE763/1017


NOWCAST.SU UACK 281400Z 14003MPS 9999 SCT240 M24/M26 Q1049 NOSIG
AUTOTAF.ME UACK 281000Z 2811/2820 13003MPS CAVOK TXM21/2811Z TNM24/2814Z TAF AMD UACK 281149Z 2812/2821 CNL=
Петропавловск
METAR UACP 281130Z 11005MPS CAVOK M22/M26 Q1052 NOSIG RMK QFE776/1035


NOWCAST.SU UACP 281400Z 14003MPS 9999 SKC M23/M25 Q1051 NOSIG
AUTOTAF.ME UACP 280700Z 2808/2817 15004MPS CAVOK TXM18/2809Z TNM23/2814Z TAF AMD UACP 281133Z 2809/2818 CNL=
Тараз (Аулие-Ата)
METAR UADD 281400Z VRB01MPS 9999 BKN050 OVC100 M06/M10 Q1024 NOSIG RMK QFE711/0948


NOWCAST.SU UADD 281400Z VRB02MPS 8000 -FZRA OVC028 M04/M11 Q1025 NOSIG
RMK ICE: SEV FL170/FL180 MOD FL150/FL190 FBL FL40/FL120 TURB: MOD SFC/FL40
AUTOTAF.ME UADD 280700Z 2808/2817 07003MPS CAVOK TXM02/2809Z TNM04/2814Z
BECMG 2811/2812 OVC044
BECMG 2812/2813 -FZRA
BECMG 2815/2816 OVC015
TAF UADD 281103Z 2812/2821 34003G08MPS 3100 -SHSN BR BKN011 OVC030CB
TEMPO 2815/2821 1200 SHSN BR BKN003 OVC015CB=
 


NOSIG
 
Чимкент
METAR UAII 281406Z VRB01MPS 5000 -SHRA BKN006 OVC028CB 04/03 Q1021 NOSIG RMK QBB200 QFE730/0973


NOWCAST.SU UAII 281400Z 10004MPS 9999 -RA OVC019 05/02 Q1021 NOSIG
RMK ICE: SEV FL90/FL110 MOD FL120/FL130 FBL FL150/FL190
AUTOTAF.ME UAII 280700Z 2808/2817 08004MPS CAVOK TX10/2808Z TN04/2815Z
BECMG 2811/2812 -RA
BECMG 2812/2813 OVC036
BECMG 2813/2814 OVC019
TAF UAII 281104Z 2812/2912 20003G08MPS 3100 -SHRA BR SCT011 BKN025CB TX07/2910Z TN01/2902Z
TEMPO 2812/2815 28005G10MPS 0400 SHRA FG BKN003 OVC015CB
TEMPO 2815/2903 27005MPS 0300 SHRA FG BKN002 OVC015CB
TEMPO 2903/2912 28005G10MPS=
Туркестан
METAR UAIT 281400Z 00000MPS CAVOK 03/M05 Q1021 NOSIG RMK QFE739/0985


NOWCAST.SU UAIT 281400Z 06004MPS 9999 OVC056 M01/M15 Q1022 NOSIG
RMK ICE: MOD FL110/FL190 FBL FL90/FL100
AUTOTAF.ME UAIT 280700Z 2808/2817 04005MPS CAVOK TX02/2808Z TNM01/2812Z
BECMG 2814/2815 OVC040
BECMG 2815/2816 -FZRA
TAF UAIT 281104Z 2812/2821 07007G12MPS 6000 SCT020 BKN040CB
TEMPO 2812/2816 08010G15MPS
TEMPO 2816/2820 11006G11MPS 3100 -SHRA SCT011 BKN030CB=
Жезказган
METAR UAKD 281400Z 07010MPS CAVOK M11/M20 Q1035 NOSIG RMK QFE742/0989


NOWCAST.SU UAKD 281400Z 08008G14MPS 9999 FEW180 M09/M21 Q1035 NOSIG
RMK ICE: FBL FL190/FL200 TURB: MOD SFC/FL30
AUTOTAF.ME UAKD 280900Z 2810/2819 09008G14MPS CAVOK TXM06/2810Z TNM11/2818Z TAF UAKD 281104Z 2812/2821 07009MPS CAVOK
TEMPO 2812/2817 09011G16MPS=
Караганда (Сары-Арка)
METAR UAKK 281400Z 07008MPS CAVOK M21/M26 Q1042 NOSIG RMK QFE733/0978


NOWCAST.SU UAKK 281400Z 09007G13MPS 9999 SKC M19/M23 Q1041 NOSIG
RMK TURB: MOD SFC/FL40
AUTOTAF.ME UAKK 280700Z 2808/2817 10005G11MPS CAVOK TXM15/2809Z TNM20/2816Z TAF UAKK 281101Z 2812/2912 08007MPS 9999 SCT020 BKN100 TXM16/2909Z TNM25/2824Z
TEMPO 2903/2912 09008MPS=
Байконур (Крайний)
 


NOWCAST.SU UAOL 281400Z 08011G17MPS 9999 BKN159 M03/M18 Q1027 NOSIG
RMK ICE: FBL FL190/FL200 TURB: MOD SFC/FL20
AUTOTAF.ME UAOL 280800Z 2809/2818 08015G21MPS CAVOK TXM01/2809Z TNM04/2816Z
BECMG 2817/2818 08010G16MPS
 
Кызылорда
METAR UAOO 281400Z 09012MPS CAVOK M05/M19 Q1024 NOSIG RMK QFE756/1008


NOWCAST.SU UAOO 281400Z 07007G13MPS 9999 FEW300 M04/M18 Q1023 NOSIG
RMK ICE: FBL FL190/FL200
AUTOTAF.ME UAOO 280800Z 2809/2818 07010MPS CAVOK TXM01/2809Z TNM05/2818Z
BECMG 2816/2817 07005MPS
TAF UAOO 281100Z 2812/2821 09012MPS CAVOK=
Уральск (Ак-Жол)
METAR UARR 281400Z 04004MPS CAVOK M08/M14 Q1037 NOSIG RMK QFE774/1033


NOWCAST.SU UARR 281400Z 05004MPS 9999 SKC M07/M12 Q1038 NOSIG
AUTOTAF.ME UARR 280700Z 2808/2817 06004MPS CAVOK TXM05/2808Z TNM08/2816Z TAF UARR 281100Z 2812/2821 03006MPS 9999 SCT011
TEMPO 2812/2818 05006G11MPS=
Усть-Каменогорск
METAR UASK 281400Z 02002MPS 360V060 9999 NSC M35/M39 Q1054 NOSIG RMK QFE764/1019


NOWCAST.SU UASK 281400Z VRB02MPS 7000 BR SKC M36/M38 Q1053 NOSIG
AUTOTAF.ME UASK 280700Z 2808/2817 VRB02MPS 8000 BR NSC TXM29/2808Z TNM37/2816Z TAF UASK 281100Z 2812/2821 VRB01MPS 3100 BR SCT007
TEMPO 2812/2818 0200 FG VV002
TEMPO 2818/2821 0200 FG VV001=
Павлодар
METAR UASP 281400Z 05003MPS CAVOK M27/M31 Q1056 NOSIG RMK QFE781/1042


NOWCAST.SU UASP 281400Z VRB02MPS 9999 SKC M28/M29 Q1056 NOSIG
AUTOTAF.ME UASP 280700Z 2808/2817 VRB02MPS CAVOK TXM23/2808Z TNM29/2816Z TAF UASP 281100Z 2812/2821 09003MPS CAVOK
TEMPO 2812/2818 3100 BR FU SCT011=
Семей
METAR UASS 281230Z 10002MPS CAVOK M32/M36 Q1055 NOSIG RMK QFE772/1030


NOWCAST.SU UASS 281400Z VRB02MPS 9999 SKC M31/M33 Q1054 NOSIG
AUTOTAF.ME UASS 280700Z 2808/2817 VRB02MPS CAVOK TXM26/2808Z TNM32/2816Z TAF AMD UASS 281238Z 2812/2821 CNL=
Урджар
 


NOWCAST.SU UASU 281400Z VRB02MPS 9999 SKC M22/M25 Q1042 NOSIG
RMK TURB: MOD FL30/FL40
AUTOTAF.ME UASU 280700Z 2808/2817 VRB02MPS CAVOK TXM18/2808Z TNM22/2812Z  
Аральск
 


NOWCAST.SU UATA 281400Z 07009G14MPS 9999 BKN095 M03/M18 Q1031 NOSIG
RMK ICE: FBL FL120/FL190 TURB: MOD SFC/FL20
AUTOTAF.ME UATA 280700Z 2808/2817 08009G14MPS CAVOK TXM02/2809Z TNM04/2817Z  
Актау
METAR UATE 281400Z 04007MPS 9999 BKN027 02/M05 Q1026 NOSIG RMK QFE767/1023


NOWCAST.SU UATE 281400Z 04005MPS 9999 BKN020 05/M01 Q1026 NOSIG
RMK ICE: MOD FL90/FL110 FBL FL70/FL170
AUTOTAF.ME UATE 281000Z 2811/2820 05004MPS 9999 OVC022 TX07/2811Z TN03/2819Z
BECMG 2818/2819 NSC
TAF UATE 281101Z 2812/2912 04007MPS 9999 BKN015CB TX03/2909Z TNM02/2902Z=
Форт-Шевченко
 


NOWCAST.SU UATF 281400Z 05005MPS 9999 BKN055 03/M03 Q1027 NOSIG
RMK ICE: MOD FL120/FL130 FBL FL70/FL190 TURB: MOD SFC/FL20
AUTOTAF.ME UATF 280700Z 2808/2817 05004MPS 9999 BKN046 TX04/2809Z TN02/2815Z
BECMG 2813/2814 NSC
 
Атырау
METAR UATG 281400Z 06004MPS CAVOK M03/M12 Q1031 NOSIG RMK QFE775/1034


NOWCAST.SU UATG 281400Z 05005MPS 9999 FEW200 M02/M13 Q1031 NOSIG
RMK ICE: FBL FL150/FL190 TURB: MOD SFC/FL20
AUTOTAF.ME UATG 280700Z 2808/2817 07004MPS CAVOK TX01/2809Z TNM04/2816Z TAF UATG 281100Z 2812/2912 03007MPS 9999 SCT033 TXM02/2910Z TNM06/2903Z
TEMPO 2906/2912 06009MPS=
Актобе
METAR UATT 281400Z 06006MPS CAVOK M08/M14 Q1036 NOSIG RMK QFE757/1009


NOWCAST.SU UATT 281400Z 08005G11MPS 9999 BKN090 M08/M13 Q1035 NOSIG
RMK ICE: FBL FL20/FL170 TURB: MOD FL110/FL120
AUTOTAF.ME UATT 281000Z 2811/2820 08005MPS CAVOK TXM08/2811Z TNM09/2815Z TAF UATT 281100Z 2812/2912 07008MPS 9999 SCT033 TXM06/2812Z TNM11/2902Z=
Тенгиз
 


NOWCAST.SU UATZ 281400Z 06005MPS 9999 FEW160 M02/M14 Q1030 NOSIG
RMK ICE: FBL FL110/FL190 TURB: MOD SFC/FL20
AUTOTAF.ME UATZ 280700Z 2808/2817 08005MPS CAVOK TX01/2809Z TNM04/2816Z  
Костанай (Наримановка)
METAR UAUU 281400Z 06003MPS CAVOK M17/M23 Q1046 NOSIG RMK QFE768/1024


NOWCAST.SU UAUU 281400Z 09003MPS 9999 BKN070 M15/M17 Q1045 NOSIG
RMK ICE: FBL FL110/FL170
AUTOTAF.ME UAUU 281100Z 2812/2821 09003MPS CAVOK TXM14/2812Z TNM15/2814Z TAF UAUU 281105Z 2812/2821 04003G08MPS CAVOK
TEMPO 2812/2818 08005MPS BKN011
TEMPO 2818/2821 VRB02MPS=
Baku Bine Arpt
METAR UBBB 281400Z 34016KT 9999 BKN015 11/08 Q1026 NOSIG


NOWCAST.SU UBBB 281400Z 36024G34KT 9999 BKN032TCU 12/08 Q1026 NOSIG
RMK ICE: MOD FL110/FL120 FBL FL90/FL100 TURB: MOD SFC/FL20
AUTOTAF.ME UBBB 280700Z 2808/2817 34024G34KT 9999 BKN029 TX12/2808Z TN12/2808Z
BECMG 2816/2817 35018G28KT
TAF UBBB 281100Z 2812/2912 34012KT 9999 BKN015 BKN025 TX10/2812Z TN09/2902Z
TEMPO 2812/2820 02008KT 6000 -RA BKN010 OVC020
TEMPO 2820/2908 VRB04KT 3000 -SHRA BKN008 SCT020CB OVC020
TEMPO 2908/2912 02014KT 6000 -SHRA SCT020CB OVC020=
Bishkek Manas
METAR UCFM 281400Z 04002MPS 010V070 CAVOK M05/M13 Q1023 NOSIG


NOWCAST.SU UCFM 281400Z 03003MPS 9999 BKN120 M05/M10 Q1025 NOSIG
RMK ICE: FBL FL150/FL190 TURB: MOD FL120/FL130
AUTOTAF.ME UCFM 280700Z 2808/2817 VRB02MPS CAVOK TXM01/2809Z TNM06/2817Z TAF UCFM 281040Z 2812/2912 05003G08MPS 9999 SCT050CB BKN100
TEMPO 2812/2818 03007G12MPS 1500 BR FEW002 BKN005
BECMG 2818/2820 25003G08MPS 2000 BR
TEMPO 2818/2902 28007G12MPS 0500 -SHSN FZFG FEW002 BKN005 OVC030CB=
Osh
METAR UCFO 281400Z 20002MPS 1200 0800E R12/P1500U BCFG FU SCT046 07/04 Q1017 TEMPO 0500 FG FU


NOWCAST.SU UCFO 281400Z VRB02MPS 9999 VCSH OVC092CB 07/01 Q1022 NOSIG
RMK ICE: MOD FL170/FL180 FBL FL120/FL150 TURB: MOD FL110/FL120
AUTOTAF.ME UCFO 280700Z 2808/2817 VRB02MPS CAVOK TX10/2808Z TN05/2817Z
FM281100 VRB02MPS 9999 VCSH OVC092CB
FM281500 VRB02MPS CAVOK
TAF UCFO 281042Z 2812/2912 18003G08MPS 2000 BR FU SCT030CB BKN100
TEMPO 2812/2818 06003G08MPS 0200 -SHRA FG VV001
TEMPO 2818/2824 12003G08MPS 0300 -SHRA FZFG VV002
BECMG 2902/2904 33003G08MPS=
Shirak
METAR UDSG 281400Z 26002KT 9999 NSC 05/M02 Q1023 NOSIG


NOWCAST.SU UDSG 281400Z 08004KT 9999 FEW210 00/M04 Q1030 NOSIG
AUTOTAF.ME UDSG 280700Z 2808/2817 19004KT CAVOK TX04/2810Z TNM03/2816Z
BECMG 2814/2815 SCT034
BECMG 2815/2816 NSC
TAF UDSG 281058Z 2812/2912 VRB06KT 9999 FEW050=
Zvartnots
METAR UDYZ 281400Z 00000KT 9999 FEW046 10/00 Q1022 NOSIG


NOWCAST.SU UDYZ 281400Z VRB02KT 9999 FEW190 07/00 Q1023 NOSIG
AUTOTAF.ME UDYZ 280700Z 2808/2817 VRB02KT CAVOK TX10/2811Z TN04/2816Z TAF UDYZ 281100Z 2812/2912 VRB06KT 9999 FEW040=
Батагай
 


NOWCAST.SU UEBB 281400Z VRB02MPS 9999 SKC M42/M44 Q1032 NOSIG
AUTOTAF.ME UEBB 280700Z 2808/2817 VRB02MPS CAVOK TXM40/2808Z TNM43/2816Z
BECMG 2816/2817 BR
 
Саккырыр
 


NOWCAST.SU UEBS 281400Z VRB02MPS 9999 BKN016 M35/M37 Q1022 NOSIG
AUTOTAF.ME UEBS 280700Z 2808/2817 VRB02MPS 9999 OVC016 TXM34/2808Z TNM35/2812Z
BECMG 2808/2809 NSC
BECMG 2809/2810 OVC016
BECMG 2811/2812 NSC
FM281400 VRB02MPS 9999 BKN016
FM281500 VRB02MPS CAVOK
 
Талакан
 


NOWCAST.SU UECT 281400Z 22004MPS 9999 -SN OVC014 M27/M30 Q1031 NOSIG
RMK TURB: MOD SFC/FL30
AUTOTAF.ME UECT 280700Z 2808/2817 22004MPS 9999 OVC014 TXM26/2808Z TNM27/2810Z
BECMG 2813/2814 -SN
 
Алдан
 


NOWCAST.SU UEEA 281400Z VRB02MPS 9999 SKC M31/M33 Q1024 NOSIG
AUTOTAF.ME UEEA 281100Z 2812/2821 VRB02MPS 1500 BR NSC TXM31/2812Z TNM31/2812Z
FM281400 VRB02MPS CAVOK
FM281700 VRB02MPS 1000 BR NSC
BECMG 2817/2818 FG IC
BECMG 2819/2820 0600
 
Себян-Кюель
 


NOWCAST.SU UEED 281400Z VRB02MPS 9999 SKC M36/M38 Q1015 NOSIG
AUTOTAF.ME UEED 280700Z 2808/2817 VRB02MPS 9999 BKN024 TXM36/2808Z TNM36/2808Z
BECMG 2810/2811 NSC
 
Якутск
METAR UEEE 281400Z 00000MPS 0600 0550NE R23L/1300U FG VV004 M39/M43 Q1032 R23L/490155 NOSIG RMK QBB120 QFE765


NOWCAST.SU UEEE 281400Z VRB02MPS 9999 FEW110 M39/M40 Q1033 NOSIG
RMK ICE: FBL FL90/FL100
AUTOTAF.ME UEEE 280900Z 2810/2819 VRB02MPS CAVOK TXM38/2810Z TNM39/2812Z
FM281500 VRB02MPS 6000 BR NSC
TAF UEEE 281100Z 2812/2918 VRB01MPS 0300 FG VV002 TXM36/2906Z TNM43/2823Z
TEMPO 2812/2824 0700 FG VV004=
Покровск
 


NOWCAST.SU UEEP 281400Z VRB02MPS 4500 BR BKN011 M34/M36 Q1033 NOSIG
AUTOTAF.ME UEEP 280700Z 2808/2817 VRB02MPS 6000 BR NSC TXM34/2808Z TNM34/2808Z
BECMG 2808/2809 BKN011
 
Чульман
 


NOWCAST.SU UELD 281400Z VRB02MPS 9999 FEW210 M30/M32 Q1023 NOSIG
AUTOTAF.ME UELD 280700Z 2808/2817 VRB02MPS CAVOK TXM29/2808Z TNM30/2811Z  
Нерюнгри (Чульман)
 


NOWCAST.SU UELL 281400Z VRB02MPS 9999 FEW200 M31/M33 Q1023 NOSIG
AUTOTAF.ME UELL 281100Z 2812/2821 VRB02MPS CAVOK TXM30/2812Z TNM32/2820Z
FM281700 VRB02MPS 0900 FG IC NSC
BECMG 2817/2818 BR
BECMG 2818/2819 1600
FM282000 VRB02MPS CAVOK
 
Оймякон
 


NOWCAST.SU UEMJ 281400Z VRB02MPS 9999 SKC M37/M39 Q1013 NOSIG
RMK ICE: FBL FL90/FL120
AUTOTAF.ME UEMJ 280700Z 2808/2817 VRB02MPS CAVOK TXM36/2815Z TNM38/2808Z  
Маган
 


NOWCAST.SU UEMM 281400Z VRB02MPS 9999 SCT095 M38/M40 Q1032 NOSIG
RMK ICE: FBL FL90/FL100
AUTOTAF.ME UEMM 280700Z 2808/2817 VRB02MPS 6000 BR NSC TXM37/2808Z TNM38/2809Z
BECMG 2816/2817 BR
 
Олёкминск
 


NOWCAST.SU UEMO 281400Z VRB02MPS 9999 OVC019 M27/M30 Q1034 NOSIG
RMK TURB: MOD SFC/FL20
AUTOTAF.ME UEMO 280700Z 2808/2817 26003MPS 9999 OVC019 TXM26/2808Z TNM27/2812Z  
Усть-Мая
 


NOWCAST.SU UEMU 281400Z VRB02MPS 9999 SKC M40/M42 Q1032 NOSIG
AUTOTAF.ME UEMU 280700Z 2808/2817 VRB02MPS 4000 BR NSC TXM40/2808Z TNM40/2808Z
FM281100 VRB02MPS CAVOK
FM281600 VRB02MPS 3500 BR NSC
 
Верхневилюйск
 


NOWCAST.SU UENI 281400Z VRB02MPS 9999 FEW110 M32/M34 Q1032 NOSIG
RMK ICE: FBL FL50/FL60
AUTOTAF.ME UENI 280700Z 2808/2817 VRB02MPS CAVOK TXM31/2808Z TNM33/2816Z
BECMG 2809/2810 BR
BECMG 2810/2811 BKN028
FM281300 VRB02MPS CAVOK
 
Нюрба
 


NOWCAST.SU UENN 281400Z 21003MPS 7000 BR FEW140 M30/M32 Q1031 NOSIG
AUTOTAF.ME UENN 280700Z 2808/2817 22003MPS 5000 BR NSC TXM29/2808Z TNM32/2817Z  
Ленск
 


NOWCAST.SU UERL 281400Z 23005G11MPS 9999 FEW120 M26/M30 Q1031 NOSIG
RMK TURB: MOD SFC/FL40
AUTOTAF.ME UERL 280700Z 2808/2817 23009G15MPS 9999 DRSN NSC TXM26/2808Z TNM27/2817Z  
Полярный
METAR UERP 281400Z 30002MPS 9999 -SN FEW026 BKN100 M28/M31 Q1021 R17/490536 NOSIG RMK QFE722


NOWCAST.SU UERP 281400Z VRB02MPS 1600 BR SCT100 M28/M30 Q1025 NOSIG
AUTOTAF.ME UERP 280700Z 2808/2817 VRB02MPS 1000 BR NSC TXM26/2808Z TNM29/2816Z
BECMG 2811/2812 1800
TAF UERP 281100Z 2812/2912 VRB01MPS 8000 SCT016 BKN100
TEMPO 2812/2820 3000 -SN BR SCT010 OVC100
TEMPO 2900/2909 25003MPS=
Мирный
METAR UERR 281400Z 22001MPS 9999 -SN NSC M36/M39 Q1026 R25/810445 NOSIG RMK QFE738/0984


NOWCAST.SU UERR 281400Z 23004MPS 9999 OVC014 M27/M31 Q1028 NOSIG
RMK TURB: MOD SFC/FL30
AUTOTAF.ME UERR 280900Z 2810/2819 23004MPS 9999 OVC021 TXM27/2810Z TNM28/2817Z
BECMG 2816/2817 OVC011
FM281800 VRB02MPS 3500 BR NSC
TAF UERR 281100Z 2812/2912 23003G08MPS 9999 SCT023
TEMPO 2812/2818 4000 -SN BR SCT006=
Саскылах
 


NOWCAST.SU UERS 281400Z VRB02MPS 9999 OVC013 M28/M30 Q1030 NOSIG
RMK ICE: FBL FL20/FL70
AUTOTAF.ME UERS 280700Z 2808/2817 VRB02MPS 4500 BR OVC012 TXM28/2812Z TNM30/2808Z
BECMG 2808/2809 NSC
FM281000 VRB02MPS 9999 BKN011
BECMG 2811/2812 BKN016
BECMG 2814/2815 NSC
FM281700 VRB02MPS 9999 BKN019
 
Оленегорск
 


NOWCAST.SU UESN 281400Z VRB02MPS 9999 FEW100 M39/M40 Q1035 NOSIG
RMK ICE: FBL FL110/FL120
AUTOTAF.ME UESN 280700Z 2808/2817 VRB02MPS CAVOK TXM39/2814Z TNM40/2808Z
BECMG 2808/2809 BR
BECMG 2814/2815 BR
BECMG 2815/2816 7000
 
Тикси
 


NOWCAST.SU UEST 281400Z 24003MPS 9999 FEW090 M36/M38 Q1032 NOSIG
AUTOTAF.ME UEST 280700Z 2808/2817 24003MPS CAVOK TXM36/2808Z TNM36/2808Z  
Kopitnari
METAR UGKO 281400Z 25005KT CAVOK 12/07 Q1019 NOSIG


NOWCAST.SU UGKO 281400Z 16004KT 9999 FEW310 10/06 Q1021 NOSIG
AUTOTAF.ME UGKO 280700Z 2808/2817 04004KT CAVOK TX13/2810Z TN08/2816Z
BECMG 2814/2815 16006KT
TAF UGKO 281100Z 2812/2912 08007KT CAVOK TX17/2812Z TN10/2816Z
TEMPO 2812/2816 25010KT
BECMG 2816/2819 08017G32KT
BECMG 2821/2824 08027G47KT=
Batumi
METAR UGSB 281400Z 00000KT CAVOK 11/09 Q1020 NOSIG


NOWCAST.SU UGSB 281400Z VRB02KT 9999 FEW260 11/07 Q1020 NOSIG
AUTOTAF.ME UGSB 280700Z 2808/2817 VRB02KT CAVOK TX13/2809Z TN11/2814Z TAF UGSB 281100Z 2812/2912 34006KT CAVOK TX18/2910Z TN10/2900Z
BECMG 2815/2818 12013KT
TEMPO 2820/2908 FEW030
BECMG 2908/2910 35007KT=
Tbilisi Novo-al
METAR UGTB 281400Z 11008KT 9999 SCT036 BKN058 12/06 Q1025 NOSIG


NOWCAST.SU UGTB 281400Z 08004KT 9999 BKN024 11/05 Q1025 NOSIG
RMK ICE: MOD FL90/FL100 TURB: MOD FL40/FL50
AUTOTAF.ME UGTB 280700Z 2808/2817 VRB02KT 9999 BKN024 TX13/2811Z TN08/2817Z
BECMG 2810/2811 11008KT
FM281300 10006KT 9999 VCSH BKN029CB
FM281400 08004KT 9999 BKN024
BECMG 2815/2816 VRB02KT
BECMG 2816/2817 BKN014
TAF AMD UGTB 281245Z 2812/2912 VRB02KT 9999 BKN040 TX14/2812Z TN06/2903Z
TEMPO 2900/2907 4000 RA BR BKN014 OVC035=
Благовещенск (Игнатьево)
METAR UHBB 281400Z 36004MPS 4400 -SN BKN033 M18/M20 Q1021 R36/810150 NOSIG RMK QFE748/0997


NOWCAST.SU UHBB 281400Z 36004MPS 9999 -SN OVC012 M18/M20 Q1020 NOSIG
RMK ICE: FBL FL10/FL120
AUTOTAF.ME UHBB 280700Z 2808/2817 VRB02MPS CAVOK TXM17/2808Z TNM18/2809Z
BECMG 2812/2813 OVC012
BECMG 2813/2814 -SN
FM281700 35005G10MPS 7000 -SN BR OVC011
TAF UHBB 281056Z 2812/2912 01003G08MPS 3100 -SHSN BKN011 BKN020CB
TEMPO 2812/2907 2100 -SHSN BKN007 BKN020CB
BECMG 2819/2821 33006G12MPS
BECMG 2907/2909 5000 -SHSN SCT011 BKN033CB=
Зея
 


NOWCAST.SU UHBE 281400Z VRB02MPS 9999 BKN130 M25/M28 Q1023 NOSIG
RMK ICE: FBL FL30/FL70 TURB: MOD FL150/FL160
AUTOTAF.ME UHBE 280700Z 2808/2817 VRB02MPS 9999 OVC010 TXM21/2808Z TNM27/2816Z
BECMG 2809/2810 BR
BECMG 2810/2811 NSC
 
Февральск
 


NOWCAST.SU UHBF 281400Z VRB02MPS 9999 FEW160 M22/M24 Q1020 NOSIG
RMK ICE: FBL FL10/FL50
AUTOTAF.ME UHBF 280700Z 2808/2817 VRB02MPS 3500 BR NSC TXM18/2808Z TNM22/2812Z
FM281000 VRB02MPS 0500 FG IC BKN002
FM281100 VRB02MPS 4500 BR BKN010
BECMG 2811/2812 NSC
FM281300 VRB02MPS CAVOK
 
Свободный
 


NOWCAST.SU UHBS 281400Z 35004MPS 9999 BKN110 M22/M24 Q1021 NOSIG
RMK ICE: FBL FL10/FL110
AUTOTAF.ME UHBS 280900Z 2810/2819 35003MPS 1000 BR OVC003 TXM20/2817Z TNM22/2810Z
FM281200 35003MPS 9999 OVC010
BECMG 2812/2813 BKN021
BECMG 2813/2814 NSC
BECMG 2815/2816 BKN011
FM281800 35005MPS CAVOK
 
Тында
 


NOWCAST.SU UHBW 281400Z 34003MPS 9999 FEW140 M30/M33 Q1021 NOSIG
AUTOTAF.ME UHBW 280700Z 2808/2817 35003MPS CAVOK TXM27/2808Z TNM30/2813Z
BECMG 2809/2810 BKN041
BECMG 2813/2814 NSC
 
Билибино (Купол-1)
 


NOWCAST.SU UHED 281400Z VRB02MPS 1200 BR SCT290 M19/M20 Q1025 NOSIG
RMK ICE: MOD FL90/FL100 FBL FL30/FL120
AUTOTAF.ME UHED 280700Z 2808/2817 VRB02MPS 1400 BR NSC TXM16/2817Z TNM22/2808Z
FM281500 VRB02MPS 1000 BR OVC003
BECMG 2816/2817 SN BR
 
Купол
 


NOWCAST.SU UHEK 281400Z VRB02MPS 1200 BR FEW280 M20/M21 Q1024 NOSIG
RMK ICE: FBL FL30/FL120
AUTOTAF.ME UHEK 281100Z 2812/2821 VRB02MPS 0500 FG IC BKN002 TXM13/2821Z TNM21/2812Z
FM281300 VRB02MPS 1600 BR NSC
BECMG 2814/2815 1000
BECMG 2815/2816 OVC046
BECMG 2816/2817 OVC003
FM281800 VRB02MPS 9999 -SN BKN009
FM281900 VRB02MPS 4000 -SN BR OVC009
FM282100 VRB02MPS 8000 -SN OVC010
 
Новая Кубака
 


NOWCAST.SU UHGK 281400Z 03004MPS 9999 -SN BKN012 M18/M20 Q1008 NOSIG
RMK ICE: FBL FL30/FL150
AUTOTAF.ME UHGK 281100Z 2812/2821 03003MPS 0250 FG IC VV012 TXM16/2820Z TNM18/2812Z
FM281400 03004MPS 9999 -SN BKN012
FM281900 02004MPS 2000 SN BR OVC011
 
Глухариное
 


NOWCAST.SU UHGL 281400Z VRB02MPS 2000 SN BKN067 M30/M32 Q1022 NOSIG
RMK ICE: MOD FL90/FL100 FBL FL50/FL120
AUTOTAF.ME UHGL 280700Z 2808/2817 VRB02MPS CAVOK TXM30/2808Z TNM30/2808Z
BECMG 2810/2811 2000
BECMG 2811/2812 SN
 
Бриакан
 


NOWCAST.SU UHHE 281400Z VRB02MPS 0200 FG IC BKN001 M21/M23 Q1020 NOSIG
RMK ICE: FBL FL10/FL20 TURB: MOD FL150/FL160
AUTOTAF.ME UHHE 280700Z 2808/2817 VRB02MPS 0200 FG IC VV001 TXM18/2808Z TNM22/2815Z
FM280900 VRB02MPS CAVOK
BECMG 2812/2813 BKN014
FM281400 VRB02MPS 0200 FG IC BKN001
 
Хабаровск (Новый)
METAR UHHH 281400Z 09002MPS CAVOK M13/M16 Q1018 R23R/090060 R23L/////// NOSIG RMK QFE757/1010


NOWCAST.SU UHHH 281400Z VRB02MPS 9999 OVC035 M13/M16 Q1018 NOSIG
RMK ICE: FBL FL10/FL170 TURB: MOD FL300/FL310
AUTOTAF.ME UHHH 280900Z 2810/2819 VRB02MPS 1000 BR OVC003 TXM12/2816Z TNM13/2810Z
FM281100 VRB02MPS 9999 OVC024
BECMG 2816/2817 BKN008
FM281800 04004MPS 5000 BR OVC007
BECMG 2818/2819 2100
TAF UHHH 281046Z 2812/2918 14003MPS 9999 SCT020CB
TEMPO 2812/2820 3100 -SHSN BR SCT011 BKN020CB
FM282000 04006MPS 1600 SHSN BKN011 BKN020CB
TEMPO 2820/2907 05008G13MPS 0400 +SHSN BLSN BKN005 BKN015CB=
Комсомольск-н/А (Дземги)
 


NOWCAST.SU UHKD 281400Z VRB02MPS 0500 FG IC BKN002 M15/M16 Q1020 NOSIG
RMK ICE: FBL FL10/FL150
AUTOTAF.ME UHKD 281100Z 2812/2821 VRB02MPS 1000 BR BKN003 TXM13/2820Z TNM15/2812Z
FM281400 VRB02MPS 0500 FG IC BKN002
BECMG 2816/2817 FZFG
FM281800 VRB02MPS 9999 BKN024
FM282100 35003MPS 4500 BR NSC
 
Комсомольск-н/А (Хурба)
 


NOWCAST.SU UHKK 281400Z VRB02MPS 0500 FG IC BKN002 M15/M17 Q1020 NOSIG
RMK ICE: FBL FL10/FL150
AUTOTAF.ME UHKK 280900Z 2810/2819 VRB02MPS 1000 BR BKN003 TXM14/2818Z TNM15/2810Z
FM281400 VRB02MPS 0500 FG IC BKN002
FM281800 VRB02MPS 9999 BKN024
 
Советская Гавань (Май-Гатка)
 


NOWCAST.SU UHKM 281400Z VRB02MPS 9999 SKC M12/M16 Q1019 NOSIG
RMK ICE: FBL FL120/FL150 TURB: MOD FL250/FL410
AUTOTAF.ME UHKM 280700Z 2808/2817 28003MPS CAVOK TXM08/2808Z TNM12/2813Z
BECMG 2816/2817 FEW026
 
Анадырь (Угольный)
METAR UHMA 281400Z 10009MPS 5000 -SN BLSN SCT014 BKN022 OVC033 M03/M05 Q1026 R01/////// NOSIG RMK TDZ R01/10009G12MPS END R01/09008G10MPS QFE766/1021


NOWCAST.SU UHMA 281400Z 10011G17MPS 5000 -SN BR BKN011 M05/M06 Q1027 NOSIG
RMK ICE: MOD FL40/FL50 FBL FL10/FL170 TURB: MOD FL10/FL20 MOD SFC/FL20
AUTOTAF.ME UHMA 280700Z 2808/2817 07008G14MPS 4000 BLSN BKN012 TXM03/2817Z TNM10/2808Z
FM280900 07008G14MPS 9999 DRSN BKN012
BECMG 2809/2810 BR
FM281200 08007G13MPS 3000 BR BKN005
BECMG 2812/2813 BLSN
FM281400 10011G17MPS 5000 -SN BR BKN011
BECMG 2814/2815 -SN BLSN
FM281600 11012G18MPS 2000 SN BLSN OVC012
FM281700 11011G17MPS 9999 -SN DRSN OVC016
TAF UHMA 281050Z 2812/2912 11016G22MPS 0600 -SN BLSN VV008
TEMPO 2812/2905 10022G29MPS 0200 +SN BLSN VV001
BECMG 2905/2907 9999 NSW SCT005 SCT015
TEMPO 2907/2912 14010G15MPS 5000 -RASN BR BKN004 BKN015=
Бухта Провидения
METAR UHMD 280500Z 03005MPS P1000 FEW020 SCT026 BKN100 M05/M08 Q1034 RMK QBB600 MT OBSC QFE775/1033


NOWCAST.SU UHMD 281400Z 09009MPS 9999 DRSN BKN030 M05/M08 Q1033 NOSIG
RMK ICE: MOD FL30/FL40 FBL FL10/FL20 TURB: MOD SFC/FL30
AUTOTAF.ME UHMD 280700Z 2808/2817 11008MPS 9999 DRSN BKN023 TXM05/2808Z TNM05/2808Z TAF AMD UHMD 280500Z 2803/2809 CNL=
Залив Креста
 


NOWCAST.SU UHME 281400Z 05003MPS 9999 BKN300 M15/M16 Q1034 NOSIG
RMK ICE: FBL FL20/FL40
AUTOTAF.ME UHME 280700Z 2808/2817 04003MPS CAVOK TXM15/2811Z TNM16/2808Z
BECMG 2808/2809 SCT035
BECMG 2809/2810 NSC
FM281600 05003MPS 1000 BR OVC003
FM281700 05003MPS CAVOK
 
Омсукчан
 


NOWCAST.SU UHMF 281400Z 32003MPS 9999 -SN OVC006 M23/M25 Q1006 NOSIG
RMK ICE: FBL FL40/FL170
AUTOTAF.ME UHMF 280700Z 2808/2817 02004MPS 2000 SN BR OVC006 TXM22/2808Z TNM25/2817Z
FM281100 35003MPS 9999 -SN BKN006
BECMG 2814/2815 OVC012
BECMG 2815/2816 OVC026
 
Мыс Шмидта
 


NOWCAST.SU UHMI 281400Z 24003MPS 9999 OVC260 M20/M22 Q1029 NOSIG
AUTOTAF.ME UHMI 280700Z 2808/2817 23003MPS CAVOK TXM20/2812Z TNM22/2808Z  
Кепервеем
 


NOWCAST.SU UHMK 281400Z VRB02MPS 9999 SCT040 M28/M30 Q1023 NOSIG
RMK ICE: FBL FL20/FL150
AUTOTAF.ME UHMK 281100Z 2812/2821 VRB02MPS 9999 BKN014 TXM24/2821Z TNM29/2816Z
BECMG 2812/2813 NSC
BECMG 2813/2814 SCT040
BECMG 2814/2815 NSC
 
Залив Лаврентия
 


NOWCAST.SU UHML 281400Z 13005MPS 9999 BKN018 M06/M10 Q1035 NOSIG
RMK ICE: MOD FL30/FL40 FBL FL10/FL20 TURB: MOD SFC/FL30
AUTOTAF.ME UHML 280700Z 2808/2817 10003MPS 9999 OVC016 TXM06/2808Z TNM06/2808Z
BECMG 2815/2816 NSC
BECMG 2816/2817 BKN026
 
Магадан (Сокол)
METAR UHMM 281400Z 06002MPS 020V090 0800 0500S R10/0800D +SN VV005 M12/M14 Q1000 RMK QFE735 R28/16001MPS


NOWCAST.SU UHMM 281400Z 36008MPS 9999 -SN DRSN BKN015 M12/M15 Q1003 NOSIG
RMK ICE: MOD FL50/FL120 TURB: MOD FL40/FL60 MOD FL40/FL50
AUTOTAF.ME UHMM 280900Z 2810/2819 36008MPS 1500 SN BLSN BKN008 TXM11/2810Z TNM13/2817Z
BECMG 2811/2812 BKN014
FM281300 36008MPS 9999 -SN DRSN BKN021
FM281600 36007MPS 9999 -SN OVC008
FM281700 36007MPS 6000 -SN OVC047
TAF UHMM 281053Z 2812/2918 02003G10MPS 1000 SHSN BKN005 OVC015CB
TEMPO 2812/2904 0300 +SHSN VV002
BECMG 2904/2906 3100 -SHSN BKN011 OVC017CB=
Омолон
 


NOWCAST.SU UHMN 281400Z VRB02MPS 0500 SN FG IC VV009 M23/M25 Q1015 NOSIG
RMK ICE: FBL FL10/FL170
AUTOTAF.ME UHMN 281100Z 2812/2821 VRB02MPS 0500 FG IC BKN009 TXM22/2815Z TNM24/2812Z
BECMG 2813/2814 SN FG IC
FM281500 VRB02MPS 9999 -SN OVC009
BECMG 2816/2817 BR
 
Марково
 


NOWCAST.SU UHMO 281400Z 03005G11MPS 9999 OVC027 M13/M14 Q1025 NOSIG
RMK ICE: MOD FL40/FL90 FBL FL10/FL170
AUTOTAF.ME UHMO 280700Z 2808/2817 01005MPS 6000 BR OVC031 TXM10/2817Z TNM17/2808Z
BECMG 2814/2815 BR
 
Певек
 


NOWCAST.SU UHMP 281400Z VRB02MPS 9999 OVC060 M15/M17 Q1028 NOSIG
RMK ICE: FBL FL10/FL150
AUTOTAF.ME UHMP 281100Z 2812/2821 VRB02MPS CAVOK TXM14/2820Z TNM15/2812Z  
Беринговский
 


NOWCAST.SU UHMR 281400Z 11015G20MPS 1000 SN BLSN OVC018 M02/M04 Q1025 NOSIG
RMK ICE: MOD FL10/FL70 FBL FL90/FL170 TURB: MOD FL10/FL20 MOD SFC/FL20
AUTOTAF.ME UHMR 280700Z 2808/2817 10015G20MPS 0500 SN BLSN OVC012 TXM02/2808Z TNM02/2808Z
BECMG 2809/2810 1000
BECMG 2812/2813 OVC017
 
Сеймчан
 


NOWCAST.SU UHMS 281400Z 01005MPS 2000 SN BKN038 M28/M30 Q1019 NOSIG
RMK ICE: MOD FL50/FL110 FBL FL120/FL130 TURB: MOD SFC/FL30
AUTOTAF.ME UHMS 280700Z 2808/2817 01004MPS 1500 SN OVC021 TXM28/2808Z TNM28/2808Z  
Магадан-13
 


NOWCAST.SU UHMT 281400Z 02009G15MPS 0500 SN BLSN BKN018 M07/M10 Q1002 NOSIG
RMK ICE: MOD FL90/FL120 FBL FL10/FL70 TURB: MOD FL10/FL70 MOD SFC/FL30
AUTOTAF.ME UHMT 280700Z 2808/2817 02007G13MPS 1000 SN OVC012 TXM05/2809Z TNM07/2814Z
BECMG 2808/2809 SN BLSN
BECMG 2809/2810 0500
BECMG 2810/2811 02012G18MPS
FM281200 02009G15MPS 0500 SN BLSN BKN019
FM281300 02009G15MPS 0500 SN BLSN BKN010
FM281400 02009G15MPS 0500 SN BLSN BKN018
FM281500 02008G13MPS 1500 SN BLSN BKN024
FM281600 02008MPS 1500 SN BLSN BKN026
 
Усть-Омчуг
 


NOWCAST.SU UHMV 281400Z 02004MPS 2000 SN BR OVC010 M24/M26 Q1005 NOSIG
RMK ICE: FBL FL40/FL120
AUTOTAF.ME UHMV 280700Z 2808/2817 02005MPS 2000 SN OVC011 TXM24/2808Z TNM24/2808Z
BECMG 2811/2812 SN BR
BECMG 2816/2817 SN
 
Северо-Эвенск
 


NOWCAST.SU UHMW 281400Z 02010G16MPS 9000 -SN DRSN OVC012 M07/M11 Q1008 NOSIG
RMK ICE: SEV FL70/FL80 MOD FL40/FL120 FBL FL20/FL170 TURB: MOD FL10/FL50 MOD FL30/FL40
AUTOTAF.ME UHMW 280700Z 2808/2817 04008G14MPS 1500 SN BLSN OVC020 TXM07/2814Z TNM08/2808Z
FM281000 04007G13MPS 9999 -SN OVC022
FM281400 02010G16MPS 9000 -SN DRSN OVC012
FM281500 02010G16MPS 4000 -SN BLSN OVC011
FM281600 02010G16MPS 9999 -SN DRSN OVC015
FM281700 02010G16MPS 2000 SN BLSN OVC014
 
Богородское
 


NOWCAST.SU UHNB 281400Z VRB02MPS 5000 BR SKC M21/M22 Q1018 NOSIG
RMK ICE: FBL FL10/FL30 TURB: MOD FL250/FL260
AUTOTAF.ME UHNB 280700Z 2808/2817 VRB02MPS 5000 BR NSC TXM17/2808Z TNM22/2816Z  
Херпучи
 


NOWCAST.SU UHNH 281400Z VRB02MPS 9999 SKC M21/M22 Q1020 NOSIG
RMK ICE: FBL FL10/FL20
AUTOTAF.ME UHNH 280700Z 2808/2817 VRB02MPS CAVOK TXM17/2808Z TNM22/2816Z  
Николаевск-на-Амуре
 


NOWCAST.SU UHNN 281400Z VRB02MPS 9999 SKC M18/M20 Q1018 NOSIG
RMK ICE: FBL FL10/FL40 TURB: MOD FL250/FL260
AUTOTAF.ME UHNN 280700Z 2808/2817 VRB02MPS CAVOK TXM17/2808Z TNM18/2809Z  
Ургалан
 


NOWCAST.SU UHNU 281400Z VRB02MPS 3500 BR FEW220 M35/M37 Q1023 NOSIG
AUTOTAF.ME UHNU 280700Z 2808/2817 VRB02MPS 5000 BR NSC TXM33/2808Z TNM36/2816Z
BECMG 2813/2814 3500
FM281600 VRB02MPS CAVOK
FM281700 VRB02MPS 3500 BR NSC
 
Нелькан
 


NOWCAST.SU UHNX 281400Z VRB02MPS 9999 SKC M38/M40 Q1028 NOSIG
RMK TURB: MOD FL40/FL50
AUTOTAF.ME UHNX 280700Z 2808/2817 VRB02MPS 5000 BR NSC TXM36/2808Z TNM38/2813Z
BECMG 2812/2813 3500
FM281400 VRB02MPS CAVOK
 
Охотск
 


NOWCAST.SU UHOO 281400Z 32007G13MPS 9999 OVC030 M19/M24 Q1010 NOSIG
RMK ICE: FBL FL40/FL110 TURB: MOD FL10/FL20 MOD SFC/FL20
AUTOTAF.ME UHOO 280700Z 2808/2817 32007G13MPS CAVOK TXM18/2817Z TNM20/2808Z
BECMG 2809/2810 BKN042
 
Оссора
 


NOWCAST.SU UHPD 281400Z 02015G21MPS 0500 SN BLSN OVC011 M03/M04 Q0994 NOSIG
RMK ICE: MOD FL40/FL170 FBL FL10/FL190 TURB: MOD FL10/FL60 MOD FL40/FL50
AUTOTAF.ME UHPD 280700Z 2808/2817 06013G18MPS 1000 SN BLSN OVC007 TXM01/2808Z TNM03/2811Z
BECMG 2808/2809 0500
FM281000 04014G19MPS 1000 SN BLSN OVC013
BECMG 2810/2811 0500
 
Палана
 


NOWCAST.SU UHPL 281400Z 36004MPS 7000 -SN OVC022 M02/M04 Q0995 NOSIG
RMK ICE: MOD FL110/FL170 FBL FL10/FL90
AUTOTAF.ME UHPL 280700Z 2808/2817 09012G18MPS CAVOK TX01/2808Z TNM04/2817Z
FM280900 09012G18MPS 2000 BLSN NSC
FM281000 08009G15MPS 9999 DRSN NSC
FM281100 05005G11MPS 9999 -SN OVC049
BECMG 2811/2812 7000
FM281500 36004MPS 2000 SN OVC016
BECMG 2816/2817 BKN025
 
Козыревск
 


NOWCAST.SU UHPO 281400Z 01009G15MPS 1500 SN BLSN OVC021 M01/M03 Q0991 NOSIG
RMK ICE: MOD FL50/FL120 FBL FL10/FL170 TURB: MOD SFC/FL40
AUTOTAF.ME UHPO 280700Z 2808/2817 VRB02MPS CAVOK TXM01/2810Z TNM02/2808Z
BECMG 2808/2809 BR
FM281000 VRB02MPS 5000 -SN BR BKN010
FM281100 36004MPS 2000 SN BR BKN010
FM281200 36005G11MPS 1500 SN BKN011
FM281300 36008G14MPS 1500 SN BLSN OVC015
BECMG 2813/2814 OVC021
BECMG 2814/2815 SN
FM281700 VRB02MPS 1500 SN BKN020
 
Петропавловск-Камчатский (Елизово)
METAR UHPP 281400Z 29006MPS 9999 FEW050 BKN120 02/M06 Q0997 R34L/750149 NOSIG RMK QFE744/0992


NOWCAST.SU UHPP 281400Z 29014MPS 2000 BLSN OVC050 00/M05 Q0996 NOSIG
RMK ICE: FBL FL20/FL120 TURB: MOD FL20/FL100 MOD SFC/FL30
AUTOTAF.ME UHPP 280800Z 2809/2818 30010G16MPS 9999 -SN DRSN OVC025 TX01/2811Z TNM01/2816Z
FM281400 29014MPS 2000 BLSN NSC
BECMG 2815/2816 29015MPS
TAF UHPP 281054Z 2812/2918 31005G15MPS 9999 BKN030CB
TEMPO 2812/2905 27010G20MPS 1000 SHSN BLSN VV003
BECMG 2910/2912 17003G12MPS=
Тиличики
 


NOWCAST.SU UHPT 281400Z 03009G15MPS 1500 SN BLSN OVC021 M03/M04 Q1000 NOSIG
RMK ICE: MOD FL30/FL40 FBL FL10/FL190 TURB: MOD FL20/FL40 MOD SFC/FL30
AUTOTAF.ME UHPT 280700Z 2808/2817 36005G11MPS CAVOK TX01/2817Z TNM10/2808Z
FM280900 36006G12MPS 9000 BR BKN047
BECMG 2809/2810 5000
FM281100 01006G12MPS 9999 BKN039
BECMG 2811/2812 -SN
FM281300 02008G14MPS 2000 SN BLSN OVC028
FM281500 04012G18MPS 0500 SN BLSN OVC015
BECMG 2816/2817 +SN
 
Авачинский
 


NOWCAST.SU UHQA 281400Z 29014MPS 2000 BLSN OVC055 00/M05 Q0996 NOSIG
RMK ICE: FBL FL20/FL120 TURB: MOD FL20/FL100 MOD SFC/FL30
AUTOTAF.ME UHQA 280700Z 2808/2817 30010G16MPS 9999 -SN DRSN BKN026 TX01/2811Z TNM01/2816Z
FM281400 29014MPS 2000 BLSN NSC
BECMG 2815/2816 29015MPS
 
Оха (Новостройка)
 


NOWCAST.SU UHSH 281400Z 25009G15MPS 9999 -SN DRSN BKN017 M10/M12 Q1017 NOSIG
RMK ICE: FBL FL10/FL40
AUTOTAF.ME UHSH 280700Z 2808/2817 28012G17MPS 2000 SN BLSN OVC012 TXM07/2808Z TNM10/2813Z
FM281100 26010G16MPS 9999 -SN DRSN OVC017
FM281600 25006G12MPS 5000 -SN BKN018
FM281700 25006G12MPS CAVOK
 
Ясный
 


NOWCAST.SU UHSI 281400Z 30009G14MPS 9999 VCSH BKN041CB 02/M02 Q1023 NOSIG
RMK ICE: FBL FL20/FL70 TURB: MOD FL360/FL390 MOD SFC/FL50
AUTOTAF.ME UHSI 280700Z 2808/2817 29007MPS 1500 SHSN BKN023CB TX03/2810Z TN02/2808Z
FM281000 29007MPS 9999 -SHRASN BKN033CB
BECMG 2813/2814 VCSH
FM281500 29008G13MPS 9999 BKN041
 
Шахтерск
 


NOWCAST.SU UHSK 281400Z VRB02MPS 9999 BKN027 M05/M11 Q1022 NOSIG
RMK ICE: MOD FL40/FL50 FBL FL30/FL50 TURB: MOD FL260/FL270 MOD FL30/FL40
AUTOTAF.ME UHSK 280700Z 2808/2817 31006MPS 9999 BKN039 TXM05/2808Z TNM06/2817Z
BECMG 2812/2813 VRB02MPS
 
Южно-Курильск (Менделеево)
 


NOWCAST.SU UHSM 281400Z VRB02MPS 9999 OVC154 04/M01 Q1025 NOSIG
RMK ICE: FBL FL20/FL190 TURB: MOD FL300/FL410
AUTOTAF.ME UHSM 280700Z 2808/2817 VRB02MPS 9999 SCT029 TX05/2808Z TN04/2811Z
BECMG 2812/2813 NSC
BECMG 2814/2815 BKN030
 
Ноглики
 


NOWCAST.SU UHSN 281400Z 25003MPS 9999 SKC M15/M18 Q1020 NOSIG
RMK ICE: FBL FL10/FL20
AUTOTAF.ME UHSN 280800Z 2809/2818 26003MPS CAVOK TXM15/2809Z TNM16/2811Z  
Зональное
 


NOWCAST.SU UHSO 281400Z VRB02MPS 9999 SKC M13/M15 Q1020 NOSIG
RMK ICE: FBL FL10/FL50 TURB: MOD FL230/FL240
AUTOTAF.ME UHSO 280700Z 2808/2817 VRB02MPS 9999 BKN013 TXM12/2808Z TNM13/2809Z
BECMG 2809/2810 NSC
 
Южно-Сахалинск (Хомутово)
METAR UHSS 281400Z 36002MPS 9999 FEW040 M08/M10 Q1023 R01/150065 NOSIG RMK QFE766/1022


NOWCAST.SU UHSS 281400Z VRB02MPS 0500 FZFG VV002 M08/M10 Q1021 NOSIG
RMK ICE: FBL FL20/FL170 TURB: MOD FL280/FL410
AUTOTAF.ME UHSS 280900Z 2810/2819 VRB02MPS 9999 BKN025 TXM06/2819Z TNM09/2813Z
FM281100 VRB02MPS 7000 BR SCT033
FM281200 VRB02MPS 0200 FZFG VV001
BECMG 2812/2813 OVC002
FM281700 VRB02MPS 9999 BKN011
BECMG 2818/2819 NSC
TAF UHSS 281100Z 2812/2918 01003MPS 9999 BKN030CB
FM281900 13003G08MPS 0700 SHSNRA FZFG BKN004 BKN020CB
BECMG 2901/2903 6000 -SHRA BKN016CB
BECMG 2905/2907 25003G08MPS=
Одопту
 


NOWCAST.SU UHSU 281400Z 27011MPS 9999 DRSN BKN028 M09/M13 Q1019 NOSIG
RMK ICE: FBL FL10/FL40
AUTOTAF.ME UHSU 280700Z 2808/2817 28012MPS 2000 BLSN BKN028 TXM08/2808Z TNM10/2815Z
FM280900 27011MPS 9999 DRSN BKN027
BECMG 2811/2812 NSC
BECMG 2812/2813 BKN030
BECMG 2816/2817 NSC
 
Порт Восточный
 


NOWCAST.SU UHTK 281400Z VRB02MPS 5000 -RA BR OVC008 04/03 Q1008 NOSIG
RMK ICE: SEV FL110/FL150 MOD FL170/FL180 FBL FL90/FL190 TURB: MOD FL30/FL360
AUTOTAF.ME UHTK 280700Z 2808/2817 VRB02MPS 5000 -RA BR OVC010 TX04/2814Z TN02/2808Z
BECMG 2809/2810 3500
FM281500 VRB02MPS 9999 -RA OVC008
BECMG 2815/2816 OVC022
FM281700 VRB02MPS CAVOK
 
Самарга
 


NOWCAST.SU UHTS 281400Z VRB02MPS 9999 OVC085 M07/M12 Q1019 NOSIG
RMK ICE: FBL FL30/FL170 TURB: MOD FL250/FL300
AUTOTAF.ME UHTS 280700Z 2808/2817 VRB02MPS 9999 BKN040 TXM07/2808Z TNM08/2810Z
BECMG 2810/2811 NSC
FM281600 VRB02MPS 9999 -SN BKN021
FM281700 VRB02MPS 1500 SN BKN014
 
Арсеньев
 


NOWCAST.SU UHWA 281400Z VRB02MPS 0800 SN FG VV003 00/M01 Q1008 NOSIG
RMK ICE: MOD FL40/FL170 FBL FL10/FL190 TURB: MOD FL40/FL60
AUTOTAF.ME UHWA 280700Z 2808/2817 VRB02MPS 1000 SN BR OVC005 TX00/2814Z TNM02/2809Z
FM280900 VRB02MPS 0800 SN FZFG VV003
BECMG 2813/2814 SN FG
BECMG 2814/2815 FZRA BR
FM281600 VRB02MPS 0500 FZRA FG VV002
BECMG 2816/2817 FZRA FZFG
 
Остров Русский (Аякс)
 


NOWCAST.SU UHWH 281400Z 35005MPS 9999 -FZRA OVC013 M01/M02 Q1010 NOSIG
RMK ICE: FBL FL10/FL170 TURB: MOD FL20/FL340 MOD FL20/FL30
AUTOTAF.ME UHWH 280700Z 2808/2817 01004MPS 9999 -FZRA OVC008 TX00/2808Z TNM01/2811Z
FM281300 35005MPS 9000 -FZRA BR OVC013
BECMG 2813/2814 -FZRA
BECMG 2814/2815 OVC020
BECMG 2816/2817 NSC
 
Кавалерово
 


NOWCAST.SU UHWK 281400Z VRB02MPS 0500 SN FZFG VV010 M05/M06 Q1011 NOSIG
RMK ICE: SEV FL120/FL170 MOD FL20/FL190 TURB: MOD FL60/FL360
AUTOTAF.ME UHWK 280700Z 2808/2817 VRB02MPS 1000 SN BR OVC011 TXM03/2808Z TNM05/2811Z
BECMG 2808/2809 SN FZFG
BECMG 2810/2811 0500
FM281700 VRB02MPS 1000 SN BR OVC008
 
Озерные Ключи
 


NOWCAST.SU UHWL 281400Z 35004MPS 9999 -FZRA OVC008 M04/M05 Q1011 NOSIG
RMK ICE: MOD FL120/FL130 FBL FL10/FL170 TURB: MOD FL40/FL50 MOD SFC/FL40
AUTOTAF.ME UHWL 280700Z 2808/2817 34003MPS 0800 +SN OVC010 TXM03/2808Z TNM04/2813Z
FM281200 34005MPS 9999 -FZRA OVC008
FM281300 34004MPS 6000 -FZRA BR OVC008
BECMG 2813/2814 -FZRA
BECMG 2815/2816 OVC029
BECMG 2816/2817 OVC001
 
Уссурийск (Барановский)
 


NOWCAST.SU UHWU 281400Z 36003MPS 1500 SN BR OVC008 M04/M06 Q1012 NOSIG
RMK ICE: MOD FL10/FL90 FBL FL30/FL170 TURB: MOD SFC/FL20
AUTOTAF.ME UHWU 280700Z 2808/2817 01005MPS 1000 SN BR OVC009 TXM04/2808Z TNM05/2811Z
BECMG 2810/2811 SN FZFG
BECMG 2811/2812 SN BR
BECMG 2813/2814 1500
 
Владивосток (Кневичи)
METAR UHWW 281400Z 31003MPS 8000 -SHSN SCT010 BKN023CB M03/M05 Q1012 R25L/690035 NOSIG RMK QFE758


NOWCAST.SU UHWW 281400Z 35005MPS 4000 -FZRA BR OVC009 M04/M05 Q1012 NOSIG
RMK ICE: MOD FL70/FL80 FBL FL10/FL170 TURB: MOD FL50/FL60 MOD SFC/FL40
AUTOTAF.ME UHWW 281200Z 2813/2822 35005MPS 9999 -FZRA OVC009 TXM03/2822Z TNM04/2813Z
FM281400 35005MPS 4000 -FZRA BR OVC009
BECMG 2814/2815 7000
FM281600 01003MPS CAVOK
FM281800 06003MPS 9999 -FZRA OVC008
FM281900 VRB02MPS CAVOK
FM282000 VRB02MPS 9999 -FZRA BKN008
FM282100 VRB02MPS 1000 SN BR BKN003
FM282200 33003MPS 9999 -SN SCT030
TAF UHWW 281100Z 2812/2912 34003G08MPS 6000 -SHSN FEW003 BKN016CB
TEMPO 2812/2824 0300 +SHSN +FZRA FZFG BKN002 BKN016CB
FM290000 34004G09MPS 9999 BKN025CB
TEMPO 2900/2912 34012G17MPS -SHSN BKN017CB=
Чита (Кадала)
METAR UIAA 281400Z AUTO 24004MPS 9999 NCD M23/M30 Q1028 RMK QFE712/0949


NOWCAST.SU UIAA 281400Z 29005G11MPS 9999 BKN025 M23/M28 Q1025 NOSIG
RMK TURB: MOD FL40/FL70 MOD SFC/FL50
AUTOTAF.ME UIAA 281000Z 2811/2820 29005G11MPS 9999 BKN025 TXM22/2811Z TNM25/2819Z
BECMG 2817/2818 BKN015
TAF AMD UIAA 281330Z 2813/2912 19005G10MPS 9999 SCT030CB
TEMPO 2813/2903 25003G08MPS
TEMPO 2903/2912 31005G10MPS=
Краснокаменск
 


NOWCAST.SU UIAE 281400Z 31003MPS 3500 BR OVC040 M20/M23 Q1019 NOSIG
RMK ICE: FBL FL30/FL50
AUTOTAF.ME UIAE 280700Z 2808/2817 VRB02MPS 9999 -SN OVC011 TXM18/2808Z TNM21/2816Z
BECMG 2811/2812 OVC040
FM281400 31003MPS 3500 BR OVC040
BECMG 2815/2816 6000
 
Могоча
 


NOWCAST.SU UIAM 281400Z VRB02MPS 9999 BKN040 M24/M27 Q1021 NOSIG
RMK TURB: MOD FL150/FL160
AUTOTAF.ME UIAM 280700Z 2808/2817 VRB02MPS 9999 BKN041 TXM21/2808Z TNM24/2813Z  
Чара
 


NOWCAST.SU UIAR 281400Z VRB02MPS 3500 BR FEW190 M28/M31 Q1026 NOSIG
AUTOTAF.ME UIAR 281000Z 2811/2820 VRB02MPS 9999 BKN024 TXM27/2811Z TNM31/2819Z
BECMG 2812/2813 NSC
FM281400 VRB02MPS 3500 BR NSC
 
Газимурский завод
 


NOWCAST.SU UIAS 281400Z VRB02MPS 0500 FG IC VV009 M23/M25 Q1018 NOSIG
RMK ICE: FBL FL40/FL50
AUTOTAF.ME UIAS 280700Z 2808/2817 VRB02MPS 9999 OVC009 TXM20/2808Z TNM24/2816Z
FM280900 VRB02MPS 0300 FG IC VV003
FM281100 VRB02MPS 1000 SN BR OVC003
BECMG 2812/2813 OVC009
FM281400 VRB02MPS 0500 FG IC VV009
 
Братск
METAR UIBB 281400Z 27006MPS 240V300 5000 -SHSN BKN048CB M25/M28 Q1035 R30/490240 NOSIG RMK QFE732/0977


NOWCAST.SU UIBB 281400Z 28005G11MPS 9999 -SN OVC013 M23/M26 Q1038 NOSIG
RMK ICE: FBL FL20/FL90 TURB: MOD SFC/FL40
AUTOTAF.ME UIBB 280700Z 2808/2817 27005G11MPS 9999 -SN OVC013 TXM22/2817Z TNM23/2808Z TAF UIBB 281100Z 2812/2912 27006G12MPS 6000 -SHSN DRSN FEW001 BKN017CB
TEMPO 2812/2903 1900 SHSN BLSN VV009=
Железногорск-Илимский
 


NOWCAST.SU UIBV 281400Z 27003MPS 9999 -SN SKC M25/M28 Q1035 NOSIG
RMK ICE: FBL FL20/FL30 TURB: MOD SFC/FL30
AUTOTAF.ME UIBV 280700Z 2808/2817 26004MPS 9999 -SN OVC011 TXM25/2808Z TNM25/2808Z
BECMG 2809/2810 NSC
BECMG 2810/2811 OVC011
BECMG 2812/2813 NSC
FM281400 27003MPS 9999 -SN NSC
 
Хилок
 


NOWCAST.SU UICH 281400Z 26004MPS 6000 HZ SCT095 M26/M31 Q1028 NOSIG
RMK TURB: MOD FL50/FL60
AUTOTAF.ME UICH 280700Z 2808/2817 27005G11MPS 9999 OVC023 TXM25/2808Z TNM26/2811Z
FM281100 27005G11MPS 5000 HZ OVC023
BECMG 2811/2812 NSC
BECMG 2815/2816 OVC022
FM281700 27005G11MPS 9999 OVC022
 
Белая
 


NOWCAST.SU UIIB 281400Z 30005G11MPS 9999 -SN OVC009 M21/M23 Q1040 NOSIG
RMK ICE: MOD FL40/FL50 FBL FL20/FL30 TURB: MOD SFC/FL30
AUTOTAF.ME UIIB 280700Z 2808/2817 31004MPS 9999 OVC012 TXM20/2817Z TNM21/2808Z
BECMG 2808/2809 -SN
 
Хужир
 


NOWCAST.SU UIIH 281400Z 31012G17MPS 2000 BLSN BKN038 M20/M23 Q1037 NOSIG
RMK ICE: FBL FL30/FL40 TURB: MOD SFC/FL50
AUTOTAF.ME UIIH 280700Z 2808/2817 30009G14MPS 9999 DRSN BKN035 TXM20/2808Z TNM20/2808Z
FM281100 31011G16MPS 9999 VCSH DRSN OVC036CB
FM281300 31012G17MPS 2000 VCSH BLSN BKN036CB
FM281400 31012G17MPS 2000 BLSN BKN038
 
Иркутск
METAR UIII 281400Z 17001MPS 4500 -SHSN BKN027CB M22/M25 Q1038 R30/490239 NOSIG RMK QFE733/0978


NOWCAST.SU UIII 281400Z 27004MPS 4000 -SN BR OVC007 M21/M23 Q1040 NOSIG
RMK ICE: FBL FL30/FL40 TURB: MOD SFC/FL70
AUTOTAF.ME UIII 281100Z 2812/2821 27003MPS 9999 OVC010 TXM19/2819Z TNM22/2812Z
BECMG 2812/2813 BR
FM281400 27004MPS 4000 -SN BR OVC007
FM281500 28004MPS 1000 SN BR OVC003
FM281800 30004MPS 9999 -SN OVC007
BECMG 2820/2821 OVC010
TAF UIII 281100Z 2812/2912 30003MPS 9999 -SHSN SCT040CB
TEMPO 2812/2815 2900 FU
TEMPO 2815/2912 33010G15MPS 0900 +SHSN BLSN VV004=
Кырен
 


NOWCAST.SU UIIN 281400Z VRB02MPS 9999 SKC M28/M31 Q1027 NOSIG
AUTOTAF.ME UIIN 280700Z 2808/2817 VRB02MPS CAVOK TXM27/2808Z TNM28/2811Z  
Иркутск-2 (Восточный)
 


NOWCAST.SU UIIR 281400Z 28004MPS 9999 -SN OVC009 M21/M23 Q1041 NOSIG
RMK ICE: FBL FL20/FL40 TURB: MOD SFC/FL70
AUTOTAF.ME UIIR 280700Z 2808/2817 29004MPS 9999 OVC023 TXM20/2816Z TNM21/2808Z
BECMG 2809/2810 NSC
FM281300 28003MPS 7000 -SN BR OVC009
BECMG 2813/2814 -SN
 
Качуг
 


NOWCAST.SU UIIX 281400Z VRB02MPS 9999 OVC019 M26/M28 Q1035 NOSIG
RMK ICE: FBL FL30/FL40 TURB: MOD SFC/FL50
AUTOTAF.ME UIIX 280700Z 2808/2817 VRB02MPS CAVOK TXM26/2808Z TNM26/2808Z
BECMG 2808/2809 HZ
FM281000 VRB02MPS 6000 BR OVC019
FM281600 VRB02MPS 4000 BR NSC
 
Бодайбо
 


NOWCAST.SU UIKB 281400Z VRB02MPS 3000 BR FEW120 M35/M37 Q1032 NOSIG
AUTOTAF.ME UIKB 281100Z 2812/2821 VRB02MPS 3000 BR NSC TXM34/2812Z TNM37/2821Z  
Таксимо
 


NOWCAST.SU UIKG 281400Z VRB02MPS 9999 FEW090 M33/M36 Q1028 NOSIG
RMK TURB: MOD FL150/FL160
AUTOTAF.ME UIKG 280700Z 2808/2817 VRB02MPS CAVOK TXM29/2808Z TNM34/2815Z  
Киренск
 


NOWCAST.SU UIKK 281400Z 23004MPS 9999 OVC013 M26/M29 Q1034 NOSIG
RMK ICE: FBL FL20/FL30 TURB: MOD SFC/FL40
AUTOTAF.ME UIKK 281000Z 2811/2820 22004MPS 9999 OVC013 TXM25/2820Z TNM26/2811Z
BECMG 2816/2817 -SN
 
Нижнеудинск
 


NOWCAST.SU UINN 281400Z 30009G15MPS 4500 -SN BLSN OVC038 M18/M24 Q1042 NOSIG
RMK ICE: FBL FL30/FL40 TURB: MOD FL20/FL30 MOD SFC/FL40
AUTOTAF.ME UINN 280700Z 2808/2817 29009G15MPS 9999 -SN DRSN OVC018 TXM18/2814Z TNM19/2808Z
BECMG 2809/2810 OVC038
FM281400 30009G15MPS 4500 -SN BLSN OVC038
BECMG 2814/2815 -SN DRSN
BECMG 2815/2816 -SN BLSN
FM281700 29009G15MPS 3500 BLSN OVC038
 
Казачинск
 


NOWCAST.SU UITK 281400Z 18004MPS 0600 FG IC VV011 M27/M29 Q1035 NOSIG
RMK ICE: FBL FL20/FL30 TURB: MOD FL40/FL50
AUTOTAF.ME UITK 280700Z 2808/2817 20003MPS 9999 OVC017 TXM26/2808Z TNM27/2812Z
FM281400 18004MPS 0600 FG IC VV011
BECMG 2814/2815 NSC
FM281700 VRB02MPS 1000 SN BR NSC
 
Усть-Кут
 


NOWCAST.SU UITT 281400Z 26003MPS 9999 OVC013 M26/M29 Q1033 NOSIG
RMK TURB: MOD SFC/FL40
AUTOTAF.ME UITT 280900Z 2810/2819 25003MPS 9999 OVC013 TXM25/2818Z TNM26/2810Z
BECMG 2814/2815 NSC
BECMG 2816/2817 OVC013
 
Бичура
 


NOWCAST.SU UIUA 281400Z 25004MPS 9999 -SN OVC018 M24/M28 Q1035 NOSIG
RMK ICE: FBL FL40/FL50 TURB: MOD SFC/FL70
AUTOTAF.ME UIUA 280700Z 2808/2817 31007G12MPS 9999 OVC020 TXM23/2808Z TNM24/2811Z
BECMG 2808/2809 HZ
BECMG 2809/2810 6000
BECMG 2810/2811 3500
FM281200 26004MPS 9999 -SN OVC018
FM281400 25004MPS 9999 -SN OVC018
 
Улан-Удэ (Байкал)
METAR UIUU 281400Z 02001MPS 7000 -SHSN BKN037CB M23/M28 Q1036 R26/CLRD60 NOSIG RMK QFE732/0977


NOWCAST.SU UIUU 281400Z 30005G11MPS 9999 -SN OVC019 M23/M27 Q1034 NOSIG
RMK TURB: MOD FL40/FL50
AUTOTAF.ME UIUU 280700Z 2808/2817 30005G11MPS CAVOK TXM22/2815Z TNM23/2808Z
BECMG 2811/2812 OVC019
BECMG 2812/2813 -SN
BECMG 2814/2815 -SN DRSN
TAF UIUU 281100Z 2812/2912 25003G08MPS 5000 -SHSN FU BKN030CB
TEMPO 2812/2912 31006G11MPS 1600 SHSN OVC011CB=
Кабанск
 


NOWCAST.SU UIUX 281400Z 32004MPS 2000 SN OVC010 M20/M23 Q1038 NOSIG
RMK ICE: FBL FL30/FL40 TURB: MOD FL30/FL40 MOD SFC/FL70
AUTOTAF.ME UIUX 280700Z 2808/2817 31005G10MPS 9999 -SN OVC015 TXM19/2817Z TNM21/2808Z
FM281000 31004MPS 2000 SN BR OVC015
BECMG 2812/2813 SN
FM281500 32004MPS 9999 -SN OVC012
FM281700 31005G11MPS 2000 SN OVC015
 
Александрия
 


NOWCAST.SU UKBA 281400Z 08004MPS 3000 BR OVC005 04/03 Q1027 NOSIG
RMK ICE: SEV FL70/FL110 MOD FL50/FL60 FBL FL190/FL200
AUTOTAF.ME UKBA 280700Z 2808/2817 06003MPS 1000 BR OVC003 TX04/2808Z TN04/2808Z
FM280900 07003MPS 3000 BR OVC005
FM281700 08004MPS CAVOK
 
Киев (Борисполь)
 


NOWCAST.SU UKBB 281400Z VRB02MPS 3000 BR BKN005 01/M01 Q1029 NOSIG
RMK ICE: FBL FL10/FL190 TURB: MOD FL150/FL160
AUTOTAF.ME UKBB 280700Z 2808/2817 VRB02MPS 5000 BR BKN010 TX01/2811Z TN00/2808Z
FM280900 VRB02MPS 3000 BR BKN005
FM281500 VRB02MPS 0300 FG VV003
 
Белая Церковь
 


NOWCAST.SU UKBC 281400Z VRB02MPS 5000 BR BKN008 00/M01 Q1028 NOSIG
RMK ICE: MOD FL30/FL40 FBL FL10/FL190
AUTOTAF.ME UKBC 280700Z 2808/2817 VRB02MPS 5000 BR BKN012 TX00/2810Z TNM01/2808Z
FM281100 VRB02MPS 9999 BKN012
FM281300 VRB02MPS 5000 BR BKN009
FM281500 VRB02MPS 2000 BR OVC005
 
Конотоп
 


NOWCAST.SU UKBF 281400Z 10004MPS 9999 -DZ OVC010 02/01 Q1029 NOSIG
RMK ICE: MOD FL30/FL70 FBL FL20/FL190
AUTOTAF.ME UKBF 280700Z 2808/2817 VRB02MPS 0100 FG VV003 TX02/2808Z TN01/2815Z
FM281400 10004MPS 9999 -DZ OVC010
BECMG 2814/2815 -RASN
BECMG 2815/2816 -RASN BR
 
Кировоград (Фёдоровка)
 


NOWCAST.SU UKBK 281400Z 06003MPS 2000 BR OVC005 04/03 Q1026 NOSIG
RMK ICE: MOD FL50/FL90 FBL FL110/FL190
AUTOTAF.ME UKBK 280700Z 2808/2817 04003MPS 3000 BR BKN005 TX04/2813Z TN02/2808Z
FM281000 04003MPS 5000 BR BKN007
FM281100 05003MPS CAVOK
FM281400 06003MPS 2000 BR OVC005
 
Киев (Наливайковка)
 


NOWCAST.SU UKBN 281400Z VRB02MPS 9999 BKN012 M01/M02 Q1029 NOSIG
RMK ICE: MOD FL30/FL40 FBL FL10/FL190 TURB: MOD FL150/FL160
AUTOTAF.ME UKBN 280700Z 2808/2817 VRB02MPS 9999 BKN015 TX00/2811Z TNM01/2808Z
FM281500 VRB02MPS 5000 BR BKN011
BECMG 2815/2816 NSC
BECMG 2816/2817 OVC045
 
Донецк
 


NOWCAST.SU UKCC 281400Z 09005G10MPS 9999 SCT016 03/M02 Q1028 NOSIG
RMK ICE: MOD FL90/FL100 FBL FL30/FL70 TURB: MOD SFC/FL20
AUTOTAF.ME UKCC 280700Z 2808/2817 10004MPS 9999 BKN013 TX03/2809Z TN02/2808Z
BECMG 2810/2811 BKN020
 
Краматорск
 


NOWCAST.SU UKCK 281400Z 08005MPS 9999 BKN015 02/M03 Q1029 NOSIG
RMK ICE: MOD FL90/FL100 FBL FL20/FL70 TURB: MOD SFC/FL20
AUTOTAF.ME UKCK 280700Z 2808/2817 09005MPS 9999 OVC008 TX02/2808Z TN01/2815Z
BECMG 2811/2812 BKN015
BECMG 2815/2816 BKN027
 
Мариуполь
 


NOWCAST.SU UKCM 281400Z 07007MPS 9999 BKN020 05/01 Q1027 NOSIG
RMK ICE: MOD FL90/FL100 FBL FL70/FL80 TURB: MOD SFC/FL20
AUTOTAF.ME UKCM 280700Z 2808/2817 08006MPS 9999 BKN011 TX05/2810Z TN04/2808Z
BECMG 2811/2812 BKN016
 
Северодонецк
 


NOWCAST.SU UKCS 281400Z 09005G10MPS 9999 BKN033 01/M04 Q1031 NOSIG
RMK ICE: MOD FL70/FL80 FBL FL50/FL110 TURB: MOD SFC/FL20
AUTOTAF.ME UKCS 280700Z 2808/2817 10005MPS 9999 BKN012 TX02/2809Z TN00/2817Z
BECMG 2810/2811 BKN019
BECMG 2812/2813 BKN033
BECMG 2815/2816 NSC
FM281700 10005G11MPS 9999 BKN049
 
Луганск
 


NOWCAST.SU UKCW 281400Z 09005G10MPS 9999 FEW340 01/M04 Q1031 NOSIG
RMK ICE: FBL FL50/FL90 TURB: MOD SFC/FL20
AUTOTAF.ME UKCW 280700Z 2808/2817 09005MPS 9999 BKN016 TX01/2808Z TN00/2816Z
BECMG 2809/2810 BKN029
BECMG 2813/2814 NSC
 
Бердянск
 


NOWCAST.SU UKDB 281400Z 08008G13MPS 9999 BKN024 05/02 Q1027 NOSIG
RMK ICE: FBL FL70/FL90 TURB: MOD SFC/FL20
AUTOTAF.ME UKDB 280700Z 2808/2817 08005MPS 9999 BKN016TCU TX06/2810Z TN05/2808Z
BECMG 2812/2813 BKN026
 
Днепр
 


NOWCAST.SU UKDD 281400Z 08004MPS 9999 BKN014 04/01 Q1028 NOSIG
RMK ICE: MOD FL70/FL80 FBL FL50/FL90 TURB: MOD SFC/FL20
AUTOTAF.ME UKDD 280800Z 2809/2818 09003MPS 9999 -DZ OVC010 TX04/2809Z TN03/2817Z
BECMG 2809/2810 -RA
BECMG 2812/2813 BKN015
BECMG 2816/2817 OVC021
 
Запорожье (Мокрая)
 


NOWCAST.SU UKDE 281400Z 08005G10MPS 9999 OVC250 04/01 Q1027 NOSIG
RMK ICE: MOD FL70/FL90 TURB: MOD SFC/FL20
AUTOTAF.ME UKDE 280700Z 2808/2817 10004MPS CAVOK TX05/2810Z TN04/2808Z
BECMG 2808/2809 BKN012
BECMG 2809/2810 BKN017
BECMG 2813/2814 NSC
FM281600 08005MPS 9999 BKN012
 
Мелитополь
 


NOWCAST.SU UKDM 281400Z 09005G10MPS 9999 BKN013 05/03 Q1026 NOSIG
RMK ICE: FBL FL50/FL90
AUTOTAF.ME UKDM 280700Z 2808/2817 09004MPS 9999 OVC014 TX06/2810Z TN04/2816Z  
Кривой Рог (Лозоватка)
 


NOWCAST.SU UKDR 281400Z 08004MPS 5000 -RA BR OVC010 05/04 Q1026 NOSIG
RMK ICE: MOD FL70/FL90 FBL FL50/FL110
AUTOTAF.ME UKDR 280800Z 2809/2818 07003MPS 5000 BR OVC010 TX05/2810Z TN04/2809Z
BECMG 2813/2814 -RA BR
FM281500 08004MPS 9999 -RA OVC010
 
Днепропетровск (Майское)
 


NOWCAST.SU UKEM 281400Z 08005MPS 9999 FEW220 03/01 Q1028 NOSIG
RMK ICE: MOD FL70/FL80 FBL FL50/FL110 TURB: MOD SFC/FL20
AUTOTAF.ME UKEM 280700Z 2808/2817 10004MPS CAVOK TX04/2809Z TN03/2808Z
BECMG 2816/2817 BKN013
 
Бахчисарай
 


NOWCAST.SU UKFC 281400Z 08004MPS 9999 BKN024 07/05 Q1021 NOSIG
AUTOTAF.ME UKFC 280700Z 2808/2817 09003MPS CAVOK TX08/2809Z TN05/2817Z
BECMG 2813/2814 BKN024
BECMG 2814/2815 NSC
 
Simferopol'
 


NOWCAST.SU UKFF 281400Z 08009G14MPS 9999 BKN014 08/06 Q1023 NOSIG
AUTOTAF.ME UKFF 280700Z 2808/2817 08005MPS 9999 BKN014 TX09/2810Z TN07/2817Z  
Симферополь (Гвардейское)
 


NOWCAST.SU UKFG 281400Z 07004MPS 9999 FEW190 08/05 Q1022 NOSIG
AUTOTAF.ME UKFG 280800Z 2809/2818 08004MPS CAVOK TX09/2810Z TN06/2818Z
BECMG 2817/2818 BKN035
 
Севастополь (Бухта Круглая)
 


NOWCAST.SU UKFS 281400Z VRB02MPS 9999 BKN029 11/07 Q1021 NOSIG
RMK ICE: FBL FL70/FL190 TURB: MOD SFC/FL20
AUTOTAF.ME UKFS 280700Z 2808/2817 VRB02MPS 9999 VCSH BKN028CB TX12/2811Z TN11/2808Z
FM280900 VRB02MPS CAVOK
BECMG 2809/2810 BKN032
BECMG 2815/2816 NSC
 
Харьков (Северный)
 


NOWCAST.SU UKHD 281400Z 10005G10MPS 9999 BKN012 01/M02 Q1031 NOSIG
RMK ICE: FBL FL20/FL110 TURB: MOD SFC/FL20
AUTOTAF.ME UKHD 280700Z 2808/2817 10004MPS 9999 BKN012 TX02/2811Z TN00/2817Z  
Харьков (Основа)
 


NOWCAST.SU UKHH 281400Z 10005G10MPS 9999 BKN013 01/M02 Q1031 NOSIG
RMK ICE: FBL FL20/FL110 TURB: MOD SFC/FL20
AUTOTAF.ME UKHH 280700Z 2808/2817 10004MPS 9999 BKN013 TX02/2811Z TN00/2817Z  
Кременчуг (Большая Кахновка)
 


NOWCAST.SU UKHK 281400Z 09004MPS 2000 DZ BR OVC005 04/02 Q1028 NOSIG
RMK ICE: MOD FL50/FL110 FBL FL190/FL200
AUTOTAF.ME UKHK 280700Z 2808/2817 VRB02MPS 2000 BR OVC005 TX04/2808Z TN03/2815Z
FM280900 08003MPS 5000 BR OVC011
FM281100 09003MPS 3000 -DZ BR OVC005
FM281400 09004MPS 2000 DZ BR OVC005
FM281500 09004MPS 9999 -RA OVC011
 
Полтава-национальный (Супруновка)
 


NOWCAST.SU UKHP 281400Z 09004MPS 9999 FEW190 02/00 Q1029 NOSIG
RMK ICE: MOD FL70/FL90 FBL FL50/FL110 TURB: MOD SFC/FL20
AUTOTAF.ME UKHP 280700Z 2808/2817 10004MPS 9999 OVC009 TX03/2808Z TN02/2814Z
BECMG 2809/2810 NSC
FM281100 09004MPS 9999 -DZ OVC009
FM281400 09004MPS CAVOK
FM281700 09005MPS 9999 -DZ BKN009
 
Сумы
 


NOWCAST.SU UKHS 281400Z 10004MPS 9999 BKN009 01/M02 Q1031 NOSIG
RMK ICE: MOD FL70/FL90 FBL FL20/FL120 TURB: MOD SFC/FL20
AUTOTAF.ME UKHS 280700Z 2808/2817 11003MPS 1000 BR OVC003 TX01/2808Z TN00/2817Z
FM280900 11003MPS 2000 BR OVC005
FM281000 11003MPS 9999 BKN008
 
Чугуев
 


NOWCAST.SU UKHW 281400Z 10005G10MPS 9999 BKN014 01/M02 Q1031 NOSIG
RMK ICE: MOD FL70/FL90 FBL FL20/FL110 TURB: MOD SFC/FL20
AUTOTAF.ME UKHW 280700Z 2808/2817 10004MPS 9999 BKN035 TX02/2810Z TN01/2808Z
BECMG 2808/2809 SCT010
BECMG 2809/2810 SCT014
 
Черкассы
 


NOWCAST.SU UKKE 281400Z 05003MPS 2000 BR OVC005 04/03 Q1028 NOSIG
RMK ICE: MOD FL30/FL70 FBL FL90/FL190
AUTOTAF.ME UKKE 280700Z 2808/2817 VRB02MPS 2000 BR BKN005 TX04/2813Z TN02/2808Z
BECMG 2810/2811 -DZ BR
BECMG 2812/2813 DZ BR
BECMG 2813/2814 BR
FM281600 09004MPS 2000 DZ BR OVC005
FM281700 10005MPS 2000 DZ BR OVC005
 
Кировоград
 


NOWCAST.SU UKKG 281400Z 07003MPS 2000 BR OVC005 04/03 Q1027 NOSIG
RMK ICE: MOD FL50/FL90 FBL FL110/FL190
AUTOTAF.ME UKKG 280700Z 2808/2817 04003MPS 1000 BR OVC003 TX04/2810Z TN03/2808Z
FM280900 04003MPS 2000 BR OVC005
 
Киев (Жуляны им. И.И.Сикорского)
 


NOWCAST.SU UKKK 281400Z VRB02MPS 5000 BR BKN011 00/M01 Q1029 NOSIG
RMK ICE: FBL FL10/FL190
AUTOTAF.ME UKKK 281000Z 2811/2820 VRB02MPS 3000 BR BKN005 TX01/2819Z TN00/2811Z
FM281200 VRB02MPS 5000 BR BKN013
FM281700 VRB02MPS 2800 BR BKN005
BECMG 2817/2818 2000
FM281900 VRB02MPS 0100 FG VV003
FM282000 VRB02MPS 1000 RASN BR OVC003
 
Киев (Киев/Антонов Международный)
 


NOWCAST.SU UKKM 281400Z VRB02MPS 5000 BR BKN010 00/M01 Q1029 NOSIG
RMK ICE: MOD FL40/FL50 FBL FL10/FL190 TURB: MOD FL150/FL160
AUTOTAF.ME UKKM 280700Z 2808/2817 VRB02MPS 9999 BKN016 TX00/2810Z TNM01/2808Z
FM281200 VRB02MPS 5000 BR BKN015
FM281500 VRB02MPS 9000 BR NSC
FM281600 VRB02MPS 3000 BR BKN005
 
Житомир (Смаковка)
 


NOWCAST.SU UKKV 281400Z VRB02MPS 5000 BR BKN009 M02/M02 Q1028 NOSIG
RMK ICE: MOD FL30/FL40 FBL FL10/FL170
AUTOTAF.ME UKKV 280700Z 2808/2817 VRB02MPS 9999 OVC011 TXM01/2810Z TNM02/2808Z
FM281200 VRB02MPS 5000 BR BKN009
FM281500 09003MPS CAVOK
FM281600 09003MPS 5000 BR NSC
BECMG 2816/2817 BKN014
 
Самбор (Калинов)
 


NOWCAST.SU UKLA 281400Z 13004MPS 9999 BKN011 M01/M02 Q1024 NOSIG
RMK ICE: MOD FL50/FL70 FBL FL20/FL40 TURB: MOD FL150/FL160
AUTOTAF.ME UKLA 280700Z 2808/2817 13004MPS 3000 BR OVC005 TX01/2811Z TNM02/2815Z
FM280900 13004MPS 9999 BKN011
BECMG 2810/2811 BKN016
 
Ивано-Франковск
 


NOWCAST.SU UKLI 281400Z 13004MPS 9999 BKN011 M01/M02 Q1024 NOSIG
RMK ICE: MOD FL30/FL40 FBL FL20/FL50 TURB: MOD SFC/FL150
AUTOTAF.ME UKLI 280700Z 2808/2817 14004MPS 9999 BKN011 TX00/2809Z TNM01/2808Z
FM281700 13004MPS 2000 BR BKN005
 
Львов (Международный)
 


NOWCAST.SU UKLL 281400Z 12003MPS 9999 FEW170 M01/M02 Q1024 NOSIG
RMK ICE: FBL FL10/FL70 TURB: MOD SFC/FL150
AUTOTAF.ME UKLL 280700Z 2808/2817 12003MPS 3000 BR BKN005 TX00/2810Z TNM03/2817Z
FM280900 12003MPS 9999 BKN010
BECMG 2809/2810 BKN015
BECMG 2813/2814 NSC
 
Черновцы
 


NOWCAST.SU UKLN 281400Z 12003MPS 9999 BKN035 00/M01 Q1025 NOSIG
RMK ICE: FBL FL20/FL170 TURB: MOD SFC/FL30
AUTOTAF.ME UKLN 280700Z 2808/2817 VRB02MPS 9999 BKN012 TX01/2810Z TNM01/2808Z
BECMG 2809/2810 BKN018
BECMG 2813/2814 BKN035
BECMG 2814/2815 BKN015
FM281600 VRB02MPS CAVOK
FM281700 VRB02MPS 6000 BR BKN026
 
Ровно
 


NOWCAST.SU UKLR 281400Z 13003MPS 9999 BKN013 M02/M03 Q1026 NOSIG
RMK ICE: MOD FL40/FL50 FBL FL10/FL70 TURB: MOD SFC/FL170
AUTOTAF.ME UKLR 280700Z 2808/2817 VRB02MPS 9999 BKN013 TXM01/2812Z TNM02/2808Z
FM281100 14003MPS 5000 BR BKN013
FM281300 13003MPS 9999 BKN013
 
Староконстантинов
 


NOWCAST.SU UKLS 281400Z VRB02MPS 3000 BR OVC005 M02/M03 Q1026 NOSIG
RMK ICE: MOD FL30/FL40 FBL FL10/FL170 TURB: MOD SFC/FL30
AUTOTAF.ME UKLS 280700Z 2808/2817 VRB02MPS 3000 BR BKN005 TXM02/2809Z TNM03/2808Z
FM281000 13003MPS 5000 BR OVC012
FM281300 12003MPS 3000 BR OVC005
FM281500 10003MPS 1000 BR OVC003
FM281600 10003MPS 9999 BKN012
 
Ужгород
 


NOWCAST.SU UKLU 281400Z VRB02MPS 9999 BKN023 02/M01 Q1023 NOSIG
RMK ICE: MOD FL50/FL70 FBL FL30/FL40
AUTOTAF.ME UKLU 280800Z 2809/2818 VRB02MPS 9999 BKN016 TX04/2812Z TNM01/2817Z
BECMG 2810/2811 BKN024
BECMG 2815/2816 NSC
BECMG 2817/2818 BKN045
 
Львовский аэропорт Ягеллон
 


NOWCAST.SU UKMC 281400Z 13004MPS 9999 BKN011 00/M02 Q1024 NOSIG
RMK ICE: MOD FL50/FL60 FBL FL20/FL70 TURB: MOD FL150/FL160
AUTOTAF.ME UKMC 280700Z 2808/2817 13004MPS CAVOK TX01/2810Z TNM01/2808Z
BECMG 2808/2809 BKN011
 
Арциз (Червоноглинская)
 


NOWCAST.SU UKOA 281400Z 03005MPS 9999 BKN017 04/00 Q1024 NOSIG
RMK ICE: FBL FL40/FL190
AUTOTAF.ME UKOA 280700Z 2808/2817 03005MPS CAVOK TX05/2811Z TN02/2808Z
BECMG 2808/2809 BKN024
BECMG 2814/2815 BKN012
BECMG 2815/2816 NSC
FM281700 02005MPS 9999 -RA OVC010
 
Одесса (Гидропорт)
 


NOWCAST.SU UKOE 281400Z 03004MPS 9999 -RA OVC012 04/02 Q1024 NOSIG
RMK ICE: MOD FL90/FL100 FBL FL50/FL190
AUTOTAF.ME UKOE 280700Z 2808/2817 04004MPS 9999 BKN012 TX05/2816Z TN03/2808Z
BECMG 2810/2811 -RA
FM281600 04004MPS 1000 DZ BR OVC003
FM281700 04004MPS 9999 -RA OVC012
 
Херсон (Чернобаевка)
 


NOWCAST.SU UKOH 281400Z 07006MPS 9999 -RA BKN011 07/05 Q1024 NOSIG
RMK ICE: MOD FL50/FL90 FBL FL190/FL200
AUTOTAF.ME UKOH 280700Z 2808/2817 06005MPS 9999 BKN012 TX07/2810Z TN06/2808Z
BECMG 2813/2814 -RA
BECMG 2815/2816 OVC021
 
Николаев (Международный)
 


NOWCAST.SU UKON 281400Z 06004MPS 5000 BR BKN011 06/04 Q1025 NOSIG
RMK ICE: MOD FL50/FL90 FBL FL170/FL190
AUTOTAF.ME UKON 280700Z 2808/2817 05004MPS 3000 BR BKN005 TX06/2812Z TN04/2808Z
FM280900 05004MPS 9999 OVC011
FM281400 06004MPS 5000 BR BKN011
FM281500 07004MPS 2000 DZ BR BKN005
 
Одесса (Центральный)
 


NOWCAST.SU UKOO 281400Z 03004MPS 9999 -RA OVC011 05/03 Q1024 NOSIG
RMK ICE: MOD FL90/FL100 FBL FL50/FL190
AUTOTAF.ME UKOO 280700Z 2808/2817 04004MPS 9999 BKN012 TX05/2811Z TN04/2808Z
BECMG 2809/2810 -RA
 
Нежин
 


NOWCAST.SU UKRN 281400Z VRB02MPS 0100 FG VV003 02/02 Q1029 NOSIG
RMK ICE: MOD FL30/FL50 FBL FL10/FL190
AUTOTAF.ME UKRN 280700Z 2808/2817 VRB02MPS 0100 FG VV003 TX02/2810Z TN01/2808Z
FM280900 VRB02MPS 1000 BR OVC003
FM281000 VRB02MPS 2000 BR OVC005
FM281300 VRB02MPS 1000 BR OVC003
FM281400 VRB02MPS 0100 FG VV003
BECMG 2814/2815 NSC
BECMG 2815/2816 OVC003
 
Винница (Гавришовка)
 


NOWCAST.SU UKWW 281400Z 07003MPS 9999 BKN011 M01/M03 Q1027 NOSIG
RMK ICE: MOD FL30/FL40 FBL FL20/FL190 TURB: MOD SFC/FL30
AUTOTAF.ME UKWW 280700Z 2808/2817 VRB02MPS 9999 BKN011 TX00/2810Z TNM01/2808Z
FM281500 07003MPS 5000 BR BKN011
FM281600 07003MPS 3000 BR BKN005
BECMG 2816/2817 2000
 
Архангельск (Талаги)
METAR ULAA 281400Z VRB01MPS 9999 -FZDZ OVC004 M07/M07 Q1038 R26/390142 NOSIG RMK QBB120 QFE777/1036


NOWCAST.SU ULAA 281400Z VRB02MPS 1000 BR BKN003 M08/M08 Q1039 NOSIG
RMK ICE: MOD FL30/FL40 FBL FL10/FL170 TURB: MOD FL90/FL100
AUTOTAF.ME ULAA 280700Z 2808/2817 VRB02MPS 1000 BR BKN003 TXM07/2815Z TNM09/2808Z
BECMG 2816/2817 SN BR
TAF AMD ULAA 281154Z 2812/2912 18003MPS 6000 -FZDZ OVC005
TEMPO 2812/2815 0400 FZDZ -SN FZFG BKN002
FM281500 18003MPS 6000 OVC005
TEMPO 2815/2903 0400 -SN FZFG OVC003
TEMPO 2903/2906 1000 -SN BR OVC002=
Северодвинск
 


NOWCAST.SU ULAD 281400Z 20003MPS 1000 BR OVC003 M07/M08 Q1039 NOSIG
RMK ICE: FBL FL10/FL170
AUTOTAF.ME ULAD 280700Z 2808/2817 VRB02MPS 1000 BR BKN003 TXM06/2817Z TNM09/2808Z
FM281600 20003MPS 9999 -SN OVC010
FM281700 VRB02MPS 1000 SN BR BKN003
 
Мезень
 


NOWCAST.SU ULAE 281400Z 20004MPS 9999 SCT110 M09/M11 Q1036 NOSIG
RMK ICE: MOD FL30/FL120 FBL FL10/FL150
AUTOTAF.ME ULAE 281200Z 2813/2822 21004MPS 1000 SN BR OVC003 TXM07/2822Z TNM10/2813Z
FM281400 20004MPS CAVOK
 
Архангельск (Васьково)
 


NOWCAST.SU ULAH 281400Z VRB02MPS 1000 BR BKN003 M08/M09 Q1039 NOSIG
RMK ICE: MOD FL30/FL40 FBL FL10/FL170
AUTOTAF.ME ULAH 280800Z 2809/2818 20003MPS 1000 BR BKN003 TXM06/2818Z TNM09/2809Z  
Нарьян-Мар
 


NOWCAST.SU ULAM 281400Z 22005MPS 3000 BR OVC005 M10/M12 Q1035 NOSIG
RMK ICE: MOD FL120/FL150 FBL FL10/FL110 TURB: MOD FL150/FL160
AUTOTAF.ME ULAM 280700Z 2808/2817 22005G10MPS 5000 BR BKN045 TXM10/2808Z TNM10/2808Z
FM280900 23005G10MPS 9999 BKN015
FM281100 22005MPS 5000 BR BKN008
BECMG 2812/2813 3000
FM281500 22004MPS 9999 OVC008
BECMG 2815/2816 BR
BECMG 2816/2817 4000
 
Шенкурск
 


NOWCAST.SU ULAN 281400Z 20003MPS 9999 OVC150 M10/M10 Q1043 NOSIG
RMK ICE: FBL FL10/FL170
AUTOTAF.ME ULAN 280700Z 2808/2817 20003MPS CAVOK TXM10/2808Z TNM10/2808Z
FM281600 21003MPS 1000 BR OVC003
 
Онега
 


NOWCAST.SU ULAO 281400Z 22004MPS 0100 FZFG VV003 M05/M06 Q1040 NOSIG
RMK ICE: MOD FL10/FL150 FBL FL10/FL170
AUTOTAF.ME ULAO 280700Z 2808/2817 21005MPS 1000 BR BKN003 TXM05/2810Z TNM06/2808Z
FM281100 22004MPS 4000 BR NSC
FM281300 22004MPS 1000 BR OVC003
FM281400 22004MPS 0100 FZFG VV003
BECMG 2814/2815 0700
BECMG 2815/2816 BR
FM281700 21004MPS 9999 -SN OVC009
 
Карпогоры
 


NOWCAST.SU ULAP 281400Z 22003MPS 1000 BR BKN003 M10/M10 Q1041 NOSIG
RMK ICE: FBL FL10/FL170
AUTOTAF.ME ULAP 280700Z 2808/2817 20003MPS 1000 BR BKN003 TXM09/2815Z TNM11/2808Z
BECMG 2814/2815 FZFG
BECMG 2815/2816 SN BR
 
Каргополь
 


NOWCAST.SU ULAR 281400Z VRB02MPS 9999 SCT160 M09/M10 Q1042 NOSIG
RMK ICE: FBL FL10/FL190
AUTOTAF.ME ULAR 280700Z 2808/2817 VRB02MPS CAVOK TXM08/2809Z TNM10/2817Z  
Соловки
 


NOWCAST.SU ULAS 281400Z 23004MPS 9999 FEW310 M03/M05 Q1038 NOSIG
RMK ICE: MOD FL90/FL150 FBL FL10/FL170
AUTOTAF.ME ULAS 280700Z 2808/2817 24005MPS 9999 BKN008 TXM02/2815Z TNM04/2808Z
BECMG 2810/2811 BKN015
BECMG 2811/2812 NSC
 
Долгощелье
 


NOWCAST.SU ULBD 281400Z 21004MPS 9999 OVC015 M08/M10 Q1037 NOSIG
RMK ICE: FBL FL10/FL170
AUTOTAF.ME ULBD 280700Z 2808/2817 21004MPS 9999 OVC015 TXM08/2814Z TNM10/2808Z
BECMG 2808/2809 NSC
FM281100 21004MPS 9999 -SN OVC009
BECMG 2812/2813 BKN029
FM281400 21004MPS 9999 OVC015
FM281500 21003MPS 1000 BR OVC003
 
Каменка
 


NOWCAST.SU ULBK 281400Z 20004MPS 9999 SCT110 M10/M11 Q1036 NOSIG
RMK ICE: MOD FL30/FL110 FBL FL10/FL170
AUTOTAF.ME ULBK 280800Z 2809/2818 20004MPS 9999 OVC008 TXM08/2817Z TNM11/2809Z
BECMG 2810/2811 -SN
FM281200 21004MPS 1000 SN BR OVC003
FM281400 20004MPS CAVOK
FM281800 21004MPS 1000 BR OVC003
 
Верхняя Золотица
 


NOWCAST.SU ULBW 281400Z 22003MPS 3500 BR OVC120 M03/M04 Q1036 NOSIG
RMK ICE: MOD FL10/FL170 FBL FL10/FL110
AUTOTAF.ME ULBW 280700Z 2808/2817 20003MPS 5000 -SN BR OVC009 TXM02/2817Z TNM06/2808Z
FM281100 22003MPS 3500 BR OVC009
BECMG 2811/2812 OVC005
BECMG 2813/2814 NSC
 
Рогачёво (Амдерма-2)
 


NOWCAST.SU ULDA 281400Z VRB02MPS 1000 SN BR OVC003 00/M01 Q1029 NOSIG
RMK ICE: MOD FL20/FL50 FBL FL10/FL150
AUTOTAF.ME ULDA 280700Z 2808/2817 VRB02MPS 2000 SN BR OVC005 TX00/2808Z TNM01/2816Z
BECMG 2810/2811 -SN BR
BECMG 2812/2813 SN BR
FM281400 VRB02MPS 1000 SN BR OVC003
 
Амдерма
 


NOWCAST.SU ULDD 281400Z 22009MPS 9999 -SN DRSN OVC007 M05/M06 Q1031 NOSIG
RMK ICE: MOD FL50/FL90 FBL FL10/FL150 TURB: MOD SFC/FL20
AUTOTAF.ME ULDD 280700Z 2808/2817 22010MPS 4000 -SN BLSN BKN007 TXM05/2814Z TNM06/2808Z
FM280900 22010MPS 5000 BR NSC
BECMG 2809/2810 BLSN
FM281100 22010MPS 9999 DRSN NSC
FM281200 22010MPS 9999 -SN DRSN OVC007
FM281600 22009MPS 2000 SN BLSN BKN007
 
МР Титова
 


NOWCAST.SU ULDI 281400Z 23005G10MPS 5000 BR SKC M10/M11 Q1033 NOSIG
RMK ICE: MOD FL70/FL120 FBL FL10/FL150
AUTOTAF.ME ULDI 281100Z 2812/2821 23005G11MPS 9999 -SN OVC009 TXM09/2812Z TNM10/2814Z
FM281400 23005G10MPS 5000 BR NSC
BECMG 2814/2815 1300
FM281600 23005MPS 0300 FZFG NSC
FM281700 23005MPS 9999 -SN OVC009
BECMG 2818/2819 OVC030
 
МЛСП Приразломная
 


NOWCAST.SU ULDP 281400Z 25007MPS 2000 SN BR OVC010 M02/M03 Q1031 NOSIG
RMK ICE: MOD FL40/FL70 FBL FL10/FL150
AUTOTAF.ME ULDP 280700Z 2808/2817 24009MPS 1500 SN BLSN OVC010 TXM02/2809Z TNM03/2808Z
BECMG 2813/2814 SN BR
 
МР Требса
 


NOWCAST.SU ULDR 281400Z 21004MPS 9999 -SN BKN008 M09/M10 Q1034 NOSIG
RMK ICE: MOD FL110/FL120 FBL FL10/FL150
AUTOTAF.ME ULDR 280700Z 2808/2817 21005G10MPS 1500 SN OVC010 TXM08/2808Z TNM09/2811Z
FM281200 21004MPS 9999 -SN BKN010
FM281700 21005MPS 2000 SN BR BKN008
 
Каратайка
 


NOWCAST.SU ULDT 281400Z 19004MPS 2000 SN BR OVC008 M11/M12 Q1033 NOSIG
RMK ICE: MOD FL110/FL120 FBL FL10/FL150
AUTOTAF.ME ULDT 280700Z 2808/2817 19005MPS 1500 SN BR OVC008 TXM11/2808Z TNM11/2808Z
FM281700 19004MPS 9999 -SN OVC008
 
Варандей
 


NOWCAST.SU ULDW 281400Z 24005MPS 9999 -SN BKN008 M07/M08 Q1033 NOSIG
RMK ICE: MOD FL90/FL120 FBL FL10/FL150
AUTOTAF.ME ULDW 281100Z 2812/2821 23006MPS 9999 -SN BKN008 TXM06/2812Z TNM07/2813Z  
Харьягинский
 


NOWCAST.SU ULEG 281400Z 21005MPS 9999 OVC006 M13/M14 Q1037 NOSIG
RMK ICE: FBL FL10/FL150
AUTOTAF.ME ULEG 280700Z 2808/2817 21005MPS 9999 BKN010 TXM12/2816Z TNM13/2808Z
BECMG 2808/2809 BR
BECMG 2809/2810 OVC006
 
Хорей-Вер
 


NOWCAST.SU ULEH 281400Z 22005MPS 9999 BKN012 M13/M14 Q1036 NOSIG
RMK ICE: FBL FL10/FL150
AUTOTAF.ME ULEH 280700Z 2808/2817 21005MPS 9999 BKN009 TXM12/2808Z TNM13/2811Z
BECMG 2809/2810 BR
BECMG 2811/2812 7000
BECMG 2816/2817 BR
 
Индига
 


NOWCAST.SU ULEI 281400Z 23006G11MPS 9999 -SN OVC008 M08/M10 Q1034 NOSIG
RMK ICE: MOD FL90/FL100 FBL FL10/FL150
AUTOTAF.ME ULEI 280700Z 2808/2817 23005G11MPS 7000 BR NSC TXM08/2814Z TNM09/2808Z
BECMG 2810/2811 4500
FM281300 23006G11MPS 9999 -SN OVC008
FM281600 23006G11MPS 4000 -SN BR BKN008
FM281700 23006G11MPS 5000 BR NSC
 
Коткино
 


NOWCAST.SU ULEK 281400Z 23005MPS 9999 BKN015 M10/M12 Q1036 NOSIG
RMK ICE: FBL FL10/FL150 TURB: MOD FL150/FL160
AUTOTAF.ME ULEK 280700Z 2808/2817 23005MPS 9999 BKN015 TXM09/2817Z TNM10/2808Z
BECMG 2808/2809 NSC
BECMG 2812/2813 BKN015
BECMG 2814/2815 NSC
FM281600 23005MPS 9999 -SN BKN015
FM281700 23005MPS 2000 SN BR OVC015
 
Южное Шапкино
 


NOWCAST.SU ULEU 281400Z 23005MPS 3000 BR OVC005 M11/M13 Q1035 NOSIG
RMK ICE: FBL FL10/FL150
AUTOTAF.ME ULEU 280700Z 2808/2817 23004MPS 1000 BR OVC003 TXM11/2813Z TNM12/2808Z
FM280900 23004MPS 9999 BKN012
BECMG 2809/2810 NSC
FM281200 24004MPS 3000 BR BKN005
BECMG 2815/2816 2000
FM281700 23004MPS 1000 BR OVC003
 
Красноборск
 


NOWCAST.SU ULKB 281400Z VRB02MPS 9999 OVC160 M11/M12 Q1044 NOSIG
RMK ICE: FBL FL10/FL170
AUTOTAF.ME ULKB 280700Z 2808/2817 VRB02MPS 9999 BKN016 TXM11/2808Z TNM11/2808Z
BECMG 2810/2811 NSC
 
Котлас
 


NOWCAST.SU ULKK 281400Z VRB02MPS 5000 BR OVC180 M11/M12 Q1045 NOSIG
RMK ICE: FBL FL10/FL20 TURB: MOD FL170/FL180
AUTOTAF.ME ULKK 280700Z 2808/2817 VRB02MPS CAVOK TXM11/2808Z TNM11/2808Z
FM281100 VRB02MPS 5000 BR NSC
FM281600 VRB02MPS 1000 BR OVC003
 
Котлас (Савватия)
 


NOWCAST.SU ULKS 281400Z VRB02MPS 1000 BR OVC003 M12/M12 Q1045 NOSIG
RMK ICE: FBL FL10/FL20 TURB: MOD FL170/FL180
AUTOTAF.ME ULKS 280700Z 2808/2817 VRB02MPS CAVOK TXM11/2808Z TNM12/2813Z
FM281100 VRB02MPS 5000 BR NSC
FM281400 VRB02MPS 1000 BR OVC003
 
Верхняя Тойма
 


NOWCAST.SU ULKT 281400Z VRB02MPS 9999 BKN150 M11/M12 Q1044 NOSIG
RMK ICE: FBL FL10/FL170
AUTOTAF.ME ULKT 280700Z 2808/2817 VRB02MPS CAVOK TXM11/2809Z TNM12/2808Z
BECMG 2808/2809 BKN016
BECMG 2811/2812 NSC
BECMG 2816/2817 BR
 
Вельск
 


NOWCAST.SU ULKW 281400Z VRB02MPS 9999 BKN170 M11/M11 Q1044 NOSIG
RMK ICE: FBL FL10/FL20
AUTOTAF.ME ULKW 280700Z 2808/2817 VRB02MPS CAVOK TXM10/2809Z TNM11/2808Z  
Морской Фасад
 


NOWCAST.SU ULLF 281400Z 12004MPS 9999 BKN009 M04/M06 Q1035 NOSIG
RMK ICE: FBL FL10/FL190
AUTOTAF.ME ULLF 280700Z 2808/2817 12004MPS CAVOK TXM04/2808Z TNM04/2808Z
BECMG 2810/2811 BKN022
BECMG 2811/2812 BKN012
FM281500 12004MPS 5000 BR OVC009
FM281700 12004MPS 3000 BR OVC005
 
ГПН-5
 


NOWCAST.SU ULLG 281400Z VRB02MPS 3000 BR BKN005 M05/M06 Q1036 NOSIG
RMK ICE: FBL FL10/FL190
AUTOTAF.ME ULLG 280700Z 2808/2817 VRB02MPS CAVOK TXM04/2811Z TNM05/2808Z
BECMG 2810/2811 BKN015
FM281300 VRB02MPS 5000 BR BKN009
FM281400 VRB02MPS 3000 BR BKN005
 
Санкт-Петербург (Пулково)
METAR ULLI 281400Z 11005MPS 9999 OVC011 M03/M06 Q1036 R88/510350 NOSIG


NOWCAST.SU ULLI 281400Z VRB02MPS 5000 BR BKN008 M05/M06 Q1036 NOSIG
RMK ICE: FBL FL10/FL190
AUTOTAF.ME ULLI 280700Z 2808/2817 VRB02MPS CAVOK TXM04/2810Z TNM05/2808Z
BECMG 2810/2811 BKN014
FM281300 VRB02MPS 5000 BR BKN009
BECMG 2813/2814 BKN008
BECMG 2814/2815 3000
TAF AMD ULLI 281239Z 2812/2912 12003G08MPS 9999 BKN011 OVC020
TEMPO 2812/2912 5000 -SN BR BKN006
PROB40 TEMPO 2812/2912 3000 -FZDZ BKN003=
Великий Новгород (Кречевицы)
 


NOWCAST.SU ULLK 281400Z 11003MPS 3000 BR BKN005 M03/M05 Q1035 NOSIG
RMK ICE: MOD FL90/FL120 FBL FL10/FL190
AUTOTAF.ME ULLK 280700Z 2808/2817 11003MPS 5000 BR BKN008 TXM03/2809Z TNM04/2808Z
BECMG 2812/2813 3000
 
Петродворец (Марли)
 


NOWCAST.SU ULLN 281400Z 12004MPS 5000 BR BKN008 M04/M06 Q1035 NOSIG
RMK ICE: FBL FL10/FL190
AUTOTAF.ME ULLN 280700Z 2808/2817 12004MPS CAVOK TXM04/2808Z TNM04/2808Z
BECMG 2810/2811 BKN013
FM281400 12004MPS 5000 BR BKN008
FM281700 12004MPS 3000 BR OVC005
 
Санкт-Петербург (Хелидрайв)
 


NOWCAST.SU ULLO 281400Z VRB02MPS 5000 BR BKN008 M05/M06 Q1036 NOSIG
RMK ICE: FBL FL10/FL190
AUTOTAF.ME ULLO 280700Z 2808/2817 VRB02MPS CAVOK TXM04/2810Z TNM05/2808Z
BECMG 2810/2811 BKN015
FM281300 VRB02MPS 5000 BR BKN009
FM281500 VRB02MPS 3000 BR OVC005
 
Пушкин
 


NOWCAST.SU ULLP 281400Z VRB02MPS 3000 BR OVC005 M05/M06 Q1035 NOSIG
RMK ICE: FBL FL10/FL190
AUTOTAF.ME ULLP 280700Z 2808/2817 12003MPS CAVOK TXM04/2811Z TNM05/2808Z
FM281100 12003MPS 5000 BR OVC012
FM281200 VRB02MPS 3000 BR OVC005
BECMG 2814/2815 2000
 
Санкт-Петербург (КАД-52)
 


NOWCAST.SU ULLR 281400Z VRB02MPS 3000 BR BKN005 M05/M06 Q1036 NOSIG
RMK ICE: FBL FL10/FL190
AUTOTAF.ME ULLR 280700Z 2808/2817 VRB02MPS CAVOK TXM04/2811Z TNM05/2808Z
BECMG 2810/2811 BKN015
FM281300 VRB02MPS 5000 BR BKN009
FM281400 VRB02MPS 3000 BR BKN005
 
Сиверский
 


NOWCAST.SU ULLS 281400Z VRB02MPS 3000 BR BKN005 M05/M06 Q1034 NOSIG
RMK ICE: MOD FL120/FL130 FBL FL10/FL190
AUTOTAF.ME ULLS 280700Z 2808/2817 VRB02MPS 5000 BR NSC TXM04/2811Z TNM05/2808Z
FM280900 VRB02MPS CAVOK
FM281100 VRB02MPS 5000 BR OVC012
FM281300 VRB02MPS 3000 BR BKN005
BECMG 2814/2815 2000
 
Кронштадт (Бычье Поле)
 


NOWCAST.SU ULLY 281400Z 13005MPS 9999 BKN022 M03/M05 Q1035 NOSIG
RMK ICE: FBL FL10/FL190
AUTOTAF.ME ULLY 280700Z 2808/2817 12005MPS 9999 BKN015 TXM03/2808Z TNM03/2808Z
BECMG 2813/2814 BKN022
BECMG 2814/2815 OVC012
 
С.-Петербург (Речной Яхт-клуб)
 


NOWCAST.SU ULLZ 281400Z 12004MPS 3000 BR BKN005 M04/M06 Q1035 NOSIG
RMK ICE: FBL FL10/FL190
AUTOTAF.ME ULLZ 280700Z 2808/2817 12004MPS CAVOK TXM04/2809Z TNM05/2808Z
BECMG 2810/2811 BKN022
BECMG 2811/2812 BKN011
FM281300 12004MPS 5000 BR BKN009
FM281400 12004MPS 3000 BR BKN005
 
Ковдор
 


NOWCAST.SU ULMD 281400Z 19003MPS 9999 FEW150 M05/M06 Q1032 NOSIG
RMK ICE: MOD FL50/FL60 FBL FL10/FL190
AUTOTAF.ME ULMD 280700Z 2808/2817 20003MPS 9999 BKN044 TXM04/2817Z TNM06/2808Z
BECMG 2808/2809 NSC
BECMG 2809/2810 BKN044
BECMG 2811/2812 NSC
 
Апатиты (Хибины)
 


NOWCAST.SU ULMK 281400Z VRB02MPS 9999 FEW140 M06/M07 Q1032 NOSIG
RMK ICE: FBL FL10/FL170
AUTOTAF.ME ULMK 280700Z 2808/2817 VRB02MPS 1000 BR OVC003 TXM05/2815Z TNM07/2808Z
FM281100 VRB02MPS 9999 OVC033
BECMG 2813/2814 NSC
FM281500 VRB02MPS 1000 BR BKN003
FM281700 VRB02MPS CAVOK
 
Ловозеро
 


NOWCAST.SU ULML 281400Z VRB02MPS 9999 FEW014 M08/M09 Q1031 NOSIG
RMK ICE: FBL FL10/FL150
AUTOTAF.ME ULML 280700Z 2808/2817 VRB02MPS CAVOK TXM07/2816Z TNM08/2808Z
BECMG 2812/2813 BKN045
BECMG 2813/2814 FEW014
BECMG 2814/2815 NSC
 
Мурманск
METAR ULMM 281400Z 23003MPS 170V290 9999 BKN012 M01/M02 Q1030 R13/450050 NOSIG RMK QFE766


NOWCAST.SU ULMM 281400Z 21004MPS 9999 BKN012 M03/M04 Q1030 NOSIG
RMK ICE: MOD FL40/FL50 FBL FL10/FL170 TURB: MOD SFC/FL20
AUTOTAF.ME ULMM 280700Z 2808/2817 22004MPS 9999 OVC011 TXM03/2808Z TNM03/2808Z TAF ULMM 281050Z 2812/2912 21003G08MPS 9999 BKN016
TEMPO 2812/2818 BKN011=
Мурманск (Килпъявр)
 


NOWCAST.SU ULMW 281400Z 21004MPS 9999 BKN011 M03/M05 Q1030 NOSIG
RMK ICE: MOD FL40/FL50 FBL FL10/FL150 TURB: MOD SFC/FL20
AUTOTAF.ME ULMW 280700Z 2808/2817 21004MPS 9999 OVC011 TXM03/2812Z TNM04/2808Z  
Валдай-Авиа
 


NOWCAST.SU ULNA 281400Z 12004MPS 9999 BKN220 M05/M06 Q1035 NOSIG
RMK ICE: MOD FL70/FL110 FBL FL10/FL190
AUTOTAF.ME ULNA 280700Z 2808/2817 12004MPS 9999 OVC029 TXM04/2810Z TNM05/2808Z
BECMG 2808/2809 NSC
 
Боровичи
 


NOWCAST.SU ULNB 281400Z 11004MPS 9999 BKN160 M06/M07 Q1037 NOSIG
RMK ICE: FBL FL10/FL190
AUTOTAF.ME ULNB 280700Z 2808/2817 11003MPS 9999 OVC048 TXM06/2808Z TNM06/2808Z
BECMG 2808/2809 NSC
BECMG 2809/2810 OVC048
BECMG 2810/2811 NSC
FM281200 11003MPS 9999 BKN012
FM281300 11003MPS CAVOK
 
Новгород
 


NOWCAST.SU ULNN 281400Z 12003MPS 3000 BR BKN005 M03/M04 Q1035 NOSIG
RMK ICE: MOD FL110/FL120 FBL FL10/FL190
AUTOTAF.ME ULNN 280800Z 2809/2818 12003MPS 9999 BKN011 TXM03/2809Z TNM03/2809Z
FM281200 12003MPS 5000 BR OVC008
FM281300 12003MPS 3000 BR OVC005
BECMG 2814/2815 2000
 
Старая Русса
 


NOWCAST.SU ULNR 281400Z 11003MPS 9999 FEW140 M03/M04 Q1035 NOSIG
RMK ICE: MOD FL90/FL120 FBL FL10/FL190
AUTOTAF.ME ULNR 280700Z 2808/2817 11003MPS 9999 OVC021 TXM02/2810Z TNM03/2808Z
BECMG 2808/2809 OVC009
BECMG 2809/2810 NSC
 
Валдай
 


NOWCAST.SU ULNW 281400Z 12003MPS 3000 BR BKN005 M05/M06 Q1035 NOSIG
RMK ICE: MOD FL70/FL110 FBL FL10/FL190
AUTOTAF.ME ULNW 280700Z 2808/2817 12003MPS 9999 OVC045 TXM05/2809Z TNM06/2808Z
FM280900 11003MPS 5000 BR BKN009
FM281300 12003MPS 3000 BR BKN005
FM281600 12003MPS 5000 BR BKN009
 
Великие Луки
 


NOWCAST.SU ULOL 281400Z 12003MPS 3000 BR BKN005 M01/M02 Q1032 NOSIG
RMK ICE: MOD FL20/FL110 FBL FL10/FL120
AUTOTAF.ME ULOL 280700Z 2808/2817 11003MPS 5000 BR OVC011 TX00/2812Z TNM01/2808Z
BECMG 2809/2810 -SN BR
FM281200 12003MPS 3000 -SN BR BKN005
BECMG 2813/2814 BR
BECMG 2815/2816 2000
FM281700 12003MPS 1000 BR BKN003
 
Псков (Кресты)
METAR ULOO 281400Z 09002MPS 060V150 9999 OVC014 M01/M03 Q1032 R01/820250 NOSIG RMK QFE770


NOWCAST.SU ULOO 281400Z 10003MPS 5000 -SN BR BKN009 M01/M03 Q1032 NOSIG
RMK ICE: MOD FL90/FL110 FBL FL10/FL190
AUTOTAF.ME ULOO 280700Z 2808/2817 10003MPS CAVOK TXM01/2811Z TNM02/2808Z
BECMG 2811/2812 BR
BECMG 2812/2813 6000
FM281400 10003MPS 5000 -SN BR BKN009
BECMG 2815/2816 -SN
FM281700 12003MPS CAVOK
TAF ULOO 281059Z 2812/2821 08003MPS 9999 BKN010 OVC020
TEMPO 2812/2821 BKN007=
Петрозаводск (Бесовец)
METAR ULPB 281400Z VRB01MPS 9999 OVC005 M07/M08 Q1039 R19/490145 NOSIG RMK QBB170 QFE775/1034


NOWCAST.SU ULPB 281400Z VRB02MPS 9999 OVC014 M07/M08 Q1039 NOSIG
RMK ICE: FBL FL10/FL190
AUTOTAF.ME ULPB 280700Z 2808/2817 VRB02MPS 9999 OVC045 TXM05/2808Z TNM08/2815Z
BECMG 2808/2809 NSC
BECMG 2811/2812 OVC045
BECMG 2813/2814 OVC014
FM281500 VRB02MPS CAVOK
FM281600 VRB02MPS 9999 BKN015
TAF ULPB 281056Z 2812/2821 15003MPS 9999 BKN010 OVC020
TEMPO 2812/2821 BKN005=
Валаам
 


NOWCAST.SU ULPL 281400Z 14006MPS 9999 BKN015 M01/M03 Q1037 NOSIG
RMK ICE: MOD FL20/FL30 FBL FL10/FL110 TURB: MOD SFC/FL20
AUTOTAF.ME ULPL 280700Z 2808/2817 13006MPS 9999 BKN019 TXM01/2808Z TNM01/2808Z  
Костомукша
 


NOWCAST.SU ULPM 281400Z VRB02MPS 9999 SKC M05/M05 Q1035 NOSIG
RMK ICE: MOD FL50/FL90 FBL FL10/FL120
AUTOTAF.ME ULPM 280700Z 2808/2817 20003MPS CAVOK TXM05/2809Z TNM06/2808Z
FM281100 VRB02MPS 1000 BR BKN003
FM281200 VRB02MPS CAVOK
 
Петрозаводск (Пески)
 


NOWCAST.SU ULPP 281400Z 17004MPS 9999 OVC130 M05/M08 Q1039 NOSIG
RMK ICE: FBL FL10/FL190
AUTOTAF.ME ULPP 280700Z 2808/2817 17004MPS 9999 OVC030 TXM04/2809Z TNM06/2815Z
BECMG 2808/2809 NSC
BECMG 2810/2811 OVC030
BECMG 2812/2813 OVC016
FM281400 17004MPS CAVOK
FM281500 17004MPS 9999 SCT015
 
Сортавала
 


NOWCAST.SU ULPW 281400Z 14005MPS 9999 -SN OVC010 M02/M04 Q1036 NOSIG
RMK ICE: MOD FL10/FL20 FBL FL10/FL190 TURB: MOD SFC/FL20
AUTOTAF.ME ULPW 280700Z 2808/2817 14005MPS 3000 BR BKN005 TXM01/2808Z TNM03/2816Z
FM280900 14006MPS 9999 BKN020
FM281400 14005MPS 9999 -SN OVC010
 
Сельцо
 


NOWCAST.SU ULSC 281400Z 12003MPS 9999 OVC031 M05/M06 Q1034 NOSIG
RMK ICE: FBL FL10/FL190
AUTOTAF.ME ULSC 280700Z 2808/2817 12003MPS 5000 BR NSC TXM04/2811Z TNM05/2808Z
FM280900 12003MPS CAVOK
FM281100 12003MPS 5000 BR NSC
BECMG 2811/2812 BKN031
FM281300 12003MPS 9999 OVC031
FM281500 12003MPS 5000 BR NSC
BECMG 2815/2816 3500
 
Местаново
 


NOWCAST.SU ULSF 281400Z 12003MPS 9000 BR BKN046 M05/M06 Q1034 NOSIG
RMK ICE: FBL FL10/FL190
AUTOTAF.ME ULSF 281000Z 2811/2820 12003MPS CAVOK TXM04/2812Z TNM05/2811Z
FM281300 12003MPS 5000 BR BKN046
BECMG 2813/2814 9000
FM281500 12003MPS 5000 BR NSC
BECMG 2815/2816 3500
BECMG 2818/2819 BKN005
 
Гостилицы
 


NOWCAST.SU ULSG 281400Z 12003MPS 9999 OVC032 M05/M06 Q1034 NOSIG
RMK ICE: FBL FL10/FL190
AUTOTAF.ME ULSG 280700Z 2808/2817 12003MPS 3000 BR OVC005 TXM04/2811Z TNM05/2808Z
FM280900 12003MPS CAVOK
BECMG 2811/2812 BKN032
FM281500 12003MPS 5000 BR BKN011
BECMG 2815/2816 3500
 
Санкт-Петербург (Геркулес гидро)
 


NOWCAST.SU ULSH 281400Z 12004MPS 9999 BKN009 M04/M06 Q1035 NOSIG
RMK ICE: FBL FL10/FL190
AUTOTAF.ME ULSH 280700Z 2808/2817 12004MPS CAVOK TXM04/2808Z TNM04/2808Z
BECMG 2810/2811 BKN022
BECMG 2811/2812 BKN012
FM281500 12004MPS 5000 BR OVC009
FM281700 12004MPS 3000 BR OVC005
 
Корпикюля
 


NOWCAST.SU ULSK 281400Z VRB02MPS 3000 BR OVC005 M05/M06 Q1035 NOSIG
RMK ICE: FBL FL10/FL190
AUTOTAF.ME ULSK 280700Z 2808/2817 12003MPS CAVOK TXM04/2810Z TNM05/2808Z
FM281100 12003MPS 5000 BR OVC012
FM281200 VRB02MPS 9999 OVC012
FM281400 VRB02MPS 3000 BR OVC005
BECMG 2814/2815 2000
 
Манушкино
 


NOWCAST.SU ULSM 281400Z VRB02MPS 3000 BR BKN005 M05/M06 Q1036 NOSIG
RMK ICE: FBL FL10/FL190
AUTOTAF.ME ULSM 280700Z 2808/2817 13003MPS 9999 SCT020 TXM04/2810Z TNM05/2808Z
FM281400 VRB02MPS 3000 BR BKN005
FM281700 13003MPS 9999 OVC014
 
Аэродром Тихвин
 


NOWCAST.SU ULST 281400Z 13003MPS 9999 OVC012 M06/M08 Q1037 NOSIG
RMK ICE: MOD FL110/FL120 FBL FL10/FL190
AUTOTAF.ME ULST 280800Z 2809/2818 13003MPS 9999 BKN027 TXM06/2809Z TNM06/2809Z
BECMG 2811/2812 OVC012
 
Куммолово
 


NOWCAST.SU ULSU 281400Z 12003MPS 9999 BKN025 M04/M06 Q1034 NOSIG
RMK ICE: FBL FL10/FL190
AUTOTAF.ME ULSU 280800Z 2809/2818 12003MPS CAVOK TXM03/2811Z TNM04/2809Z
BECMG 2810/2811 BKN032
FM281500 12003MPS 9000 BR BKN011
 
Северный ветер
 


NOWCAST.SU ULSW 281400Z 13004MPS 9999 BKN020 M04/M06 Q1036 NOSIG
RMK ICE: FBL FL10/FL190
AUTOTAF.ME ULSW 280800Z 2809/2818 14005MPS 9999 BKN011 TXM04/2810Z TNM05/2809Z
BECMG 2809/2810 NSC
BECMG 2810/2811 BKN020
BECMG 2814/2815 NSC
 
Сиворицы-2
 


NOWCAST.SU ULSY 281400Z VRB02MPS 2000 BR OVC005 M05/M06 Q1034 NOSIG
RMK ICE: FBL FL10/FL190
AUTOTAF.ME ULSY 280800Z 2809/2818 VRB02MPS CAVOK TXM04/2811Z TNM05/2809Z
FM281100 VRB02MPS 5000 BR OVC011
FM281300 VRB02MPS 3000 BR OVC005
BECMG 2813/2814 2000
FM281500 VRB02MPS 1000 BR BKN003
FM281700 VRB02MPS 2000 BR BKN005
 
Озеро Красногвардейское
 


NOWCAST.SU ULSZ 281400Z VRB02MPS 9999 BKN028 M04/M06 Q1035 NOSIG
RMK ICE: FBL FL10/FL190
AUTOTAF.ME ULSZ 280800Z 2809/2818 VRB02MPS 9999 BKN028 TXM03/2809Z TNM04/2812Z
BECMG 2810/2811 NSC
BECMG 2811/2812 SCT012
BECMG 2812/2813 NSC
FM281400 VRB02MPS 9999 BKN028
FM281500 VRB02MPS 5000 BR BKN008
FM281800 VRB02MPS 3000 BR OVC005
 
Череповец
METAR ULWC 281400Z 13002MPS 9999 OVC004 M07/M08 Q1041 R21/450156 NOSIG RMK QBB130 QFE770/1027


NOWCAST.SU ULWC 281400Z 14003MPS 9999 BKN012 M09/M09 Q1041 NOSIG
RMK ICE: FBL FL10/FL30
AUTOTAF.ME ULWC 280900Z 2810/2819 VRB02MPS 9999 BKN016 TXM08/2810Z TNM09/2814Z TAF ULWC 281100Z 2812/2821 12003MPS 6000 OVC005
TEMPO 2812/2815 -FZDZ -SN BKN003 OVC015
TEMPO 2815/2821 2100 BR OVC003=
Великий Устюг
 


NOWCAST.SU ULWU 281400Z VRB02MPS 1000 BR OVC003 M12/M12 Q1045 NOSIG
RMK ICE: FBL FL10/FL20 TURB: MOD FL170/FL180
AUTOTAF.ME ULWU 280800Z 2809/2818 VRB02MPS CAVOK TXM11/2809Z TNM12/2813Z
FM281200 VRB02MPS 1000 BR OVC003
 
Вологда
 


NOWCAST.SU ULWW 281400Z VRB02MPS 9999 SCT250 M10/M11 Q1043 NOSIG
RMK ICE: FBL FL10/FL20
AUTOTAF.ME ULWW 280800Z 2809/2818 VRB02MPS CAVOK TXM09/2809Z TNM11/2817Z  
Брест
METAR UMBB 281300Z 12002MPS 4300 BR OVC024 01/00 Q1026 NOSIG


NOWCAST.SU UMBB 281400Z 13003MPS 9999 OVC018 M01/M02 Q1027 NOSIG
RMK ICE: MOD FL20/FL30 FBL FL10/FL110 TURB: MOD SFC/FL20
AUTOTAF.ME UMBB 280800Z 2809/2818 VRB02MPS 9999 BKN013 TX00/2809Z TNM02/2817Z TAF UMBB 281106Z 2812/2821 VRB02MPS 3100 BR BKN006
TEMPO 2812/2814 14003MPS 2100 -SHSNRA BR BKN005 BKN012CB
TEMPO 2814/2821 1100 SHSN BR BKN003 BKN016CB=
Лида
 


NOWCAST.SU UMDD 281400Z VRB02MPS 5000 BR BKN009 M03/M04 Q1028 NOSIG
RMK ICE: MOD FL90/FL100 FBL FL10/FL170
AUTOTAF.ME UMDD 280800Z 2809/2818 VRB02MPS 9999 -SN OVC011 TXM01/2811Z TNM03/2814Z
BECMG 2810/2811 BKN016
FM281400 VRB02MPS 5000 BR BKN009
FM281500 10003MPS 3000 BR BKN005
FM281700 12003MPS 5000 BR BKN009
 
Гомель
METAR UMGG 281400Z 08003MPS 2400 -DZ BR OVC002 01/01 Q1030 NOSIG RMK QBB070


NOWCAST.SU UMGG 281400Z VRB02MPS 2000 BR OVC005 01/00 Q1030 NOSIG
RMK ICE: MOD FL40/FL50 FBL FL10/FL190
AUTOTAF.ME UMGG 280800Z 2809/2818 VRB02MPS 1000 BR BKN003 TX01/2810Z TN00/2809Z
BECMG 2809/2810 FG
BECMG 2810/2811 0450
FM281200 VRB02MPS 2000 BR BKN005
FM281600 VRB02MPS 1000 BR OVC003
BECMG 2816/2817 RASN BR
FM281800 10003MPS 1000 SN BR OVC003
TAF UMGG 281107Z 2812/2912 11006MPS 5000 BR OVC003 TX02/2812Z TNM00/2818Z
TEMPO 2812/2815 10007MPS 2000 RASN
TEMPO 2815/2908 1000 SN OVC002
TEMPO 2908/2912 11005G10MPS 2000 SHSN BLSN BKN020CB=
Витебск (Восточный)
METAR UMII 281400Z 11003G06MPS 3100 BR OVC003 M01/M01 Q1031 TEMPO 2000 RMK QBB110


NOWCAST.SU UMII 281400Z 12003MPS 2000 BR OVC005 00/M01 Q1031 NOSIG
RMK ICE: MOD FL20/FL70 FBL FL10/FL170
AUTOTAF.ME UMII 280800Z 2809/2818 12003MPS 5000 BR BKN007 TX00/2809Z TN00/2809Z
BECMG 2809/2810 3000
BECMG 2811/2812 2000
FM281600 12003MPS 1000 BR OVC003
FM281700 12003MPS 9999 -SN OVC008
TAF UMII 281105Z 2812/2821 11003MPS 5000 BR OVC006
TEMPO 2812/2821 09005MPS 1500 FZDZ SHSN BKN003 BKN015CB=
Орша
METAR UMIO 281400Z 14004MPS 9999 OVC004 00/M00 Q1030 NOSIG RMK QBB120 QFE755/1007


NOWCAST.SU UMIO 281400Z 13004MPS 3000 -SN BR OVC005 00/00 Q1030 NOSIG
RMK ICE: MOD FL20/FL70 FBL FL10/FL170 TURB: MOD FL150/FL160
AUTOTAF.ME UMIO 280800Z 2809/2818 12003MPS 3000 -SN BR BKN005 TX00/2809Z TN00/2809Z
BECMG 2810/2811 BR
BECMG 2813/2814 -SN BR
FM281500 13004MPS 2000 SN BR OVC005
TAF UMIO 281101Z 2812/2821 11006MPS 3000 -SN BR OVC003
TEMPO 2812/2821 0300 -FZDZ SHSNRA FZFG OVC002 BKN015CB=
Калининград (Храброво)
METAR UMKK 281400Z 10004MPS 1400 0900SW R24/1400D PRFG BR OVC002 02/02 Q1025 R24/19//95 NOSIG RMK QBB060 OBST OBSC QFE767/1023


NOWCAST.SU UMKK 281400Z 13005MPS 8000 BR OVC013 02/01 Q1026 NOSIG
RMK ICE: MOD FL30/FL40 FBL FL10/FL190
AUTOTAF.ME UMKK 280800Z 2809/2818 13005MPS 9999 BKN013 TX02/2810Z TN01/2809Z
BECMG 2813/2814 BR
BECMG 2814/2815 5000
FM281600 13005MPS 3000 BR OVC005
FM281700 14005MPS 9999 OVC013
TAF AMD UMKK 281141Z 2811/2912 10003G08MPS 0700 FG OVC002
TEMPO 2812/2903 0300 FG OVC001
BECMG 2906/2908 6000 NSW FEW004 BKN016=
МЛСП Д-6
 


NOWCAST.SU UMKM 281400Z 12004MPS 9999 BKN022 03/01 Q1026 NOSIG
RMK ICE: MOD FL20/FL50 FBL FL10/FL190 TURB: MOD SFC/FL20
AUTOTAF.ME UMKM 280800Z 2809/2818 13005MPS 9999 BKN024 TX03/2811Z TN02/2809Z
BECMG 2816/2817 BKN013
 
Минск (Мачулищи)
 


NOWCAST.SU UMLI 281400Z 16003MPS 9999 BKN015 M02/M02 Q1028 NOSIG
RMK ICE: MOD FL40/FL50 FBL FL10/FL90
AUTOTAF.ME UMLI 280900Z 2810/2819 15003MPS 9999 BKN013 TXM01/2812Z TNM04/2817Z
FM281100 16003MPS 3500 BR BKN013
FM281400 16003MPS 9999 BKN015
FM281600 15003MPS 4000 BR BKN014
BECMG 2817/2818 7000
 
Барановичи
 


NOWCAST.SU UMMA 281400Z 13003MPS 9999 BKN014 M02/M03 Q1028 NOSIG
RMK ICE: MOD FL20/FL40 FBL FL10/FL90 TURB: MOD SFC/FL20
AUTOTAF.ME UMMA 280800Z 2809/2818 VRB02MPS 9999 BKN010 TXM02/2810Z TNM03/2809Z
FM281100 VRB02MPS 4500 BR BKN012
BECMG 2811/2812 8000
FM281300 VRB02MPS 9999 BKN015
FM281700 11003MPS 5000 BR BKN008
BECMG 2817/2818 3000
 
Гродно (Обухово)
METAR UMMG 281300Z 15001MPS 6000 BKN009 OVC066 00/M00 Q1027 NOSIG


NOWCAST.SU UMMG 281400Z 12003MPS 3000 BR OVC005 M01/M01 Q1026 NOSIG
RMK ICE: MOD FL20/FL50 FBL FL10/FL90
AUTOTAF.ME UMMG 280900Z 2810/2819 12003MPS 3000 BR OVC005 TX00/2811Z TNM02/2819Z
BECMG 2814/2815 2000
BECMG 2816/2817 SN BR
FM281800 13004MPS 5000 -SN BR OVC012
TAF UMMG 281111Z 2812/2821 VRB02MPS 6000 BKN008 OVC010 TX00/2812Z TNM02/2821Z
TEMPO 2812/2815 16003MPS 4500 -SHSNRA BR BKN006CB
TEMPO 2815/2821 13003MPS 1500 SHSN BR BKN003CB=
Минск (Липки)
 


NOWCAST.SU UMMI 281400Z VRB02MPS 9999 BKN014 M02/M02 Q1028 NOSIG
RMK ICE: MOD FL30/FL50 FBL FL10/FL90
AUTOTAF.ME UMMI 280800Z 2809/2818 VRB02MPS 9999 BKN013 TXM01/2811Z TNM03/2815Z
FM281700 VRB02MPS 4000 BR BKN010
 
Поставы (Озерки)
 


NOWCAST.SU UMMK 281400Z VRB02MPS 3500 BR BKN009 M01/M02 Q1029 NOSIG
RMK ICE: MOD FL30/FL70 FBL FL10/FL120
AUTOTAF.ME UMMK 280800Z 2809/2818 13003MPS 5000 BR BKN009 TXM01/2810Z TNM02/2809Z
BECMG 2813/2814 3500
BECMG 2816/2817 BKN005
BECMG 2817/2818 2000
 
Минск-1
 


NOWCAST.SU UMMM 281400Z VRB02MPS 9999 BKN012 M02/M03 Q1028 NOSIG
RMK ICE: MOD FL40/FL50 FBL FL10/FL90
AUTOTAF.ME UMMM 280800Z 2809/2818 VRB02MPS 9999 BKN013 TXM01/2812Z TNM03/2815Z
FM281600 VRB02MPS 5000 BR BKN009
 
Минск-2
METAR UMMS 281400Z 16004MPS 9999 SCT008 OVC011 M01/M02 Q1029 NOSIG


NOWCAST.SU UMMS 281400Z 16003MPS 9999 BKN012 M01/M02 Q1029 NOSIG
RMK ICE: MOD FL20/FL50 FBL FL10/FL90 TURB: MOD SFC/FL20
AUTOTAF.ME UMMS 281100Z 2812/2821 16003MPS 3500 BR BKN012 TX00/2812Z TNM04/2818Z
FM281300 16003MPS 9999 BKN012
FM281500 VRB02MPS 5000 BR BKN013
TAF UMMS 281102Z 2812/2912 12006MPS 5000 -SN BR BKN003
TEMPO 2812/2912 0300 -FZDZ SHSNRA FZFG OVC002 BKN015CB=
Бобруйск (Носовка)
 


NOWCAST.SU UMNB 281400Z VRB02MPS 5000 BR BKN013 M01/M02 Q1029 NOSIG
RMK ICE: MOD FL40/FL50 FBL FL10/FL170
AUTOTAF.ME UMNB 280800Z 2809/2818 VRB02MPS 3000 BR BKN005 TXM01/2809Z TNM03/2816Z
FM281200 VRB02MPS 5000 BR BKN015
FM281500 VRB02MPS 2000 BR BKN005
FM281800 VRB02MPS 1000 BR BKN003
 
Гродно (Каролино)
 


NOWCAST.SU UMNG 281400Z 12003MPS 3000 BR OVC005 00/M01 Q1026 NOSIG
RMK ICE: MOD FL20/FL50 FBL FL10/FL170
AUTOTAF.ME UMNG 280800Z 2809/2818 VRB02MPS 3000 BR BKN005 TX00/2809Z TNM01/2815Z
FM281600 12003MPS 5000 BR BKN010
FM281700 13004MPS 9999 BKN010
 
Витебск (Куковячино)
 


NOWCAST.SU UMNI 281400Z 12003MPS 2000 BR OVC005 00/00 Q1031 NOSIG
RMK ICE: MOD FL30/FL50 FBL FL10/FL170
AUTOTAF.ME UMNI 280800Z 2809/2818 12003MPS 3500 BR BKN010 TX00/2809Z TN00/2809Z
BECMG 2810/2811 BKN005
BECMG 2813/2814 2000
FM281500 12003MPS 1000 BR OVC003
BECMG 2816/2817 SN BR
 
Могилев
METAR UMOO 281325Z 11003MPS 0900 R31/0900 FG VV002 00/00 Q1031 NOSIG RMK QBB060


NOWCAST.SU UMOO 281400Z 13003MPS 3000 BR OVC005 00/00 Q1030 NOSIG
RMK ICE: MOD FL20/FL40 FBL FL10/FL170
AUTOTAF.ME UMOO 280800Z 2809/2818 13003MPS 3000 -SN BR OVC005 TX01/2811Z TN00/2809Z
BECMG 2809/2810 BR
FM281500 13003MPS 2000 SN BR OVC005
BECMG 2816/2817 BR
TAF UMOO 281330Z 2812/2821 CNL=
Хожево
 


NOWCAST.SU UMOV 281400Z VRB02MPS 9999 FEW120 M02/M02 Q1029 NOSIG
RMK ICE: MOD FL30/FL70 FBL FL10/FL110
AUTOTAF.ME UMOV 280800Z 2809/2818 VRB02MPS 5000 BR BKN007 TXM01/2811Z TNM03/2818Z
FM281000 VRB02MPS 9999 BKN010
FM281200 14003MPS 6000 BR BKN010
BECMG 2813/2814 NSC
BECMG 2815/2816 BR
BECMG 2816/2817 BKN008
FM281800 VRB02MPS 3000 BR BKN005
 
Абакан
METAR UNAA 281400Z 28002MPS 5000 FU FEW034 M25/M28 Q1054 R02/410062 NOSIG RMK QFE767


NOWCAST.SU UNAA 281400Z VRB02MPS 9999 OVC060 M23/M25 Q1053 NOSIG
RMK ICE: FBL FL70/FL90
AUTOTAF.ME UNAA 280800Z 2809/2818 VRB02MPS CAVOK TXM21/2809Z TNM23/2813Z
BECMG 2816/2817 BKN011
TAF UNAA 281100Z 2812/2912 19003MPS 6000 FEW004
TEMPO 2812/2818 2000 FU BR
BECMG 2823/2824 3000 BR FU
TEMPO 2900/2903 1400 BR FU
BECMG 2903/2906 6000 NSW=
Краснотуранск
 


NOWCAST.SU UNAT 281400Z VRB02MPS 9999 OVC095 M21/M24 Q1051 NOSIG
RMK ICE: FBL FL20/FL90
AUTOTAF.ME UNAT 280800Z 2809/2818 13003MPS 4500 BR OVC013 TXM21/2809Z TNM21/2809Z
BECMG 2810/2811 8000
FM281300 VRB02MPS CAVOK
BECMG 2817/2818 BR
 
Шушенское (Казанцево)
 


NOWCAST.SU UNAU 281400Z VRB02MPS 9999 OVC055 M22/M24 Q1052 NOSIG
RMK ICE: FBL FL90/FL100
AUTOTAF.ME UNAU 280800Z 2809/2818 VRB02MPS 9999 OVC044 TXM20/2809Z TNM22/2812Z
BECMG 2810/2811 NSC
BECMG 2815/2816 BKN017
 
Барнаул (Имени Германа Титова)
METAR UNBB 281400Z 03002MPS CAVOK M26/M31 Q1055 R06/910255 NOSIG RMK QFE768


NOWCAST.SU UNBB 281400Z VRB02MPS 9999 SCT160 M28/M30 Q1056 NOSIG
AUTOTAF.ME UNBB 280800Z 2809/2818 VRB02MPS CAVOK TXM24/2809Z TNM29/2815Z TAF UNBB 281100Z 2812/2912 36003G08MPS CAVOK
TEMPO 2812/2820 05005MPS=
Аккем
 


NOWCAST.SU UNBC 281400Z 17004MPS 9999 SKC M27/M34 Q1037 NOSIG
AUTOTAF.ME UNBC 280800Z 2809/2818 VRB02MPS CAVOK TXM25/2809Z TNM27/2811Z  
Горно-Алтайск
 


NOWCAST.SU UNBG 281400Z VRB02MPS 9999 FEW140 M26/M28 Q1051 NOSIG
AUTOTAF.ME UNBG 280800Z 2809/2818 VRB02MPS CAVOK TXM19/2809Z TNM26/2813Z  
Бия
 


NOWCAST.SU UNBI 281400Z VRB02MPS 9999 SCT150 M28/M30 Q1054 NOSIG
AUTOTAF.ME UNBI 280800Z 2809/2818 VRB02MPS CAVOK TXM23/2809Z TNM30/2817Z  
Волчиха
 


NOWCAST.SU UNBM 281400Z VRB02MPS 9999 SKC M28/M29 Q1054 NOSIG
AUTOTAF.ME UNBM 280800Z 2809/2818 04003MPS CAVOK TXM22/2809Z TNM30/2818Z  
Онгудай
 


NOWCAST.SU UNBN 281400Z VRB02MPS 9999 SKC M29/M33 Q1037 NOSIG
AUTOTAF.ME UNBN 280800Z 2809/2818 VRB02MPS 9999 SCT019 TXM24/2809Z TNM29/2812Z
BECMG 2809/2810 NSC
 
ТурСиб
 


NOWCAST.SU UNBY 281400Z VRB02MPS 9999 SKC M26/M28 Q1046 NOSIG
AUTOTAF.ME UNBY 280800Z 2809/2818 VRB02MPS CAVOK TXM19/2809Z TNM27/2816Z  
Новосибирск (Северный)
 


NOWCAST.SU UNCC 281400Z VRB02MPS 9999 FEW160 M26/M26 Q1056 NOSIG
RMK ICE: FBL FL10/FL70
AUTOTAF.ME UNCC 280800Z 2809/2818 VRB02MPS 9999 BKN048 TXM23/2809Z TNM26/2813Z
BECMG 2810/2811 NSC
 
Карасук
 


NOWCAST.SU UNCX 281400Z VRB02MPS 9999 SKC M26/M28 Q1046 NOSIG
AUTOTAF.ME UNCX 280800Z 2809/2818 VRB02MPS CAVOK TXM19/2809Z TNM27/2816Z  
Кемерово (Имени Алексея Леонова)
METAR UNEE 281400Z 18002MPS 8000 BKN041 M25/M29 Q1054 R23/420255 NOSIG RMK QFE767


NOWCAST.SU UNEE 281400Z VRB02MPS 9999 BKN011 M24/M26 Q1055 NOSIG
RMK ICE: FBL FL50/FL90
AUTOTAF.ME UNEE 280800Z 2809/2818 21003MPS 9999 BKN011 TXM23/2809Z TNM24/2812Z TAF UNEE 281100Z 2812/2912 18003G08MPS 8000 SCT040=
Тура МВЛ
 


NOWCAST.SU UNHT 281400Z VRB02MPS 9999 BKN130 M29/M31 Q1030 NOSIG
RMK ICE: FBL FL20/FL90
AUTOTAF.ME UNHT 280800Z 2809/2818 VRB02MPS 2800 BR NSC TXM28/2809Z TNM29/2811Z
BECMG 2809/2810 BKN014
FM281300 VRB02MPS 9999 OVC014
BECMG 2813/2814 NSC
FM281800 VRB02MPS 3500 BR NSC
 
Байкит
 


NOWCAST.SU UNIB 281400Z VRB02MPS 1000 BR OVC150 M26/M27 Q1035 NOSIG
RMK ICE: FBL FL30/FL90
AUTOTAF.ME UNIB 280800Z 2809/2818 VRB02MPS 1000 BR OVC007 TXM25/2809Z TNM26/2813Z
BECMG 2810/2811 NSC
BECMG 2817/2818 BKN007
 
Енисейск
 


NOWCAST.SU UNII 281400Z 26003MPS 1000 BR OVC003 M20/M22 Q1048 NOSIG
RMK ICE: FBL FL10/FL110
AUTOTAF.ME UNII 280800Z 2809/2818 27003MPS 9999 OVC009 TXM20/2813Z TNM21/2809Z
FM281200 26003MPS 1000 BR OVC003
FM281500 26003MPS 0600 FG IC VV003
BECMG 2815/2816 0100
FM281700 27003MPS 1000 SN BR OVC003
BECMG 2817/2818 SN FG IC
 
Мотыгино
 


NOWCAST.SU UNIM 281400Z 26004MPS 9999 -SN OVC007 M22/M24 Q1046 NOSIG
RMK ICE: FBL FL10/FL90 TURB: MOD SFC/FL20
AUTOTAF.ME UNIM 280800Z 2809/2818 27004MPS 9999 -SN OVC008 TXM21/2815Z TNM22/2809Z  
Подкаменная Тунгуска
 


NOWCAST.SU UNIP 281400Z VRB02MPS 0500 FG IC VV003 M21/M23 Q1044 NOSIG
RMK ICE: FBL FL10/FL120
AUTOTAF.ME UNIP 280800Z 2809/2818 VRB02MPS 0800 FG IC VV003 TXM21/2812Z TNM23/2818Z
BECMG 2810/2811 SN FG IC
BECMG 2812/2813 SN BR
BECMG 2813/2814 FG IC
FM281500 VRB02MPS 1000 BR OVC003
FM281800 VRB02MPS 1000 BR OVC008
 
Ярцево
 


NOWCAST.SU UNIQ 281400Z VRB02MPS 9999 -SN OVC009 M21/M22 Q1046 NOSIG
RMK ICE: FBL FL10/FL110
AUTOTAF.ME UNIQ 280800Z 2809/2818 VRB02MPS 1000 SN BR OVC003 TXM21/2809Z TNM24/2818Z
FM281100 VRB02MPS 0600 FG IC NSC
FM281400 VRB02MPS 9999 -SN OVC009
FM281500 VRB02MPS 1000 SN BR OVC003
FM281700 VRB02MPS 1000 BR OVC009
 
Северо-Енисейск
 


NOWCAST.SU UNIS 281400Z VRB02MPS 9999 -SN OVC006 M24/M26 Q1040 NOSIG
RMK ICE: FBL FL20/FL110 TURB: MOD SFC/FL30
AUTOTAF.ME UNIS 280800Z 2809/2818 VRB02MPS 9999 -SN OVC012 TXM24/2809Z TNM24/2809Z
FM281100 VRB02MPS 0600 FG IC VV012
BECMG 2811/2812 NSC
FM281400 VRB02MPS 9999 -SN OVC006
FM281700 VRB02MPS 0600 FG IC NSC
 
Тура (Горный)
 


NOWCAST.SU UNIT 281400Z VRB02MPS 0800 FG IC BKN100 M29/M30 Q1030 NOSIG
RMK ICE: FBL FL20/FL90
AUTOTAF.ME UNIT 280800Z 2809/2818 VRB02MPS 1500 BR NSC TXM29/2809Z TNM30/2818Z
FM281200 VRB02MPS CAVOK
FM281400 VRB02MPS 0800 FG IC NSC
FM281600 VRB02MPS 1400 BR NSC
BECMG 2816/2817 BKN014
BECMG 2817/2818 3000
 
Ванавара
 


NOWCAST.SU UNIW 281400Z 25003MPS 0600 FG IC VV003 M23/M24 Q1031 NOSIG
RMK ICE: FBL FL10/FL90
AUTOTAF.ME UNIW 280800Z 2809/2818 23003MPS 1000 BR NSC TXM22/2818Z TNM25/2809Z
FM281000 23003MPS 0800 FG IC BKN006
BECMG 2811/2812 OVC003
BECMG 2812/2813 0600
 
Осиновый Мыс
 


NOWCAST.SU UNJS 281400Z 27005G11MPS 9999 -SN OVC007 M22/M25 Q1042 NOSIG
RMK ICE: FBL FL10/FL90 TURB: MOD SFC/FL20
AUTOTAF.ME UNJS 280800Z 2809/2818 27005G11MPS 9999 -SN OVC012 TXM22/2814Z TNM23/2809Z
BECMG 2811/2812 OVC007
 
Богучаны
 


NOWCAST.SU UNKB 281400Z 27004MPS 1000 SN BR OVC003 M22/M24 Q1040 NOSIG
RMK ICE: FBL FL10/FL90 TURB: MOD SFC/FL20
AUTOTAF.ME UNKB 280800Z 2809/2818 27004MPS 9999 -SN OVC006 TXM21/2818Z TNM23/2809Z
FM281000 27004MPS 1000 SN BR OVC004
FM281200 27004MPS 9999 -SN OVC006
FM281300 27004MPS 1000 SN BR OVC003
 
Кодинск
 


NOWCAST.SU UNKI 281400Z 27005G10MPS 2000 SN BR OVC005 M22/M24 Q1037 NOSIG
RMK ICE: FBL FL10/FL90
AUTOTAF.ME UNKI 280800Z 2809/2818 27005G10MPS 9999 -SN OVC007 TXM22/2813Z TNM23/2809Z
FM281400 27005G10MPS 2000 SN BR OVC005
 
Красноярск (Северный)
 


NOWCAST.SU UNKK 281500Z 25004MPS 9999 FEW250 M20/M23 Q1050 NOSIG
RMK ICE: MOD FL50/FL70 FBL FL20/FL110 TURB: MOD SFC/FL20
AUTOTAF.ME UNKK 281300Z 2814/2823 25004MPS CAVOK TXM19/2818Z TNM20/2814Z
FM282000 25003MPS 9999 -SN OVC009
BECMG 2821/2822 OVC021
 
Красноярск (Емельяново)
METAR UNKL 281400Z 26006MPS 9999 -SN SCT037 M20/M25 Q1049 R29/420150 NOSIG RMK QFE760


NOWCAST.SU UNKL 281400Z 25004MPS 7000 BR OVC011 M21/M24 Q1048 NOSIG
RMK ICE: MOD FL90/FL100 FBL FL20/FL110 TURB: MOD SFC/FL30
AUTOTAF.ME UNKL 280800Z 2809/2818 25004MPS 8000 BR BKN012 TXM20/2816Z TNM21/2809Z
BECMG 2811/2812 5000
BECMG 2815/2816 NSC
FM281800 25004MPS CAVOK
TAF UNKL 281044Z 2812/2912 26003G08MPS 6000 -SN SCT017=
Красноярск (Черемшанка)
 


NOWCAST.SU UNKM 281400Z 25004MPS 7000 BR OVC012 M21/M24 Q1048 NOSIG
RMK ICE: MOD FL90/FL100 FBL FL20/FL110 TURB: MOD SFC/FL30
AUTOTAF.ME UNKM 280800Z 2809/2818 25004MPS 7000 BR BKN013 TXM20/2816Z TNM21/2809Z
BECMG 2810/2811 5000
FM281800 25004MPS 9999 OVC011
 
Канск (Восточный)
 


NOWCAST.SU UNKN 281400Z 27009G15MPS 9999 -SN DRSN OVC031 M20/M22 Q1047 NOSIG
RMK ICE: FBL FL10/FL90 TURB: MOD SFC/FL20
AUTOTAF.ME UNKN 280800Z 2809/2818 27009G15MPS 9999 -SN DRSN OVC012 TXM20/2809Z TNM20/2809Z
BECMG 2812/2813 OVC031
 
Шарыпово
 


NOWCAST.SU UNKO 281400Z VRB02MPS 9999 OVC021 M20/M23 Q1050 NOSIG
RMK ICE: FBL FL20/FL90
AUTOTAF.ME UNKO 280800Z 2809/2818 VRB02MPS 9999 BKN028 TXM19/2809Z TNM20/2811Z  
Красноярск (Бобровый Лог)
 


NOWCAST.SU UNKP 281400Z 25004MPS 7000 BR OVC014 M20/M24 Q1049 NOSIG
RMK ICE: MOD FL50/FL70 FBL FL20/FL110 TURB: MOD SFC/FL20
AUTOTAF.ME UNKP 280800Z 2809/2818 25005G11MPS 9999 OVC014 TXM19/2815Z TNM20/2809Z
FM281400 25004MPS 7000 BR OVC014
BECMG 2814/2815 5000
BECMG 2815/2816 3500
FM281700 25004MPS 9999 -SN BKN014
 
Ачинск
 


NOWCAST.SU UNKS 281400Z 25005MPS 9999 OVC008 M21/M23 Q1051 NOSIG
RMK ICE: FBL FL10/FL90
AUTOTAF.ME UNKS 280800Z 2809/2818 25005G11MPS 9999 BKN008 TXM20/2817Z TNM21/2809Z
FM281300 25005MPS 3000 BR OVC005
FM281400 25005MPS 9999 OVC008
FM281600 24005MPS 7000 BR OVC008
BECMG 2817/2818 NSC
 
Вознесенка
 


NOWCAST.SU UNKW 281400Z 25004MPS 7000 BR OVC013 M20/M23 Q1049 NOSIG
RMK ICE: MOD FL40/FL50 FBL FL10/FL90 TURB: MOD SFC/FL20
AUTOTAF.ME UNKW 280800Z 2809/2818 25005G11MPS 9999 OVC023 TXM19/2809Z TNM20/2811Z
FM281400 25004MPS 7000 BR OVC013
BECMG 2814/2815 5000
BECMG 2815/2816 3500
FM281700 25004MPS 9999 -SN BKN010
 
Кызыл
 


NOWCAST.SU UNKY 281400Z VRB02MPS 9999 OVC018 M30/M31 Q1050 NOSIG
AUTOTAF.ME UNKY 280800Z 2809/2818 VRB02MPS 9999 BKN032 TXM26/2809Z TNM30/2814Z
BECMG 2811/2812 OVC012
BECMG 2813/2814 OVC018
 
Колпашево
 


NOWCAST.SU UNLL 281400Z 23003MPS 9999 SCT013 M19/M22 Q1051 NOSIG
RMK ICE: FBL FL10/FL20
AUTOTAF.ME UNLL 280800Z 2809/2818 24003MPS 9999 SCT018 TXM18/2809Z TNM21/2818Z  
Новосибирск (Ельцовка)
 


NOWCAST.SU UNNE 281400Z VRB02MPS 9999 FEW160 M26/M26 Q1056 NOSIG
RMK ICE: FBL FL10/FL70
AUTOTAF.ME UNNE 280800Z 2809/2818 VRB02MPS 9999 BKN047 TXM23/2809Z TNM26/2813Z
BECMG 2810/2811 NSC
 
Новосибирск (Городской Аэропорт)
 


NOWCAST.SU UNNG 281400Z VRB02MPS 9999 FEW160 M25/M27 Q1056 NOSIG
RMK ICE: FBL FL10/FL70
AUTOTAF.ME UNNG 281200Z 2813/2822 VRB02MPS CAVOK TXM25/2813Z TNM26/2818Z  
Мочище
 


NOWCAST.SU UNNM 281400Z VRB02MPS 9999 FEW160 M26/M26 Q1056 NOSIG
RMK ICE: FBL FL50/FL70
AUTOTAF.ME UNNM 280800Z 2809/2818 VRB02MPS 9999 BKN047 TXM23/2809Z TNM26/2814Z
BECMG 2810/2811 NSC
 
Северное
 


NOWCAST.SU UNNS 281400Z VRB02MPS 9999 FEW190 M26/M26 Q1054 NOSIG
AUTOTAF.ME UNNS 280800Z 2809/2818 23003MPS CAVOK TXM22/2809Z TNM27/2817Z  
Новосибирск (Толмачево)
METAR UNNT 281400Z 17003MPS CAVOK M25/M29 Q1058 R25/810160 R16/////// NOSIG RMK QFE783/1044


NOWCAST.SU UNNT 281400Z VRB02MPS 9999 FEW170 M25/M27 Q1056 NOSIG
RMK ICE: FBL FL70/FL80
AUTOTAF.ME UNNT 281100Z 2812/2821 VRB02MPS 9999 SCT014 TXM24/2812Z TNM26/2821Z
BECMG 2812/2813 NSC
TAF UNNT 281100Z 2812/2912 18003MPS 8000 SCT040=
Усть-Ишим
 


NOWCAST.SU UNOI 281400Z 20003MPS 9999 FEW210 M24/M26 Q1052 NOSIG
RMK ICE: FBL FL10/FL20
AUTOTAF.ME UNOI 280800Z 2809/2818 20003MPS CAVOK TXM21/2809Z TNM25/2816Z  
Омск (Калачево)
 


NOWCAST.SU UNOL 281400Z 17003MPS 9999 FEW260 M24/M27 Q1054 NOSIG
AUTOTAF.ME UNOL 280800Z 2809/2818 17003MPS CAVOK TXM21/2809Z TNM25/2815Z  
Омск (Центральный)
METAR UNOO 281400Z 14003MPS CAVOK M24/M28 Q1056 R25/810550 NOSIG RMK QFE783


NOWCAST.SU UNOO 281400Z 17003MPS 9999 FEW220 M24/M27 Q1055 NOSIG
AUTOTAF.ME UNOO 281200Z 2813/2822 17003MPS CAVOK TXM24/2813Z TNM25/2816Z TAF UNOO 281050Z 2812/2912 15003G08MPS 8000 NSC
TEMPO 2815/2903 3000 IC FU SCT007=
Омск (Северный)
 


NOWCAST.SU UNOS 281400Z 17003MPS 9999 FEW250 M24/M27 Q1054 NOSIG
AUTOTAF.ME UNOS 280800Z 2809/2818 17003MPS CAVOK TXM21/2809Z TNM25/2815Z  
Тара
 


NOWCAST.SU UNOT 281400Z VRB02MPS 9999 FEW190 M27/M28 Q1054 NOSIG
RMK ICE: FBL FL10/FL20
AUTOTAF.ME UNOT 280800Z 2809/2818 21003MPS CAVOK TXM22/2809Z TNM28/2816Z  
Омск (Поповка)
 


NOWCAST.SU UNOY 281400Z 17003MPS 9999 FEW250 M25/M27 Q1054 NOSIG
AUTOTAF.ME UNOY 280800Z 2809/2818 17003MPS CAVOK TXM22/2809Z TNM26/2816Z  
Красноярск (Кузнецово)
 


NOWCAST.SU UNQK 281400Z 25004MPS 7000 BR OVC023 M20/M24 Q1049 NOSIG
RMK ICE: FBL FL20/FL90 TURB: MOD SFC/FL20
AUTOTAF.ME UNQK 280800Z 2809/2818 25005G11MPS 9999 OVC023 TXM19/2815Z TNM20/2809Z
FM281400 25004MPS 7000 BR OVC023
BECMG 2814/2815 5000
BECMG 2815/2816 3500
FM281700 25004MPS 9999 OVC023
BECMG 2817/2818 -SN
 
Манский
 


NOWCAST.SU UNQM 281400Z 26005G11MPS 9999 -SN OVC019 M20/M23 Q1048 NOSIG
RMK ICE: FBL FL20/FL90 TURB: MOD SFC/FL20
AUTOTAF.ME UNQM 280800Z 2809/2818 26005G11MPS 9999 BKN013 TXM20/2809Z TNM20/2809Z
BECMG 2809/2810 OVC026
BECMG 2813/2814 -SN
BECMG 2814/2815 OVC009
FM281700 26005G11MPS CAVOK
FM281800 26005G11MPS 9999 OVC013
 
Назарово
 


NOWCAST.SU UNQN 281400Z 25004MPS 9999 OVC010 M21/M23 Q1051 NOSIG
RMK ICE: FBL FL10/FL90 TURB: MOD SFC/FL20
AUTOTAF.ME UNQN 280800Z 2809/2818 25005G11MPS 9999 BKN010 TXM20/2815Z TNM21/2809Z
BECMG 2810/2811 -SN
 
Красноярск (Солнечный)
 


NOWCAST.SU UNQS 281400Z 25004MPS 7000 BR OVC021 M19/M24 Q1049 NOSIG
RMK ICE: FBL FL20/FL90 TURB: MOD SFC/FL20
AUTOTAF.ME UNQS 280800Z 2809/2818 25005G11MPS 9999 BKN015 TXM19/2809Z TNM20/2811Z
BECMG 2809/2810 OVC021
FM281400 25004MPS 7000 BR OVC021
BECMG 2814/2815 5000
BECMG 2815/2816 3500
FM281700 25004MPS 9999 OVC021
 
Тасеево
 


NOWCAST.SU UNQT 281400Z 27005G11MPS 9999 -SN OVC008 M21/M24 Q1047 NOSIG
RMK ICE: FBL FL10/FL90 TURB: MOD SFC/FL20
AUTOTAF.ME UNQT 280800Z 2809/2818 27005G11MPS 9999 -SN OVC012 TXM21/2809Z TNM21/2809Z
BECMG 2813/2814 -SN
BECMG 2817/2818 NSC
 
Долгий Мост
 


NOWCAST.SU UNQX 281400Z 27005G11MPS 9999 -SN OVC009 M21/M24 Q1044 NOSIG
RMK ICE: FBL FL10/FL90 TURB: MOD SFC/FL20
AUTOTAF.ME UNQX 280800Z 2809/2818 27005G11MPS 9999 -SN OVC009 TXM21/2812Z TNM22/2809Z  
Барабинск
 


NOWCAST.SU UNRR 281400Z VRB02MPS 9999 FEW180 M27/M27 Q1056 NOSIG
AUTOTAF.ME UNRR 280800Z 2809/2818 VRB02MPS CAVOK TXM21/2809Z TNM28/2817Z  
301 Шингинская
 


NOWCAST.SU UNSI 281400Z 24003MPS 1000 BR OVC003 M21/M23 Q1050 NOSIG
AUTOTAF.ME UNSI 280800Z 2809/2818 24003MPS CAVOK TXM19/2809Z TNM23/2818Z
FM281400 24003MPS 1000 BR OVC003
FM281600 23003MPS CAVOK
 
Стрежевой
 


NOWCAST.SU UNSS 281400Z 23003MPS 1000 BR BKN003 M22/M24 Q1048 NOSIG
RMK ICE: FBL FL10/FL30
AUTOTAF.ME UNSS 280800Z 2809/2818 23003MPS CAVOK TXM20/2809Z TNM23/2815Z
FM281200 23003MPS 1000 BR BKN003
BECMG 2814/2815 BKN009
 
Бакчар
 


NOWCAST.SU UNTB 281400Z 24003MPS 1000 BR OVC003 M22/M24 Q1053 NOSIG
AUTOTAF.ME UNTB 280800Z 2809/2818 24003MPS CAVOK TXM19/2809Z TNM22/2813Z
FM281400 24003MPS 1000 BR OVC003
 
Томск (Богашево)
METAR UNTT 281400Z 22005MPS CAVOK M22/M27 Q1054 R21/////// NOSIG RMK QFE775


NOWCAST.SU UNTT 281400Z 22003MPS 9999 BKN140 M21/M23 Q1054 NOSIG
RMK ICE: FBL FL10/FL90
AUTOTAF.ME UNTT 280800Z 2809/2818 23003MPS CAVOK TXM21/2809Z TNM23/2817Z
FM281500 22003MPS 1000 BR BKN003
BECMG 2816/2817 BKN007
TAF UNTT 281100Z 2812/2821 23003G10MPS 6000 -SHSN BKN016CB=
Таштагол
 


NOWCAST.SU UNWI 281400Z VRB02MPS 0200 FG IC BKN120 M25/M27 Q1048 NOSIG
AUTOTAF.ME UNWI 280800Z 2809/2818 VRB02MPS CAVOK TXM20/2809Z TNM26/2816Z
BECMG 2812/2813 BKN012
FM281400 VRB02MPS 0200 FG IC NSC
FM281500 VRB02MPS CAVOK
 
Новокузнецк (Спиченково)
METAR UNWW 281400Z 00000MPS 3800 FU NSC M25/M28 Q1054 R19/410250 NOSIG RMK QFE763


NOWCAST.SU UNWW 281400Z VRB02MPS 9999 OVC033 M25/M28 Q1054 NOSIG
RMK ICE: FBL FL70/FL80
AUTOTAF.ME UNWW 281100Z 2812/2821 VRB02MPS CAVOK TXM25/2812Z TNM26/2817Z
BECMG 2813/2814 OVC033
BECMG 2818/2819 NSC
BECMG 2819/2820 BKN043
TAF UNWW 281100Z 2812/2912 14003MPS 6000 NSC
TEMPO 2812/2818 1500 BR FU
TEMPO 2818/2906 0600 FZFG FU SCT002=
Диксон (Остров)
 


NOWCAST.SU UODD 281400Z VRB02MPS 0200 FG IC VV001 M15/M16 Q1033 NOSIG
RMK ICE: FBL FL10/FL40
AUTOTAF.ME UODD 280800Z 2809/2818 VRB02MPS 7000 BR NSC TXM14/2809Z TNM15/2811Z
FM281400 VRB02MPS 0200 FG IC VV001
FM281700 VRB02MPS 8000 BR NSC
 
Остров Средний
 


NOWCAST.SU UODS 281400Z 29004MPS 9999 -SN OVC011 M10/M11 Q1024 NOSIG
RMK ICE: FBL FL10/FL120
AUTOTAF.ME UODS 280800Z 2809/2818 28005MPS 9999 -SN OVC016 TXM08/2818Z TNM10/2809Z
BECMG 2811/2812 NSC
FM281300 28004MPS 9999 -SN OVC011
 
Хатанга
 


NOWCAST.SU UOHH 281400Z VRB02MPS 0500 FG IC SCT140 M27/M28 Q1031 NOSIG
RMK ICE: FBL FL10/FL90
AUTOTAF.ME UOHH 280900Z 2810/2819 VRB02MPS 0500 FG IC NSC TXM27/2810Z TNM28/2816Z
FM281500 VRB02MPS 1000 BR NSC
BECMG 2815/2816 4000
BECMG 2818/2819 7000
 
Новая
 


NOWCAST.SU UOHN 281400Z 25003MPS 1000 BR OVC003 M20/M21 Q1031 NOSIG
RMK ICE: FBL FL10/FL90
AUTOTAF.ME UOHN 280800Z 2809/2818 24003MPS 5000 BR OVC012 TXM19/2809Z TNM23/2817Z
FM281000 24003MPS 9999 OVC012
FM281400 25003MPS 1000 BR OVC003
FM281500 25003MPS 5000 BR OVC007
FM281600 26003MPS 1000 BR OVC003
BECMG 2816/2817 OVC006
 
Светлогорск
 


NOWCAST.SU UOIG 281400Z VRB02MPS 0200 FG IC VV001 M23/M24 Q1038 NOSIG
RMK ICE: FBL FL10/FL70
AUTOTAF.ME UOIG 280800Z 2809/2818 VRB02MPS 0200 FG IC BKN001 TXM22/2817Z TNM24/2809Z
BECMG 2811/2812 SN FG IC
BECMG 2813/2814 FG IC
FM281700 VRB02MPS 0500 SN FG IC BKN002
 
Хантайское озеро
 


NOWCAST.SU UOIH 281400Z VRB02MPS 1200 BR OVC013 M20/M21 Q1032 NOSIG
RMK ICE: FBL FL10/FL70 TURB: MOD FL150/FL160
AUTOTAF.ME UOIH 280800Z 2809/2818 VRB02MPS 0800 FG IC VV013 TXM20/2812Z TNM21/2809Z
BECMG 2809/2810 BKN019
FM281400 VRB02MPS 1200 BR OVC013
 
Игарка
 


NOWCAST.SU UOII 281400Z 18004MPS 5000 -SN BR OVC008 M15/M17 Q1038 NOSIG
RMK ICE: FBL FL10/FL90
AUTOTAF.ME UOII 280900Z 2810/2819 18003MPS 3000 -SN BR BKN005 TXM15/2813Z TNM16/2810Z
FM281100 18003MPS 5000 -SN BR BKN008
BECMG 2816/2817 3000
FM281800 18004MPS 2000 SN BR BKN008
 
Снежногорск
 


NOWCAST.SU UOIS 281400Z 18003MPS 9999 -SN OVC014 M17/M19 Q1037 NOSIG
RMK ICE: FBL FL10/FL70
AUTOTAF.ME UOIS 280800Z 2809/2818 18003MPS 9999 OVC011 TXM17/2814Z TNM19/2809Z
BECMG 2811/2812 -SN
 
Дудинка
 


NOWCAST.SU UOOD 281400Z 16005MPS 9999 -SN BKN021 M14/M16 Q1035 NOSIG
RMK ICE: FBL FL10/FL120
AUTOTAF.ME UOOD 280800Z 2809/2818 17005MPS 3000 -SN BR BKN005 TXM14/2813Z TNM16/2809Z
BECMG 2809/2810 BR
BECMG 2810/2811 -SN BR
FM281200 16005MPS 9999 -SN BKN018
 
Ванкор
 


NOWCAST.SU UOOG 281400Z 21003MPS 2000 SN BR OVC005 M14/M15 Q1035 NOSIG
RMK ICE: MOD FL70/FL90 FBL FL10/FL120 TURB: MOD FL170/FL180
AUTOTAF.ME UOOG 280800Z 2809/2818 21003MPS 5000 BR BKN008 TXM14/2809Z TNM14/2809Z
FM281000 21004MPS 9999 -SN BKN008
FM281400 21003MPS 2000 SN BR OVC005
FM281500 21003MPS 0400 FZFG BKN003
FM281700 21003MPS 1000 SN BR OVC003
 
Северо-Соленое
 


NOWCAST.SU UOOI 281400Z 22003MPS 9999 -SN BKN018 M10/M10 Q1033 NOSIG
RMK ICE: MOD FL50/FL70 FBL FL10/FL120
AUTOTAF.ME UOOI 280800Z 2809/2818 22004MPS 9999 -SN OVC015 TXM09/2815Z TNM10/2809Z  
Южно-Соленое
 


NOWCAST.SU UOOJ 281400Z 22003MPS 9999 -SN OVC015 M10/M11 Q1033 NOSIG
RMK ICE: FBL FL10/FL120
AUTOTAF.ME UOOJ 280800Z 2809/2818 22004MPS 9999 -SN OVC012 TXM10/2813Z TNM11/2809Z
FM281800 23003MPS 5000 -SN BR BKN009
 
Факел
 


NOWCAST.SU UOOK 281400Z 19003MPS 9999 -SN BKN014 M11/M13 Q1034 NOSIG
RMK ICE: FBL FL10/FL120 TURB: MOD FL170/FL180
AUTOTAF.ME UOOK 280800Z 2809/2818 20003MPS 9999 -SN BKN015 TXM11/2812Z TNM12/2809Z
BECMG 2813/2814 -SN
 
Пелятка Норильская
 


NOWCAST.SU UOOL 281400Z 23003MPS 9999 -SN BKN018 M09/M10 Q1033 NOSIG
RMK ICE: MOD FL70/FL80 FBL FL10/FL120
AUTOTAF.ME UOOL 280800Z 2809/2818 23003MPS 5000 BR BKN014 TXM09/2813Z TNM10/2809Z
BECMG 2810/2811 -SN BR
FM281200 23003MPS 9999 -SN BKN017
 
Мессояха
 


NOWCAST.SU UOOM 281400Z 23003MPS 9999 -SN BKN015 M11/M12 Q1033 NOSIG
RMK ICE: MOD FL50/FL70 FBL FL10/FL120
AUTOTAF.ME UOOM 280800Z 2809/2818 22004MPS 9999 -SN BKN015 TXM10/2815Z TNM11/2809Z  
Волочанка
 


NOWCAST.SU UOON 281400Z 27004MPS 9999 OVC014 M15/M17 Q1033 NOSIG
RMK ICE: FBL FL10/FL70
AUTOTAF.ME UOON 280800Z 2809/2818 28004MPS 9999 BKN011 TXM14/2809Z TNM15/2812Z
BECMG 2816/2817 -SN
 
Норильск (Алыкель)
METAR UOOO 281400Z 19006MPS 4000 -SN DRSN OVC049 M15/M16 Q1033 R19/491034 NOSIG RMK QFE758/1011


NOWCAST.SU UOOO 281400Z 14004MPS 9999 -SN BKN013 M16/M18 Q1035 NOSIG
RMK ICE: FBL FL10/FL70
AUTOTAF.ME UOOO 281200Z 2813/2822 14004MPS 9999 -SN BKN014 TXM16/2813Z TNM17/2817Z
FM282000 13004MPS CAVOK
TAF UOOO 281100Z 2812/2912 17003G08MPS 6000 -SN OVC016
TEMPO 2812/2912 18008G13MPS 3200 -SN BLSN OVC011=
Караул
 


NOWCAST.SU UOOR 281400Z VRB02MPS 5000 -SN BR OVC019 M09/M10 Q1033 NOSIG
RMK ICE: MOD FL70/FL80 FBL FL10/FL120
AUTOTAF.ME UOOR 280800Z 2809/2818 21003MPS 5000 BR OVC015 TXM09/2812Z TNM10/2809Z
BECMG 2813/2814 -SN BR
BECMG 2816/2817 BR
 
Усть-Тарея
 


NOWCAST.SU UOOU 281400Z VRB02MPS 6000 BR FEW130 M21/M24 Q1032 NOSIG
RMK ICE: FBL FL10/FL120
AUTOTAF.ME UOOU 280800Z 2809/2818 VRB02MPS 3000 BR OVC007 TXM20/2809Z TNM21/2811Z
BECMG 2811/2812 5000
BECMG 2812/2813 NSC
 
Валек
 


NOWCAST.SU UOOW 281400Z 11004MPS 9999 -SN OVC008 M20/M22 Q1035 NOSIG
RMK ICE: MOD FL40/FL50 FBL FL10/FL70
AUTOTAF.ME UOOW 281100Z 2812/2821 11004MPS 9999 -SN OVC008 TXM20/2814Z TNM21/2812Z
BECMG 2815/2816 OVC027
 
Туруханск
 


NOWCAST.SU UOTT 281400Z 18003MPS 0400 FG IC VV003 M18/M20 Q1040 NOSIG
RMK ICE: FBL FL10/FL70
AUTOTAF.ME UOTT 280800Z 2809/2818 16003MPS 1000 SN BR BKN003 TXM18/2811Z TNM19/2809Z
FM281300 VRB02MPS 0400 FG IC VV003
FM281500 18003MPS 9999 BKN011
BECMG 2816/2817 -SN
 
Севастополь (Бельбек)
 


NOWCAST.SU URFB 281400Z VRB02MPS 9999 SCT033 11/07 Q1021 NOSIG
RMK ICE: FBL FL70/FL190 TURB: MOD SFC/FL20
AUTOTAF.ME URFB 281000Z 2811/2820 VRB02MPS 9999 SCT035 TX11/2811Z TN08/2819Z
FM281600 VRB02MPS 9999 VCSH SCT046CB
 
Симферополь
METAR URFF 060700Z 24006MPS CAVOK 11/02 Q1015 R19/090095 NOSIG


NOWCAST.SU URFF 281400Z 07005MPS 9999 FEW200 08/05 Q1021 NOSIG
AUTOTAF.ME URFF 280800Z 2809/2818 08004MPS CAVOK TX10/2811Z TN06/2818Z TAF AMD URFF 060600Z 0606/0706 24007G12MPS 9999 SCT030CB TX14/0611Z TN01/0703Z
BECMG 0618/0620 15003MPS=
Саки
 


NOWCAST.SU URFI 281400Z 06007MPS 9999 FEW210 10/07 Q1021 NOSIG
AUTOTAF.ME URFI 280800Z 2809/2818 07004MPS 9999 FEW045 TX10/2810Z TN08/2818Z
BECMG 2809/2810 NSC
 
Симферополь (Заводское)
 


NOWCAST.SU URFW 281400Z 07005MPS 9999 FEW200 08/05 Q1021 NOSIG
AUTOTAF.ME URFW 280800Z 2809/2818 08004MPS 9999 BKN024 TX10/2811Z TN06/2817Z
BECMG 2809/2810 NSC
 
Анапа (Витязево)
METAR URKA 281400Z 09006MPS 9999 BKN006 06/05 Q1023 R04/010070 TEMPO 08012G18MPS BKN003 RMK QFE763/1018


NOWCAST.SU URKA 281400Z 07008MPS 9999 SCT340 08/05 Q1023 NOSIG
RMK TURB: MOD SFC/FL20
AUTOTAF.ME URKA 280800Z 2809/2818 08007MPS 9999 BKN019 TX09/2809Z TN06/2818Z
BECMG 2810/2811 NSC
TAF AMD URKA 281239Z 2812/2912 08007G14MPS 6000 BKN005 BKN020
FM281500 09009G18MPS 9999 BKN015
TEMPO 2815/2912 2000 BR BKN003 BKN016=
Геленджик
 


NOWCAST.SU URKG 281400Z 04005MPS 9999 SCT350 10/06 Q1022 NOSIG
RMK TURB: MOD SFC/FL20
AUTOTAF.ME URKG 280800Z 2809/2818 03004MPS CAVOK TX11/2811Z TN09/2818Z  
Краснодар (Пашковский)
METAR URKK 281400Z 05006MPS 9999 OVC006 05/04 Q1025 R05R/CLRD70 TEMPO 1000 BR BKN003 RMK QFE765


NOWCAST.SU URKK 281400Z 05005MPS 9999 BKN019 09/04 Q1024 NOSIG
AUTOTAF.ME URKK 280800Z 2809/2818 07004MPS 9999 BKN020 TX10/2811Z TN06/2818Z
BECMG 2814/2815 NSC
BECMG 2815/2816 BKN014
TAF AMD URKK 281138Z 2812/2912 06007G14MPS 6000 BKN011
TEMPO 2812/2909 BKN004
TEMPO 2909/2912 07010G17MPS=
Майкоп
 


NOWCAST.SU URKM 281400Z 07005G11MPS 9999 SKC 10/04 Q1022 NOSIG
RMK TURB: MOD SFC/FL30
AUTOTAF.ME URKM 280800Z 2809/2818 06003MPS 9999 BKN018 TX11/2809Z TN06/2818Z
BECMG 2809/2810 -RA
FM281100 06004MPS CAVOK
 
Геленджик Бухта
 


NOWCAST.SU URKN 281400Z 04004MPS 9999 BKN340 10/07 Q1022 NOSIG
RMK TURB: MOD SFC/FL20
AUTOTAF.ME URKN 280800Z 2809/2818 03004MPS CAVOK TX11/2811Z TN09/2817Z  
Армавир (Центральный)
 


NOWCAST.SU URKR 281400Z 10004MPS 9999 SKC 08/03 Q1024 NOSIG
RMK ICE: FBL FL90/FL100
AUTOTAF.ME URKR 280800Z 2809/2818 06003MPS 9999 BKN021TCU TX11/2810Z TN05/2818Z
BECMG 2809/2810 -RA
FM281300 09005MPS CAVOK
 
Энем-АС
 


NOWCAST.SU URKS 281400Z 05005MPS 9999 -RA BKN014 09/04 Q1023 NOSIG
AUTOTAF.ME URKS 280800Z 2809/2818 07004MPS CAVOK TX10/2811Z TN07/2816Z
FM281000 07004MPS 9999 -RA BKN020
BECMG 2815/2816 BKN012
 
Тихорецк
 


NOWCAST.SU URKT 281400Z 07006G11MPS 9999 SKC 06/00 Q1026 NOSIG
RMK ICE: FBL FL70/FL90 TURB: MOD SFC/FL20
AUTOTAF.ME URKT 280800Z 2809/2818 08006MPS 9999 BKN018 TX07/2812Z TN04/2816Z
BECMG 2813/2814 NSC
BECMG 2816/2817 BKN048
 
Краснодар (Белевцы)
 


NOWCAST.SU URKY 281400Z 05005MPS 9999 -RA BKN019 08/03 Q1023 NOSIG
AUTOTAF.ME URKY 280800Z 2809/2818 07004MPS 9999 BKN015 TX10/2811Z TN06/2818Z
BECMG 2809/2810 NSC
FM281100 07004MPS 9999 -RA BKN019
 
Новотитаровская (Азимут)
 


NOWCAST.SU URKZ 281400Z 06007G12MPS 9999 -RA BKN019 08/03 Q1024 NOSIG
AUTOTAF.ME URKZ 280800Z 2809/2818 08005MPS 9999 BKN018TCU TX09/2810Z TN05/2818Z
BECMG 2809/2810 -RA
BECMG 2815/2816 NSC
 
Ессентуки
 


NOWCAST.SU URME 281400Z 11004MPS 3000 -DZ BR OVC005 03/02 Q1026 NOSIG
RMK ICE: FBL FL90/FL100
AUTOTAF.ME URME 280800Z 2809/2818 10003MPS 5000 BR BKN012 TX06/2809Z TN02/2817Z
BECMG 2809/2810 -RA BR
FM281300 11004MPS 3000 -RA BR OVC005
BECMG 2813/2814 -DZ BR
BECMG 2814/2815 BR
FM281600 11004MPS 5000 BR OVC012
 
Грозный (Северный)
METAR URMG 281400Z 05003MPS 9999 OVC007 04/03 Q1028 R08/190060 NOSIG RMK MT OBSC OBST OBSC QFE756/1008


NOWCAST.SU URMG 281400Z 07003MPS 9999 -RA BKN027 06/03 Q1028 NOSIG
RMK ICE: MOD FL90/FL100 FBL FL70/FL170 TURB: MOD SFC/FL30
AUTOTAF.ME URMG 280800Z 2809/2818 VRB02MPS 9999 BKN018 TX06/2809Z TN04/2817Z
BECMG 2809/2810 -RA
BECMG 2810/2811 BKN027
BECMG 2815/2816 BKN016
FM281700 08003MPS CAVOK
TAF URMG 281100Z 2812/2821 05003G08MPS 6000 OVC004
TEMPO 2812/2821 0300 -DZ FG OVC002=
Кисловодск
 


NOWCAST.SU URMK 281400Z 10004MPS 3000 -DZ BR OVC005 04/02 Q1025 NOSIG
RMK ICE: FBL FL90/FL100
AUTOTAF.ME URMK 280800Z 2809/2818 08003MPS 5000 BR OVC023 TX06/2810Z TN01/2817Z
FM281000 08004MPS 8000 NSC
BECMG 2810/2811 9999
FM281400 10004MPS 3000 -DZ BR OVC005
FM281500 10004MPS CAVOK
FM281700 10004MPS 5000 BR NSC
FM281800 10004MPS 0800 FG NSC
 
Махачкала (Уйташ)
METAR URML 281400Z 34006MPS 9999 OVC006 05/04 Q1028 R32/01//70 NOSIG RMK QBB190 MT OBSC QFE771/1028


NOWCAST.SU URML 281400Z VRB02MPS 9999 BKN028 07/03 Q1028 NOSIG
RMK ICE: MOD FL90/FL100 FBL FL70/FL80 TURB: MOD SFC/FL20
AUTOTAF.ME URML 280800Z 2809/2818 32004MPS 9999 BKN023TCU TX07/2809Z TN06/2817Z TAF URML 281100Z 2812/2821 34005G10MPS 6000 BKN007 OVC020
TEMPO 2812/2815 36007G12MPS 3500 -DZ BR BKN005 OVC015=
Минеральные Воды
METAR URMM 281400Z 10006MPS 3100 BR OVC002 04/04 Q1026 R12/290150 NOSIG RMK QBB070 MT OBSC OBST OBSC QFE741/0989


NOWCAST.SU URMM 281400Z 11004MPS 5000 -RA BR OVC010 03/03 Q1026 NOSIG
RMK ICE: FBL FL90/FL100
AUTOTAF.ME URMM 280800Z 2809/2818 10003MPS 2500 BR BKN005 TX05/2809Z TN02/2818Z
BECMG 2809/2810 -DZ BR
FM281100 10004MPS 5000 -RA BR BKN010
BECMG 2814/2815 BR
FM281700 11004MPS 9999 OVC011
TAF URMM 281100Z 2812/2912 10005G12MPS 2100 BR OVC003 TX05/2912Z TN03/2902Z
TEMPO 2812/2908 0500 -DZ FG OVC002
BECMG 2908/2910 6000 NSW OVC011=
Нальчик
METAR URMN 281400Z 09002MPS 0300 -DZ FG VV001 04/04 Q1025 R24/210155 NOSIG RMK QBB030 MT OBSC OBST OBSC QFE732


NOWCAST.SU URMN 281400Z VRB02MPS 9999 -RA OVC013 03/03 Q1026 NOSIG
RMK ICE: MOD FL90/FL100 FBL FL70/FL110
AUTOTAF.ME URMN 280800Z 2809/2818 VRB02MPS 9999 OVC013 TX05/2809Z TN02/2818Z
BECMG 2809/2810 -RA
TAF URMN 281100Z 2812/2821 06003G08MPS 0400 FG OVC002
TEMPO 2812/2821 1200 BR OVC004=
Владикавказ (Беслан)
METAR URMO 281400Z 09004MPS 9999 BKN003 OVC016 05/05 Q1026 R09/190060 NOSIG RMK MT OBSC QFE725/0967


NOWCAST.SU URMO 281400Z VRB02MPS 5000 -RA BR OVC011 05/04 Q1027 NOSIG
RMK ICE: MOD FL90/FL100 FBL FL70/FL110
AUTOTAF.ME URMO 280800Z 2809/2818 VRB02MPS 5000 BR OVC015 TX06/2809Z TN04/2815Z
BECMG 2809/2810 -RA BR
FM281100 VRB02MPS 5000 VCSH BR OVC013CB
FM281200 VRB02MPS 9999 VCSH OVC012CB
FM281400 VRB02MPS 5000 -RA BR OVC011
FM281500 VRB02MPS 9999 OVC011
TAF URMO 281100Z 2812/2821 05003G08MPS 6000 OVC005
TEMPO 2812/2821 0300 -DZ FG OVC002=
Слепцовская (Магас)
 


NOWCAST.SU URMS 281400Z 08004MPS 9999 BKN024 05/02 Q1027 NOSIG
RMK ICE: FBL FL70/FL110 TURB: MOD SFC/FL30
AUTOTAF.ME URMS 280800Z 2809/2818 VRB02MPS 9999 BKN011 TX06/2811Z TN03/2818Z
FM281100 08003MPS 9999 -RA BKN016
FM281400 08004MPS 9999 BKN024
BECMG 2816/2817 BKN012
BECMG 2817/2818 NSC
 
Ставрополь (Шпаковское)
METAR URMT 281400Z 08004MPS 0100 R07/M0200N FG VV002 03/03 Q1025 R07/290150 NOSIG RMK QBB060 OBST OBSC QFE729


NOWCAST.SU URMT 281400Z 10004MPS 9999 FEW260 04/02 Q1025 NOSIG
RMK ICE: FBL FL70/FL90
AUTOTAF.ME URMT 281100Z 2812/2821 10005MPS 9999 BKN013 TX06/2812Z TN02/2819Z
BECMG 2812/2813 NSC
TAF URMT 281100Z 2812/2821 09003G09MPS 0300 FG OVC001
TEMPO 2812/2821 10005G12MPS 1200 DZ BR OVC003=
Грачевка
 


NOWCAST.SU URMX 281400Z 10005MPS 9999 BKN017 05/01 Q1027 NOSIG
RMK ICE: FBL FL50/FL110 TURB: MOD SFC/FL30
AUTOTAF.ME URMX 280800Z 2809/2818 10004MPS 9999 BKN014 TX06/2809Z TN03/2816Z
BECMG 2817/2818 NSC
 
Казачья
 


NOWCAST.SU URMZ 281400Z 10005MPS 9999 SKC 06/03 Q1025 NOSIG
RMK ICE: FBL FL70/FL90 TURB: MOD SFC/FL30
AUTOTAF.ME URMZ 280800Z 2809/2818 08003MPS 9999 BKN015 TX09/2809Z TN04/2818Z
BECMG 2809/2810 -RA
FM281300 10005MPS CAVOK
 
Шахты
 


NOWCAST.SU URRH 281400Z 07005G10MPS 9999 SKC 02/M03 Q1030 NOSIG
RMK ICE: FBL FL30/FL70
AUTOTAF.ME URRH 280800Z 2809/2818 08006MPS 9999 BKN032 TX03/2811Z TN01/2815Z
BECMG 2809/2810 NSC
BECMG 2811/2812 BKN022
BECMG 2812/2813 NSC
 
Миллерово
 


NOWCAST.SU URRI 281400Z 08005G11MPS 9999 FEW120 00/M05 Q1032 NOSIG
RMK ICE: FBL FL120/FL190 TURB: MOD SFC/FL20
AUTOTAF.ME URRI 280800Z 2809/2818 09005MPS CAVOK TX01/2810Z TNM03/2818Z  
Ростов-на-Дону (Платов)
METAR URRP 281400Z 08007MPS 9999 SCT013 SCT029 01/M01 Q1030 R05/CLRD70 NOSIG RMK QFE767/1023


NOWCAST.SU URRP 281400Z 08005MPS 9999 FEW350 03/M03 Q1030 NOSIG
RMK ICE: FBL FL30/FL120 TURB: MOD FL70/FL80
AUTOTAF.ME URRP 280800Z 2809/2818 08006MPS 9999 BKN032 TX03/2810Z TN01/2817Z
BECMG 2809/2810 NSC
BECMG 2811/2812 BKN033
BECMG 2812/2813 NSC
TAF URRP 281056Z 2812/2912 08006G12MPS 6000 FEW005 OVC016
TEMPO 2812/2909 10007G14MPS -DZ OVC002
TEMPO 2909/2912 10009G16MPS=
Ростов-на-Дону
 


NOWCAST.SU URRR 281400Z 08007MPS 9999 FEW350 03/M03 Q1030 NOSIG
RMK ICE: FBL FL70/FL90 TURB: MOD FL70/FL80
AUTOTAF.ME URRR 280800Z 2809/2818 08006MPS 9999 BKN033 TX04/2811Z TN01/2818Z
BECMG 2812/2813 NSC
 
Таганрог (Южный)
 


NOWCAST.SU URRT 281400Z 08007MPS 9999 BKN033 04/M01 Q1028 NOSIG
RMK ICE: SEV FL90/FL100 FBL FL70/FL80 TURB: MOD SFC/FL70
AUTOTAF.ME URRT 280900Z 2810/2819 08005MPS 9999 BKN028TCU TX04/2810Z TN02/2819Z  
Сочи
METAR URSS 281400Z 31001MPS 9999 NSC 13/08 Q1020 R06/010070 R02/////// NOSIG RMK R02/28001MPS QFE764


NOWCAST.SU URSS 281400Z VRB02MPS 9999 BKN340 11/08 Q1021 NOSIG
AUTOTAF.ME URSS 280800Z 2809/2818 VRB02MPS CAVOK TX12/2809Z TN10/2815Z
FM281000 VRB02MPS 9999 VCSH SCT031CB
FM281300 VRB02MPS CAVOK
TAF URSS 281056Z 2812/2912 27003G08MPS 9999 FEW020
BECMG 2814/2815 05004G09MPS
BECMG 2820/2821 04007MPS NSC
BECMG 2909/2910 VRB01MPS FEW030 SCT100=
Астрахань
METAR URWA 281400Z 07005MPS CAVOK M00/M09 Q1031 R09/010070 NOSIG RMK QFE775/1034


NOWCAST.SU URWA 281400Z 06004MPS 9999 OVC075 02/M09 Q1031 NOSIG
RMK ICE: MOD FL120/FL170 FBL FL90/FL190 TURB: MOD SFC/FL20
AUTOTAF.ME URWA 281200Z 2813/2822 06005MPS CAVOK TX02/2813Z TNM03/2822Z TAF URWA 281100Z 2812/2821 04003G09MPS 6000 BKN016
TEMPO 2812/2815 07005G11MPS=
Элиста
METAR URWI 281400Z AUTO 08004MPS 9999 // ///////// M00/M03 Q1029


NOWCAST.SU URWI 281400Z 06005MPS 9999 FEW150 01/M06 Q1030 NOSIG
RMK ICE: FBL FL50/FL120
AUTOTAF.ME URWI 280800Z 2809/2818 06005MPS 9999 BKN030 TX03/2809Z TNM01/2817Z
BECMG 2813/2814 NSC
TAF URWI 281056Z 2812/2821 08006G12MPS 6000 FEW003 SCT016=
Камышин
 


NOWCAST.SU URWK 281400Z 06005MPS 9999 FEW110 M03/M10 Q1036 NOSIG
RMK ICE: FBL FL90/FL100
AUTOTAF.ME URWK 280800Z 2809/2818 06005MPS CAVOK TXM02/2809Z TNM05/2817Z  
МЛСК им. В.Филановского
 


NOWCAST.SU URWO 281400Z 05007MPS 9999 -RA OVC027 04/01 Q1029 NOSIG
RMK ICE: MOD FL90/FL150 FBL FL20/FL190 TURB: MOD SFC/FL20
AUTOTAF.ME URWO 280800Z 2809/2818 04005MPS 9999 BKN014 TX05/2809Z TN04/2812Z
BECMG 2809/2810 -RA
BECMG 2810/2811 OVC020
FM281500 06007MPS 9999 BKN028TCU
 
Волгоград (Гумрак)
METAR URWW 281400Z 07006MPS CAVOK M03/M07 Q1033 R06/010070 TEMPO -FZDZ OVC005


NOWCAST.SU URWW 281400Z 07007G12MPS 9999 FEW170 M02/M10 Q1033 NOSIG
RMK ICE: FBL FL110/FL170
AUTOTAF.ME URWW 280900Z 2810/2819 07005MPS CAVOK TX00/2810Z TNM04/2818Z TAF URWW 281057Z 2812/2821 06007G13MPS 9999 BKN016
TEMPO 2812/2821 09008G14MPS
PROB40 TEMPO 2812/2821 1000 -FZDZ BR OVC003=
Челябинск (Баландино)
METAR USCC 281400Z 16002MPS CAVOK M18/M22 Q1046 R09/420245 NOSIG RMK QFE763


NOWCAST.SU USCC 281400Z VRB02MPS 9999 FEW100 M18/M20 Q1046 NOSIG
RMK ICE: FBL FL70/FL150
AUTOTAF.ME USCC 280800Z 2809/2818 17003MPS 9999 OVC045 TXM14/2809Z TNM21/2818Z
BECMG 2810/2811 NSC
TAF USCC 281056Z 2812/2912 13003MPS 9999 SCT040
FM281500 18003G08MPS 6000 SCT020=
Челябинск (Шагол)
 


NOWCAST.SU USCG 281400Z VRB02MPS 9999 FEW100 M18/M20 Q1046 NOSIG
RMK ICE: FBL FL70/FL150
AUTOTAF.ME USCG 280800Z 2809/2818 17003MPS 9999 OVC045 TXM14/2809Z TNM21/2818Z
BECMG 2810/2811 NSC
 
Магнитогорск
METAR USCM 281400Z 36004MPS 9999 SCT040 M17/M21 Q1042 R36/820155 NOSIG RMK QFE742


NOWCAST.SU USCM 281400Z 02003MPS 9999 OVC050 M14/M16 Q1043 NOSIG
RMK ICE: FBL FL20/FL150 TURB: MOD FL170/FL180
AUTOTAF.ME USCM 281000Z 2811/2820 03003MPS 9999 OVC040 TXM14/2811Z TNM17/2819Z
BECMG 2813/2814 NSC
TAF USCM 281056Z 2812/2821 02003G08MPS 6000 BKN020
TEMPO 2812/2821 -SN BKN016=
Сабетта
METAR USDA 281400Z 26004MPS 9999 -SN SCT007 M04/M05 Q1029 R22/590335 NOSIG RMK QFE771/1028


NOWCAST.SU USDA 281500Z 23004MPS 3500 BR BKN011 M06/M07 Q1031 NOSIG
RMK ICE: MOD FL50/FL90 FBL FL10/FL120
AUTOTAF.ME USDA 281300Z 2814/2823 23004MPS 3000 BR BKN005 TXM06/2814Z TNM07/2821Z
BECMG 2814/2815 BKN011
BECMG 2815/2816 BKN005
FM282100 23003MPS 1000 BR BKN003
TAF USDA 280751Z 2809/2818 26005G10MPS 6000 -SN FEW007 BKN016
TEMPO 2809/2812 2000 SHSN BR FEW004 BKN011CB=
Бованенково
 


NOWCAST.SU USDB 281400Z 21005MPS 9999 -SN BKN007 M07/M08 Q1031 NOSIG
RMK ICE: MOD FL50/FL90 FBL FL10/FL120
AUTOTAF.ME USDB 281000Z 2811/2820 22005MPS 9999 -SN BKN007 TXM06/2811Z TNM07/2813Z
FM281800 20003MPS 3000 -SN BR BKN005
BECMG 2819/2820 BR
 
Салехард
 


NOWCAST.SU USDD 281400Z 27004MPS 9999 OVC040 M13/M15 Q1036 NOSIG
RMK ICE: FBL FL40/FL150
AUTOTAF.ME USDD 280800Z 2809/2818 25003MPS 1000 BR OVC003 TXM13/2814Z TNM15/2809Z
FM281400 27004MPS 9999 OVC040
 
Сеяха-1
 


NOWCAST.SU USDE 281400Z 25005MPS 1500 SN BKN013 M09/M10 Q1033 NOSIG
RMK ICE: MOD FL70/FL90 FBL FL10/FL120
AUTOTAF.ME USDE 280800Z 2809/2818 25005MPS 1500 SN BR OVC024 TXM07/2809Z TNM10/2817Z
FM281200 25004MPS 1000 SN BKN016
BECMG 2812/2813 1500
BECMG 2813/2814 BKN013
FM281500 25005MPS 9999 -SN OVC012
 
Гыда
 


NOWCAST.SU USDG 281400Z VRB02MPS 3000 -SN BR BKN005 M08/M09 Q1031 NOSIG
RMK ICE: MOD FL50/FL90 FBL FL10/FL120
AUTOTAF.ME USDG 280800Z 2809/2818 VRB02MPS CAVOK TXM07/2816Z TNM09/2811Z
FM281100 VRB02MPS 1000 BR BKN003
FM281300 VRB02MPS 2800 BR BKN005
BECMG 2813/2814 -SN BR
FM281500 VRB02MPS 0500 SN FZFG BKN002
BECMG 2816/2817 FZFG
 
Харасавей
 


NOWCAST.SU USDH 281400Z 23004MPS 2000 SN BR BKN007 M02/M02 Q1030 NOSIG
RMK ICE: MOD FL30/FL70 FBL FL10/FL110
AUTOTAF.ME USDH 280800Z 2809/2818 24005MPS 2000 SN BR OVC009 TXM01/2809Z TNM02/2814Z
BECMG 2810/2811 1000
BECMG 2812/2813 1500
FM281500 23003MPS 1000 SN BR BKN003
BECMG 2815/2816 FZFG
FM281700 22003MPS 1000 SN BR OVC003
 
Мыс Каменный
 


NOWCAST.SU USDK 281400Z 23003MPS 2000 SN BR BKN008 M09/M10 Q1035 NOSIG
RMK ICE: FBL FL10/FL120
AUTOTAF.ME USDK 280900Z 2810/2819 26005G10MPS 2000 SN BR OVC009 TXM08/2810Z TNM11/2818Z
FM281100 25004MPS 9999 -SN OVC008
BECMG 2812/2813 OVC015
FM281400 23003MPS 2000 SN BR BKN008
FM281700 23003MPS 1000 SN BR BKN003
 
Утренний
 


NOWCAST.SU USDM 281400Z 24004MPS 3000 -SN BR BKN005 M05/M06 Q1030 NOSIG
RMK ICE: MOD FL70/FL90 FBL FL10/FL120
AUTOTAF.ME USDM 280800Z 2809/2818 25005MPS 0500 SN FZFG VV002 TXM02/2809Z TNM08/2818Z
FM281200 24004MPS 3000 -SN BR BKN005
FM281500 24003MPS 5000 -SN BR BKN013
FM281700 24003MPS 3000 -SN BR BKN005
FM281800 24003MPS 2000 SN BR BKN005
 
Толька
 


NOWCAST.SU USDO 281400Z VRB02MPS 2000 BR BKN270 M24/M26 Q1043 NOSIG
RMK ICE: FBL FL10/FL50
AUTOTAF.ME USDO 280800Z 2809/2818 VRB02MPS 9999 BKN011 TXM21/2809Z TNM25/2816Z
FM281000 VRB02MPS 2000 SN BR BKN009
FM281100 VRB02MPS 1500 BR NSC
BECMG 2811/2812 1000
BECMG 2812/2813 1500
FM281500 VRB02MPS CAVOK
FM281800 VRB02MPS 1000 BR NSC
 
Красноселькуп
 


NOWCAST.SU USDP 281400Z 23004MPS 2000 SN BR BKN008 M21/M23 Q1041 NOSIG
RMK ICE: FBL FL10/FL90
AUTOTAF.ME USDP 280800Z 2809/2818 23004MPS 9999 BKN013 TXM19/2809Z TNM21/2814Z
FM281000 23004MPS 2000 SN BKN011
BECMG 2810/2811 1000
BECMG 2812/2813 SN BR
BECMG 2813/2814 2000
FM281500 23004MPS 9999 BKN008
FM281700 23004MPS 8000 BR BKN008
FM281800 23005MPS 5000 BR OVC008
 
Яр-Сале
 


NOWCAST.SU USDR 281400Z 20003MPS 1000 BR OVC003 M14/M16 Q1036 NOSIG
RMK ICE: FBL FL10/FL150
AUTOTAF.ME USDR 280800Z 2809/2818 21004MPS 9999 BKN036 TXM14/2812Z TNM16/2809Z
FM281200 20003MPS 1000 BR BKN003
FM281800 VRB02MPS 0500 FZFG BKN002
 
Тарко-Сале
 


NOWCAST.SU USDS 281400Z 23004MPS 9999 BKN220 M22/M25 Q1041 NOSIG
RMK ICE: FBL FL10/FL120
AUTOTAF.ME USDS 280800Z 2809/2818 23004MPS CAVOK TXM21/2818Z TNM22/2809Z  
Тазовский
 


NOWCAST.SU USDT 281400Z 24005MPS 2000 SN BR BKN008 M12/M14 Q1036 NOSIG
RMK ICE: FBL FL10/FL120
AUTOTAF.ME USDT 280800Z 2809/2818 23005MPS 9999 BKN008 TXM12/2811Z TNM13/2809Z
BECMG 2809/2810 -SN
FM281100 24005MPS 2000 SN BR OVC008
FM281500 24005MPS 9999 -SN OVC008
FM281700 25004MPS 2000 SN BR OVC008
 
Новый Порт
 


NOWCAST.SU USDW 281400Z 21004MPS 1500 SN BR OVC008 M11/M12 Q1036 NOSIG
RMK ICE: MOD FL50/FL110 FBL FL10/FL150
AUTOTAF.ME USDW 280800Z 2809/2818 23004MPS 4000 BR OVC019 TXM11/2811Z TNM12/2809Z
FM281000 22004MPS 9999 -SN OVC017
FM281100 22004MPS 2000 SN OVC013
BECMG 2811/2812 OVC010
BECMG 2812/2813 SN BR
BECMG 2814/2815 OVC005
FM281700 22003MPS 1000 SN BR OVC003
 
Березово
 


NOWCAST.SU USHB 281400Z VRB02MPS 1000 BR OVC003 M19/M21 Q1041 NOSIG
RMK ICE: FBL FL10/FL150
AUTOTAF.ME USHB 280800Z 2809/2818 VRB02MPS CAVOK TXM17/2817Z TNM19/2809Z
FM281400 VRB02MPS 1000 BR OVC003
 
Ханты-Мансийск
METAR USHH 281400Z 00000MPS 5000 FU SCT006 M24/M27 Q1044 R24/450239 TEMPO 2000 SN SCT005


NOWCAST.SU USHH 281400Z 21004MPS 9999 BKN016 M22/M24 Q1046 NOSIG
RMK ICE: FBL FL10/FL20
AUTOTAF.ME USHH 280900Z 2810/2819 21004MPS 1000 BR BKN003 TXM21/2810Z TNM23/2817Z
FM281200 21004MPS CAVOK
BECMG 2813/2814 BKN016
FM281700 21003MPS 1000 BR OVC003
TAF USHH 281041Z 2812/2912 20003G08MPS 9999 FEW007 BKN020
TEMPO 2812/2909 3000 BR FU SCT002 BKN016=
Игрим
 


NOWCAST.SU USHI 281400Z VRB02MPS 1000 BR OVC003 M18/M20 Q1042 NOSIG
RMK ICE: FBL FL10/FL70
AUTOTAF.ME USHI 280800Z 2809/2818 VRB02MPS CAVOK TXM18/2814Z TNM19/2809Z
BECMG 2812/2813 OVC012
FM281400 VRB02MPS 1000 BR OVC003
 
Междуреченский
 


NOWCAST.SU USHM 281400Z 20003MPS 1000 BR BKN003 M20/M21 Q1046 NOSIG
RMK ICE: FBL FL30/FL120
AUTOTAF.ME USHM 280800Z 2809/2818 21003MPS CAVOK TXM18/2809Z TNM21/2818Z
FM281200 20003MPS 1000 BR OVC003
 
Нягань
 


NOWCAST.SU USHN 281400Z VRB02MPS 1000 BR OVC003 M21/M23 Q1042 NOSIG
RMK ICE: FBL FL10/FL20
AUTOTAF.ME USHN 280800Z 2809/2818 VRB02MPS CAVOK TXM19/2809Z TNM21/2811Z
FM281100 VRB02MPS 1000 BR OVC003
FM281500 VRB02MPS 9999 BKN012
BECMG 2817/2818 NSC
 
Горноправдинск
 


NOWCAST.SU USHP 281400Z 20003MPS 1000 BR OVC003 M22/M23 Q1047 NOSIG
RMK ICE: FBL FL10/FL20
AUTOTAF.ME USHP 280800Z 2809/2818 21003MPS CAVOK TXM19/2809Z TNM23/2816Z
FM281100 20003MPS 1000 BR OVC003
 
Белоярский
 


NOWCAST.SU USHQ 281400Z VRB02MPS 9999 BKN051 M20/M22 Q1041 NOSIG
RMK ICE: FBL FL10/FL150
AUTOTAF.ME USHQ 280900Z 2810/2819 VRB02MPS 9999 BKN036 TXM18/2818Z TNM20/2811Z
BECMG 2810/2811 NSC
FM281900 VRB02MPS 1000 BR BKN003
 
Советский
 


NOWCAST.SU USHS 281400Z VRB02MPS 1000 BR OVC003 M20/M22 Q1042 NOSIG
RMK ICE: FBL FL10/FL20
AUTOTAF.ME USHS 280900Z 2810/2819 VRB02MPS CAVOK TXM18/2810Z TNM20/2812Z
FM281200 VRB02MPS 1000 BR OVC003
FM281600 VRB02MPS CAVOK
 
Урай
 


NOWCAST.SU USHU 281400Z VRB02MPS 1000 BR BKN003 M20/M20 Q1045 NOSIG
RMK ICE: FBL FL10/FL20
AUTOTAF.ME USHU 280900Z 2810/2819 VRB02MPS 1000 BR OVC003 TXM18/2810Z TNM20/2813Z  
Няксимволь
 


NOWCAST.SU USHW 281400Z VRB02MPS 9999 SCT180 M21/M22 Q1041 NOSIG
RMK ICE: FBL FL10/FL120
AUTOTAF.ME USHW 280800Z 2809/2818 VRB02MPS CAVOK TXM19/2809Z TNM21/2812Z  
Ижевск
 


NOWCAST.SU USII 281400Z VRB02MPS 1000 BR OVC003 M14/M15 Q1045 NOSIG
AUTOTAF.ME USII 280800Z 2809/2818 VRB02MPS CAVOK TXM10/2809Z TNM16/2817Z
FM281000 VRB02MPS 5000 BR NSC
FM281100 VRB02MPS 1000 BR OVC003
FM281200 VRB02MPS 7000 BR NSC
FM281400 VRB02MPS 1000 BR OVC003
FM281800 VRB02MPS 7000 BR NSC
 
Киров (Победилово)
 


NOWCAST.SU USKK 281400Z VRB02MPS 9000 BR BKN260 M11/M12 Q1046 NOSIG
RMK ICE: FBL FL10/FL40
AUTOTAF.ME USKK 281100Z 2812/2821 VRB02MPS CAVOK TXM10/2812Z TNM12/2816Z
BECMG 2813/2814 BR
BECMG 2814/2815 7000
BECMG 2819/2820 SCT034
FM282100 VRB02MPS 7000 BR NSC
 
Котельнич
 


NOWCAST.SU USKO 281400Z VRB02MPS 6000 BR BKN260 M13/M13 Q1046 NOSIG
RMK ICE: FBL FL10/FL30
AUTOTAF.ME USKO 281100Z 2812/2821 VRB02MPS 8000 BR NSC TXM12/2812Z TNM13/2814Z  
КС Лонг-Юганская
 


NOWCAST.SU USML 281400Z 24004MPS 9999 BKN021 M17/M19 Q1039 NOSIG
RMK ICE: FBL FL10/FL70
AUTOTAF.ME USML 280800Z 2809/2818 25004MPS 9999 BKN014 TXM16/2816Z TNM18/2809Z
BECMG 2809/2810 NSC
BECMG 2813/2814 BKN021
BECMG 2815/2816 NSC
FM281700 24005MPS 9999 BKN012
 
Надым
 


NOWCAST.SU USMM 281400Z 22004MPS 9999 BKN012 M18/M19 Q1039 NOSIG
RMK ICE: FBL FL10/FL90
AUTOTAF.ME USMM 280900Z 2810/2819 23003MPS 1000 BR OVC003 TXM15/2819Z TNM19/2810Z
FM281100 23004MPS 9999 BKN009
BECMG 2812/2813 BKN015
BECMG 2814/2815 NSC
BECMG 2815/2816 BKN015
FM281700 22004MPS 1000 BR BKN003
 
Ямбург
 


NOWCAST.SU USMQ 281400Z 23004MPS 2000 SN OVC015 M09/M10 Q1036 NOSIG
RMK ICE: MOD FL110/FL120 FBL FL10/FL90
AUTOTAF.ME USMQ 280800Z 2809/2818 25005MPS 9999 -SN OVC012 TXM09/2809Z TNM11/2818Z
FM281200 24005MPS 2000 SN OVC015
BECMG 2816/2817 SN BR
BECMG 2817/2818 BKN005
 
Новый Уренгой
 


NOWCAST.SU USMU 281400Z 23003MPS 1000 BR BKN003 M19/M21 Q1039 NOSIG
RMK ICE: FBL FL10/FL150
AUTOTAF.ME USMU 280900Z 2810/2819 25003MPS 1000 BR OVC003 TXM17/2819Z TNM20/2810Z  
Нижневартовск
METAR USNN 281400Z 22002MPS CAVOK M26/M28 Q1046 R21/0///65 NOSIG RMK QFE779


NOWCAST.SU USNN 281400Z 23004MPS 1000 BR BKN009 M23/M24 Q1047 NOSIG
RMK ICE: FBL FL10/FL20
AUTOTAF.ME USNN 280800Z 2809/2818 23003MPS 9999 SCT012 TXM22/2809Z TNM24/2816Z
FM281100 23004MPS 1000 BR BKN003
BECMG 2813/2814 BKN009
BECMG 2815/2816 OVC003
TAF USNN 281050Z 2812/2912 24003G08MPS 9999 BKN020
TEMPO 2812/2822 -SHSN FEW003 BKN016CB=
Пермь (Большое Савино)
METAR USPP 281400Z 24003MPS 6000 FEW007 M17/M19 Q1046 R21/090060 TEMPO 0800 FZFG RMK QFE773


NOWCAST.SU USPP 281400Z VRB02MPS 9999 SKC M16/M17 Q1045 NOSIG
RMK ICE: FBL FL10/FL20
AUTOTAF.ME USPP 280900Z 2810/2819 VRB02MPS CAVOK TXM13/2810Z TNM17/2816Z
FM281500 VRB02MPS 7000 BR NSC
TAF USPP 281055Z 2812/2912 32003MPS 8000 -SN BKN016
TEMPO 2812/2815 BKN004
BECMG 2903/2905 24003G09MPS=
Березники
 


NOWCAST.SU USPT 281400Z VRB02MPS 9999 BKN156 M17/M17 Q1045 NOSIG
AUTOTAF.ME USPT 280800Z 2809/2818 VRB02MPS CAVOK TXM15/2809Z TNM17/2813Z  
Когалым
 


NOWCAST.SU USRK 281400Z 24004MPS 1000 BR BKN008 M24/M26 Q1045 NOSIG
RMK ICE: FBL FL10/FL40
AUTOTAF.ME USRK 280800Z 2809/2818 23004MPS 1000 BR BKN008 TXM23/2809Z TNM24/2811Z
BECMG 2811/2812 OVC003
BECMG 2813/2814 BKN008
BECMG 2815/2816 OVC003
 
Нефтеюганск
 


NOWCAST.SU USRN 281400Z 22003MPS 1000 BR SCT016 M23/M25 Q1046 NOSIG
AUTOTAF.ME USRN 280800Z 2809/2818 22004MPS 1000 BR OVC003 TXM21/2809Z TNM24/2815Z
BECMG 2813/2814 SCT016
BECMG 2814/2815 SCT009
 
Ноябрьск
 


NOWCAST.SU USRO 281500Z 24004MPS 1000 BR FEW100 M24/M26 Q1042 NOSIG
RMK ICE: FBL FL30/FL120
AUTOTAF.ME USRO 281300Z 2814/2823 24004MPS 1000 BR BKN019 TXM23/2820Z TNM25/2814Z
BECMG 2814/2815 NSC
BECMG 2816/2817 BKN018
BECMG 2819/2820 OVC003
FM282300 23004MPS 9999 BKN047
 
Сургут
METAR USRR 281400Z 23002MPS 9999 SCT007 M24/M26 Q1045 R25/810260 NOSIG RMK QFE778


NOWCAST.SU USRR 281500Z 24003MPS 1000 BR OVC003 M23/M25 Q1045 NOSIG
RMK ICE: FBL FL10/FL20
AUTOTAF.ME USRR 281300Z 2814/2823 24003MPS 1000 BR OVC003 TXM23/2814Z TNM25/2823Z
BECMG 2821/2822 NSC
TAF USRR 281055Z 2812/2912 22005G12MPS 9999 FEW004 SCT016
TEMPO 2812/2815 5000 -SN FEW002 BKN016
TEMPO 2815/2903 1000 BR SCT002 BKN016=
Североуральск
 


NOWCAST.SU USSE 281400Z VRB02MPS 9999 FEW170 M19/M21 Q1041 NOSIG
AUTOTAF.ME USSE 280800Z 2809/2818 VRB02MPS CAVOK TXM16/2809Z TNM20/2815Z  
Грань
 


NOWCAST.SU USSG 281400Z VRB02MPS 9999 SKC M19/M20 Q1042 NOSIG
RMK ICE: FBL FL10/FL20
AUTOTAF.ME USSG 280800Z 2809/2818 VRB02MPS CAVOK TXM14/2809Z TNM19/2813Z  
Ивдель
 


NOWCAST.SU USSI 281400Z VRB02MPS 9999 FEW160 M22/M23 Q1042 NOSIG
AUTOTAF.ME USSI 280800Z 2809/2818 VRB02MPS CAVOK TXM19/2809Z TNM22/2812Z
FM281100 VRB02MPS 0500 FG IC VV002
FM281400 VRB02MPS CAVOK
 
Екатеринбург (Арамиль)
 


NOWCAST.SU USSK 281400Z VRB02MPS 9999 SKC M18/M20 Q1044 NOSIG
RMK ICE: FBL FL70/FL80
AUTOTAF.ME USSK 280800Z 2809/2818 17003MPS CAVOK TXM13/2809Z TNM20/2818Z
FM281500 VRB02MPS 1000 BR OVC003
 
Алапаевск
 


NOWCAST.SU USSQ 281400Z 18003MPS 1000 BR OVC003 M19/M21 Q1045 NOSIG
AUTOTAF.ME USSQ 280800Z 2809/2818 18003MPS CAVOK TXM15/2809Z TNM20/2816Z
FM281200 17003MPS 1000 BR OVC003
 
Екатеринбург (Кольцово)
METAR USSS 281400Z 11002MPS CAVOK M20/M21 Q1045 R08R/81//60 NOSIG RMK QFE763/1018


NOWCAST.SU USSS 281400Z VRB02MPS 1000 BR OVC003 M18/M20 Q1044 NOSIG
RMK ICE: FBL FL70/FL80
AUTOTAF.ME USSS 280900Z 2810/2819 17003MPS CAVOK TXM14/2810Z TNM20/2818Z
FM281300 VRB02MPS 1000 BR OVC003
TAF USSS 281052Z 2812/2912 12003MPS 6000 SCT040
TEMPO 2815/2905 0300 FG FEW002
FM290600 24003G08MPS 9999 SCT040=
Тавда
 


NOWCAST.SU USSW 281400Z 20003MPS 9999 SKC M21/M23 Q1047 NOSIG
AUTOTAF.ME USSW 280800Z 2809/2818 20003MPS CAVOK TXM18/2809Z TNM22/2816Z  
Уват
 


NOWCAST.SU USTA 281400Z 20003MPS 9999 FEW180 M21/M23 Q1048 NOSIG
RMK ICE: FBL FL10/FL20
AUTOTAF.ME USTA 280800Z 2809/2818 21003MPS CAVOK TXM19/2809Z TNM22/2818Z
FM281500 20003MPS 1000 BR OVC003
 
Тобольск (Новая)
 


NOWCAST.SU USTJ 281400Z VRB02MPS 9999 FEW190 M23/M25 Q1050 NOSIG
AUTOTAF.ME USTJ 280800Z 2809/2818 19003MPS CAVOK TXM20/2809Z TNM24/2816Z  
Тобольск
 


NOWCAST.SU USTO 281400Z VRB02MPS 9999 FEW190 M23/M24 Q1049 NOSIG
AUTOTAF.ME USTO 280800Z 2809/2818 19003MPS CAVOK TXM19/2809Z TNM23/2814Z
FM281500 VRB02MPS 1000 BR OVC003
FM281700 VRB02MPS CAVOK
 
Тюмень (Рощино)
METAR USTR 281400Z 18004MPS CAVOK M20/M24 Q1048 R21/CLRD65 R30/CLRD65 NOSIG


NOWCAST.SU USTR 281400Z VRB02MPS 9999 SKC M23/M26 Q1049 NOSIG
AUTOTAF.ME USTR 281000Z 2811/2820 VRB02MPS CAVOK TXM21/2811Z TNM25/2820Z TAF USTR 281048Z 2812/2912 18003G08MPS 9999 SCT020
TEMPO 2815/2903 4000 BR HZ FEW005 SCT016
BECMG 2820/2821 20003MPS=
Курган
 


NOWCAST.SU USUU 281400Z VRB02MPS 9999 BKN138 M19/M22 Q1049 NOSIG
AUTOTAF.ME USUU 281200Z 2813/2822 VRB02MPS CAVOK TXM19/2813Z TNM21/2822Z  
Ashgabat
METAR UTAA 281400Z 32006KT 9999 FEW050CB BKN050 OVC100 13/08 Q1023 R88/CLRD70 NOSIG


NOWCAST.SU UTAA 281400Z 09006KT 9999 BKN060 13/06 Q1024 NOSIG
RMK ICE: FBL FL90/FL100 TURB: MOD SFC/FL30
AUTOTAF.ME UTAA 280800Z 2809/2818 01004KT CAVOK TX15/2809Z TN11/2817Z
BECMG 2813/2814 09006KT
BECMG 2816/2817 BKN029
TAF UTAA 281045Z 2812/2912 33016KT 6000 BKN030 SCT030CB
TEMPO 2812/2815 03018KT
TEMPO 2818/2905 VRB04KT 2000 BR BKN010
PROB40 TEMPO 2821/2904 0700 FG VV007=
Turkmenbashi
METAR UTAK 281400Z 32004KT 9999 OVC/// 10/09 Q1024 R16R/29//50 NOSIG


NOWCAST.SU UTAK 281400Z 01006KT 9999 SKC 10/06 Q1025 NOSIG
RMK ICE: FBL FL70/FL80
AUTOTAF.ME UTAK 280800Z 2809/2818 32006KT 9999 VCSH BKN017CB TX12/2809Z TN07/2818Z
BECMG 2810/2811 -RA
FM281400 01006KT CAVOK
BECMG 2814/2815 02006KT
FM281800 02004KT 9999 VCSH OVC025CB
TAF AMD UTAK 281230Z 2812/2912 32010KT 3000 -RA BR BKN007 OVC020
TEMPO 2812/2818 28010KT 0800 DZ FG VV002=
Mary
METAR UTAM 281400Z 25004KT 6000 SCT230 13/05 Q1024 R88/CLRD70 NOSIG


NOWCAST.SU UTAM 281400Z 32006KT 9999 FEW260 13/04 Q1024 NOSIG
RMK ICE: FBL FL110/FL120 TURB: MOD SFC/FL40
AUTOTAF.ME UTAM 280800Z 2809/2818 31010KT 9999 BKN043TCU TX17/2809Z TN09/2818Z
BECMG 2809/2810 NSC
TAF UTAM 281035Z 2812/2912 33014KT 5000 BKN020
TEMPO 2812/2818 29014KT SCT030CB
TEMPO 2900/2905 1500 BR BKN005=
Dashoguz
METAR UTAT 281400Z 01008KT 9999 OVC042 M00/M06 Q1024 R08/19//60 NOSIG


NOWCAST.SU UTAT 281400Z 36006KT 9999 FEW250 02/M12 Q1024 NOSIG
RMK ICE: FBL FL70/FL110 TURB: MOD SFC/FL20
AUTOTAF.ME UTAT 280800Z 2809/2818 35008KT CAVOK TX05/2809Z TNM01/2818Z TAF UTAT 281035Z 2812/2912 33016KT 6000 SCT030CB OVC030
TEMPO 2812/2818 01016KT 2000 FZRA OVC005=
Dushanbe
METAR UTDD 281400Z 28009MPS 9999 SCT074CB OVC089 14/04 Q1021 R09/CLRD// TEMPO 27010G15MPS RMK QFE698/0931


NOWCAST.SU UTDD 281400Z VRB02MPS 9999 -RA BKN077 09/03 Q1023 NOSIG
RMK ICE: FBL FL110/FL190 TURB: MOD FL70/FL80
AUTOTAF.ME UTDD 280800Z 2809/2818 VRB02MPS CAVOK TX14/2809Z TN07/2818Z
BECMG 2812/2813 -RA
BECMG 2816/2817 -SHRA
BECMG 2817/2818 -RA
TAF UTDD 281200Z 2813/2901 27005MPS 3100 HZ BKN030CB OVC050
TEMPO 2813/2901 29008G13MPS 1500 -SHRA HZ
PROB40 TEMPO 2813/2901 1000 -TSRA BR=
METAR UTDK 281400Z 25002MPS 9999 FEW066CB OVC120 14/07 Q1021 R01/09//70 RMK QFE708/0944


NOSIG
TAF UTDK 281200Z 2813/2822 VRB02MPS 6000 SCT040CB BKN070
BECMG 2815/2816 21005MPS 3100 HZ
TEMPO 2816/2822 20007G12MPS -SHRA
PROB40 TEMPO 2816/2822 1000 -TSRA HZ=
Khudzhand
METAR UTDL 281400Z 24008MPS 4500 BR OVC086 08/04 Q1021 R26/CLRD70 NOSIG RMK QFE728/0970


NOWCAST.SU UTDL 281400Z VRB02MPS 9999 BKN107 08/01 Q1023 NOSIG
RMK ICE: MOD FL170/FL190 FBL FL120/FL150 TURB: MOD FL160/FL210
AUTOTAF.ME UTDL 280800Z 2809/2818 05003MPS CAVOK TX11/2809Z TN07/2815Z
BECMG 2817/2818 -RA
TAF UTDL 281200Z 2813/2901 VRB02MPS 1800 BR SCT007 SCT050CB
TEMPO 2813/2901 24005MPS 1000 -SHRA BR SCT004 BKN030CB=
Namangan
METAR UTFN 281400Z 24004KT 1400 R28/P2000D BR NSC 04/02 Q1018 R28/CLRD70 NOSIG


NOWCAST.SU UTFN 281400Z 27004KT 9999 BKN105 08/M02 Q1020 NOSIG
RMK ICE: FBL FL120/FL190
AUTOTAF.ME UTFN 280800Z 2809/2818 VRB02KT CAVOK TX11/2809Z TN07/2815Z
BECMG 2814/2815 27006KT
BECMG 2816/2817 -RA
TAF UTFN 281100Z 2812/2912 33008KT 2500 BR FEW050CB
TEMPO 2812/2822 VRB02KT 0500 FG VV002=
Nukus Karakalpak
METAR UTNN 281400Z 36006KT CAVOK 00/M11 Q1024 R33/CLRD60 NOSIG


NOWCAST.SU UTNN 281400Z 02006KT 9999 BKN081 01/M12 Q1024 NOSIG
RMK ICE: FBL FL110/FL170
AUTOTAF.ME UTNN 280800Z 2809/2818 01008KT CAVOK TX03/2809Z TNM01/2818Z TAF UTNN 281100Z 2812/2912 34010KT CAVOK
TEMPO 2900/2906 1100 BR OVC003=
Bukhara
METAR UTSB 281400Z 20004KT 9999 FEW033 09/05 Q1021 R01/CLRD70 NOSIG


NOWCAST.SU UTSB 281400Z 29008KT 9999 BKN059 10/01 Q1022 NOSIG
RMK ICE: FBL FL90/FL110 TURB: MOD FL30/FL40
AUTOTAF.ME UTSB 280800Z 2809/2818 28010KT CAVOK TX13/2810Z TN07/2818Z
BECMG 2814/2815 BKN043
BECMG 2816/2817 NSC
BECMG 2817/2818 BKN043
TAF UTSB 281100Z 2812/2912 VRB03KT 7000 FEW010 SCT030
TEMPO 2812/2823 24014KT 3000 -SHRA BR SCT007 BKN040CB=
Karshi Khanabad
METAR UTSK 281400Z 18006KT 5000 BR NSC 08/05 Q1022 R16/CLRD70


NOWCAST.SU UTSK 281400Z 27006KT 9999 VCSH BKN022CB 10/03 Q1023 NOSIG
RMK ICE: MOD FL120/FL130 FBL FL110/FL190
AUTOTAF.ME UTSK 280800Z 2809/2818 24008KT 9999 -RA NSC TX15/2809Z TN07/2818Z
BECMG 2810/2811 OVC039
FM281300 27006KT 9999 VCSH BKN021CB
FM281600 24006KT 9999 SCT043
BECMG 2816/2817 NSC
BECMG 2817/2818 BKN045
TAF UTSK 281150Z 2813/2822 20010G20KT 6000 SCT050CB BKN100
TEMPO 2813/2822 25018G28KT 2000 -TSRA BR SCT007 BKN040CB=
Samarkand
METAR UTSS 281400Z 36004KT 320V040 9999 BKN062CB 08/06 Q1020 R27/CLRD70 NOSIG


NOWCAST.SU UTSS 281400Z 20006KT 9999 -RA BKN060 08/04 Q1023 NOSIG
RMK ICE: FBL FL110/FL190
AUTOTAF.ME UTSS 280800Z 2809/2818 23008KT CAVOK TX14/2809Z TN06/2816Z
BECMG 2809/2810 -RA
TAF AMD UTSS 281101Z 2812/2912 25012G22KT 6000 SCT060CB BKN100
TEMPO 2812/2815 30026G36KT 3500 -TSRA BR SCT007 BKN040CB
TEMPO 2815/2824 27018G28KT 1500 TSRA BR BKN005 OVC030CB=
Termez
METAR UTST 281400Z 24008KT 4000 HZ SCT066CB 13/02 Q1021 R25/CLRD70 TEMPO 25016G26KT 2400 -DS


NOWCAST.SU UTST 281400Z 26016G28KT 9999 SCT113 14/02 Q1022 NOSIG
RMK ICE: SEV FL150/FL160 MOD FL120/FL130 TURB: MOD FL120/FL130
AUTOTAF.ME UTST 280800Z 2809/2818 27022KT CAVOK TX18/2809Z TN13/2816Z
BECMG 2813/2814 26016G28KT
TAF UTST 281100Z 2812/2912 24016G26KT 5000 -DS BKN060CB BKN100
TEMPO 2812/2823 27023G33KT 1000 DS OVC040CB=
Taskent Yuzni
METAR UTTT 281400Z 13006KT 4000 -SHRA BR OVC039CB 07/06 Q1022 R08L/29//50 NOSIG


NOWCAST.SU UTTT 281400Z 09006KT 9999 -RA BKN035 08/05 Q1022 NOSIG
RMK ICE: MOD FL110/FL120 FBL FL90/FL190 TURB: MOD FL50/FL80 MOD FL70/FL80
AUTOTAF.ME UTTT 280800Z 2809/2818 35006KT 9999 -RA NSC TX13/2809Z TN07/2815Z
BECMG 2812/2813 -RA
FM281400 09006KT 9999 -RA BKN035
TAF UTTT 281100Z 2812/2912 22012KT 7000 SCT050CB BKN100
TEMPO 2812/2824 28015G25KT 2500 -SHRA BR SCT008 BKN040CB
PROB40 TEMPO 2812/2824 -TSRA OVC030CB=
Ржев (Компрессорная)
 


NOWCAST.SU UUAK 281400Z 12003MPS 2900 BR BKN005 M04/M05 Q1035 NOSIG
RMK ICE: MOD FL50/FL110 FBL FL10/FL190 TURB: MOD SFC/FL20
AUTOTAF.ME UUAK 280800Z 2809/2818 11004MPS 8000 -SN BKN012 TXM03/2810Z TNM04/2809Z
FM281100 11003MPS 5000 BR BKN009
FM281400 12003MPS 2900 BR BKN005
FM281500 12003MPS 5000 BR BKN009
FM281600 12003MPS 3000 -SN BR BKN005
FM281800 11003MPS 2000 SN BR BKN005
 
Охотактив
 


NOWCAST.SU UUAO 281400Z 11003MPS 9999 BKN290 M10/M11 Q1043 NOSIG
RMK ICE: FBL FL10/FL20
AUTOTAF.ME UUAO 280800Z 2809/2818 12003MPS CAVOK TXM08/2810Z TNM10/2814Z  
Кострома (Сокеркино)
 


NOWCAST.SU UUBA 281400Z VRB02MPS 9999 BKN270 M09/M10 Q1043 NOSIG
RMK ICE: FBL FL10/FL20
AUTOTAF.ME UUBA 281000Z 2811/2820 VRB02MPS CAVOK TXM08/2811Z TNM10/2817Z  
Москва (Быково)
 


NOWCAST.SU UUBB 281400Z 10004MPS 9999 BKN012 M06/M07 Q1039 NOSIG
RMK ICE: MOD FL110/FL150 FBL FL10/FL190
AUTOTAF.ME UUBB 280800Z 2809/2818 11004MPS 9999 BKN013 TXM05/2810Z TNM07/2817Z
BECMG 2816/2817 -SN
BECMG 2817/2818 -SN BR
 
Калуга (Грабцево)
METAR UUBC 281400Z 11005MPS 9000 -SN OVC005 M04/M05 Q1036 R13/490330 NOSIG RMK QBB150 QFE758/1011


NOWCAST.SU UUBC 281400Z 10004MPS 2000 BR BKN005 M04/M05 Q1036 NOSIG
RMK ICE: MOD FL90/FL150 FBL FL10/FL70
AUTOTAF.ME UUBC 280900Z 2810/2819 11004MPS 3000 -SN BR BKN005 TXM02/2811Z TNM05/2817Z
BECMG 2810/2811 BR
BECMG 2811/2812 2000
TAF UUBC 281051Z 2812/2821 10005MPS 6000 OVC006
TEMPO 2812/2821 3100 -SN OVC003
PROB40 TEMPO 2812/2821 -FZDZ=
Рязань (Дягилево)
 


NOWCAST.SU UUBD 281400Z 08004MPS 3000 BR OVC005 M05/M06 Q1038 NOSIG
RMK ICE: FBL FL10/FL190
AUTOTAF.ME UUBD 281200Z 2813/2822 08004MPS 3000 BR OVC005 TXM05/2813Z TNM08/2822Z
BECMG 2815/2816 2000
FM281800 09003MPS 1000 BR BKN003
FM282200 10003MPS CAVOK
 
Сасово
 


NOWCAST.SU UUBG 281400Z 08004MPS 9999 FEW280 M06/M08 Q1040 NOSIG
RMK ICE: FBL FL10/FL30
AUTOTAF.ME UUBG 280800Z 2809/2818 09004MPS CAVOK TXM05/2809Z TNM08/2817Z
FM281700 08003MPS 3000 BR OVC005
FM281800 08003MPS CAVOK
 
Иваново (Южный)
 


NOWCAST.SU UUBI 281400Z 10003MPS 9999 SCT300 M09/M11 Q1042 NOSIG
RMK ICE: FBL FL10/FL20
AUTOTAF.ME UUBI 281200Z 2813/2822 10003MPS CAVOK TXM09/2813Z TNM12/2821Z  
Рыбинск (Староселье)
 


NOWCAST.SU UUBK 281400Z 12003MPS 9999 BKN280 M09/M10 Q1041 NOSIG
RMK ICE: FBL FL10/FL20
AUTOTAF.ME UUBK 280800Z 2809/2818 13003MPS CAVOK TXM08/2809Z TNM10/2817Z  
Владимир (Семязино)
 


NOWCAST.SU UUBL 281400Z 09003MPS 9999 SCT290 M08/M09 Q1041 NOSIG
RMK ICE: FBL FL10/FL20
AUTOTAF.ME UUBL 281200Z 2813/2822 10003MPS CAVOK TXM07/2813Z TNM10/2822Z
BECMG 2814/2815 BR
 
Мячково
 


NOWCAST.SU UUBM 281400Z 10004MPS 9999 BKN012 M05/M07 Q1039 NOSIG
RMK ICE: MOD FL110/FL150 FBL FL10/FL190
AUTOTAF.ME UUBM 281200Z 2813/2822 10004MPS 9999 BKN012 TXM05/2813Z TNM08/2820Z
FM281700 10003MPS 5000 BR BKN012
FM281800 10003MPS 3000 BR BKN005
BECMG 2819/2820 2000
FM282200 10003MPS 1000 BR BKN003
 
Тверь (Змеево)
 


NOWCAST.SU UUBN 281400Z 11003MPS 5000 BR OVC011 M05/M06 Q1038 NOSIG
RMK ICE: MOD FL110/FL120 FBL FL10/FL190
AUTOTAF.ME UUBN 280800Z 2809/2818 11003MPS 6000 BR OVC035 TXM05/2809Z TNM06/2815Z
FM281000 11003MPS 4000 BR NSC
FM281100 11003MPS 9999 BKN015
FM281400 11003MPS 5000 BR OVC011
FM281600 11003MPS 9999 OVC012
 
Брянск
METAR UUBP 281400Z 08003MPS 9999 -SN OVC007 M02/M03 Q1033 R34/////// NOSIG RMK QFE757/1009


NOWCAST.SU UUBP 281400Z 11004MPS 9999 -SN BKN008 M01/M02 Q1032 NOSIG
RMK ICE: MOD FL70/FL90 FBL FL10/FL110
AUTOTAF.ME UUBP 280900Z 2810/2819 11004MPS 9999 -SN BKN008 TX00/2810Z TNM02/2816Z
FM281600 11004MPS 7000 -SN BR BKN008
BECMG 2816/2817 -SN
TAF UUBP 281045Z 2812/2821 08003MPS 6000 OVC006
TEMPO 2812/2821 2100 -FZDZ -SN BR OVC003=
Шарья
 


NOWCAST.SU UUBQ 281400Z VRB02MPS 1000 BR OVC003 M11/M12 Q1045 NOSIG
RMK ICE: FBL FL10/FL20
AUTOTAF.ME UUBQ 280800Z 2809/2818 VRB02MPS 9999 BKN018 TXM09/2809Z TNM12/2815Z
BECMG 2810/2811 NSC
BECMG 2811/2812 BR
FM281300 VRB02MPS 1000 BR OVC003
FM281500 VRB02MPS 7000 BR NSC
 
Рязань (Турлатово)
 


NOWCAST.SU UUBR 281400Z 08004MPS 3000 BR OVC005 M05/M06 Q1039 NOSIG
RMK ICE: FBL FL10/FL190
AUTOTAF.ME UUBR 280800Z 2809/2818 09004MPS 5000 BR BKN011 TXM04/2810Z TNM06/2815Z
FM281200 08004MPS 3000 BR BKN005
BECMG 2815/2816 2000
FM281700 09004MPS 9999 SCT018
 
Смоленск (Тихвинка)
 


NOWCAST.SU UUBS 281400Z 12004MPS 1000 BR BKN003 M01/M02 Q1032 NOSIG
RMK ICE: MOD FL30/FL70 FBL FL10/FL170
AUTOTAF.ME UUBS 281200Z 2813/2822 12004MPS 2000 SN BR BKN005 TX00/2813Z TNM02/2818Z
FM281400 12004MPS 1000 BR BKN003
BECMG 2816/2817 SN BR
BECMG 2819/2820 BR
BECMG 2820/2821 FZFG
FM282200 12004MPS 1000 BR BKN003
 
 


NOSIG
 
Жуковский (Раменское)
METAR UUBW 281400Z 09005MPS 9999 OVC006 M05/M06 Q1039 R30/120055 NOSIG


NOWCAST.SU UUBW 281400Z 10004MPS 9999 BKN012 M05/M07 Q1039 NOSIG
RMK ICE: MOD FL120/FL130 FBL FL10/FL190
AUTOTAF.ME UUBW 281000Z 2811/2820 11004MPS 9999 BKN012 TXM05/2811Z TNM08/2819Z
FM281700 10003MPS 3000 BR BKN005
BECMG 2819/2820 2000
TAF UUBW 281056Z 2812/2912 10005MPS 6000 OVC009 TXM04/2812Z TNM07/2906Z
PROB40 TEMPO 2812/2821 -FZDZ
TEMPO 2814/2906 OVC005
BECMG 2906/2908 BKN011=
Ярославль (Левцово)
 


NOWCAST.SU UUBX 281400Z 11003MPS 9999 BKN290 M10/M11 Q1042 NOSIG
RMK ICE: FBL FL10/FL20
AUTOTAF.ME UUBX 280800Z 2809/2818 12003MPS CAVOK TXM08/2809Z TNM11/2816Z
BECMG 2809/2810 SCT019
BECMG 2813/2814 NSC
 
Листвянка
 


NOWCAST.SU UUBZ 281400Z 08004MPS 3000 BR OVC005 M05/M06 Q1039 NOSIG
RMK ICE: FBL FL10/FL190
AUTOTAF.ME UUBZ 280800Z 2809/2818 09004MPS 5000 BR BKN012 TXM04/2810Z TNM06/2815Z
FM281200 08004MPS 3000 BR BKN005
FM281700 09004MPS 9999 SCT019
FM281800 09003MPS 1000 BR BKN003
 
Белоомут
 


NOWCAST.SU UUCB 281400Z 09003MPS 9999 BKN011 M05/M06 Q1039 NOSIG
RMK ICE: FBL FL10/FL190
AUTOTAF.ME UUCB 280800Z 2809/2818 10003MPS 9999 BKN015 TXM04/2810Z TNM06/2816Z
BECMG 2814/2815 NSC
FM281600 09003MPS 5000 BR BKN008
BECMG 2817/2818 3000
 
Дорожный
 


NOWCAST.SU UUCD 281400Z 11003MPS 9999 BKN012 M06/M07 Q1038 NOSIG
RMK ICE: MOD FL90/FL120 FBL FL10/FL190
AUTOTAF.ME UUCD 280800Z 2809/2818 12003MPS 9999 BKN018 TXM05/2810Z TNM07/2817Z
BECMG 2815/2816 NSC
BECMG 2817/2818 BR
 
Хоругвино
 


NOWCAST.SU UUCH 281400Z 12004MPS 9999 FEW240 M06/M07 Q1038 NOSIG
RMK ICE: MOD FL90/FL150 FBL FL10/FL190
AUTOTAF.ME UUCH 280800Z 2809/2818 12004MPS 3500 BR BKN011 TXM05/2810Z TNM07/2817Z
BECMG 2809/2810 NSC
BECMG 2810/2811 8000
BECMG 2817/2818 BR
 
Ильясово
 


NOWCAST.SU UUCI 281400Z 09003MPS 5000 BR OVC150 M05/M07 Q1039 NOSIG
RMK ICE: FBL FL10/FL190
AUTOTAF.ME UUCI 280800Z 2809/2818 10004MPS 9999 BKN012 TXM05/2809Z TNM07/2818Z
BECMG 2809/2810 NSC
FM281300 09003MPS 5000 BR NSC
FM281500 09003MPS 3000 BR OVC005
BECMG 2817/2818 2000
 
Кузнечково
 


NOWCAST.SU UUCJ 281400Z 12004MPS 9999 BKN240 M05/M06 Q1037 NOSIG
RMK ICE: MOD FL110/FL120 FBL FL10/FL190
AUTOTAF.ME UUCJ 280800Z 2809/2818 12004MPS 9999 -SN BKN013 TXM05/2809Z TNM06/2815Z
FM281100 12003MPS 5000 BR NSC
BECMG 2811/2812 BKN008
FM281300 12003MPS 9000 BR NSC
BECMG 2816/2817 BR
 
Горка
 


NOWCAST.SU UUCK 281400Z 10003MPS 9999 OVC012 M05/M06 Q1037 NOSIG
RMK ICE: MOD FL110/FL150 FBL FL10/FL190
AUTOTAF.ME UUCK 280800Z 2809/2818 11004MPS 9999 BKN011 TXM04/2811Z TNM06/2816Z  
Нудоль
 


NOWCAST.SU UUCN 281400Z 12004MPS 9999 BKN240 M05/M06 Q1037 NOSIG
RMK ICE: MOD FL110/FL150 FBL FL10/FL190
AUTOTAF.ME UUCN 280800Z 2809/2818 12004MPS 9999 -SN BKN012 TXM05/2809Z TNM06/2815Z
FM281100 12003MPS 5000 BR NSC
BECMG 2812/2813 9000
BECMG 2816/2817 BR
 
Павлово
 


NOWCAST.SU UUCO 281400Z 12004MPS 9999 FEW240 M05/M06 Q1038 NOSIG
RMK ICE: MOD FL110/FL150 FBL FL10/FL190
AUTOTAF.ME UUCO 280800Z 2809/2818 12004MPS 3500 BR BKN014 TXM05/2809Z TNM06/2815Z
BECMG 2810/2811 8000
FM281200 12004MPS CAVOK
BECMG 2817/2818 BR
 
Янино
 


NOWCAST.SU UUCQ 281400Z 09003MPS 5000 BR FEW180 M05/M07 Q1039 NOSIG
RMK ICE: FBL FL10/FL190
AUTOTAF.ME UUCQ 280800Z 2809/2818 10003MPS CAVOK TXM04/2811Z TNM06/2815Z
BECMG 2810/2811 BKN012
FM281300 09003MPS 5000 BR BKN012
BECMG 2813/2814 NSC
FM281700 VRB02MPS 3000 BR BKN005
 
Торбеево
 


NOWCAST.SU UUCT 281400Z 10004MPS 9999 BKN110 M05/M06 Q1038 NOSIG
RMK ICE: MOD FL110/FL120 FBL FL10/FL190
AUTOTAF.ME UUCT 280900Z 2810/2819 11004MPS CAVOK TXM04/2810Z TNM06/2817Z
FM281900 10003MPS 3000 BR BKN005
 
Гринвуд
 


NOWCAST.SU UUCU 281400Z 11003MPS 9999 BKN012 M06/M07 Q1038 NOSIG
RMK ICE: MOD FL90/FL150 FBL FL10/FL190
AUTOTAF.ME UUCU 280800Z 2809/2818 12004MPS 9999 BKN018 TXM05/2811Z TNM07/2817Z
BECMG 2817/2818 BR
 
Вихрево
 


NOWCAST.SU UUCW 281400Z 10003MPS 9999 BKN110 M06/M08 Q1039 NOSIG
RMK ICE: FBL FL10/FL190
AUTOTAF.ME UUCW 280800Z 2809/2818 11003MPS 9999 BKN015 TXM06/2809Z TNM07/2815Z
BECMG 2809/2810 NSC
BECMG 2811/2812 BKN012
BECMG 2812/2813 NSC
FM281500 10003MPS 9999 BKN012
FM281600 10003MPS 5000 BR BKN012
 
Университет Сбербанка
 


NOWCAST.SU UUCX 281400Z 12004MPS 9999 OVC011 M05/M07 Q1038 NOSIG
RMK ICE: MOD FL110/FL150 FBL FL10/FL190
AUTOTAF.ME UUCX 280800Z 2809/2818 12004MPS 3500 BR BKN015 TXM05/2809Z TNM06/2815Z
BECMG 2810/2811 8000
BECMG 2817/2818 BR
 
Дубна
 


NOWCAST.SU UUDB 281400Z 11003MPS 9999 OVC160 M05/M07 Q1038 NOSIG
RMK ICE: FBL FL10/FL190
AUTOTAF.ME UUDB 280800Z 2809/2818 12003MPS 9999 BKN015 TXM05/2810Z TNM07/2817Z
BECMG 2809/2810 OVC033
BECMG 2810/2811 OVC018
BECMG 2812/2813 NSC
FM281500 11003MPS 9999 OVC048
FM281700 VRB02MPS CAVOK
FM281800 VRB02MPS 8000 BR BKN012
 
Сонино
 


NOWCAST.SU UUDC 281400Z 10004MPS 9999 FEW110 M05/M05 Q1036 NOSIG
RMK ICE: MOD FL120/FL150 FBL FL10/FL190
AUTOTAF.ME UUDC 280800Z 2809/2818 11005MPS CAVOK TXM03/2809Z TNM05/2814Z
FM281200 10004MPS 1000 BR OVC003
FM281400 10004MPS CAVOK
 
Москва (Домодедово)
METAR UUDD 281400Z 10004MPS 9999 -SN SCT013 M05/M08 Q1038 R14R/520242 NOSIG


NOWCAST.SU UUDD 281400Z 10004MPS 5000 BR BKN010 M05/M07 Q1039 NOSIG
RMK ICE: MOD FL110/FL150 FBL FL10/FL190
AUTOTAF.ME UUDD 281200Z 2813/2822 10004MPS 9999 BKN010 TXM05/2813Z TNM08/2820Z
FM281400 10004MPS 5000 BR BKN010
FM281700 10003MPS 3000 BR BKN005
BECMG 2819/2820 2000
FM282100 10003MPS 1000 BR BKN003
TAF UUDD 281052Z 2812/2918 11006MPS 8000 FEW006 OVC010 TXM04/2812Z TNM08/2905Z
TEMPO 2812/2904 3000 -SN BR OVC006
PROB40 TEMPO 2812/2904 -FZDZ OVC004
BECMG 2905/2907 BKN016=
Большое Грызлово
 


NOWCAST.SU UUDG 281400Z 10003MPS 9999 BKN110 M05/M06 Q1037 NOSIG
RMK ICE: MOD FL120/FL130 FBL FL10/FL190
AUTOTAF.ME UUDG 280800Z 2809/2818 11004MPS CAVOK TXM04/2809Z TNM06/2817Z  
Ярославль (Туношна)
METAR UUDL 281400Z 12003MPS 9999 OVC004 M06/M07 Q1042 R23/850339 NOSIG RMK QBB120 QFE773


NOWCAST.SU UUDL 281400Z 11003MPS 5000 BR BKN290 M10/M11 Q1042 NOSIG
RMK ICE: FBL FL10/FL20
AUTOTAF.ME UUDL 280900Z 2810/2819 12003MPS 9999 SCT021 TXM08/2810Z TNM11/2817Z
FM281400 11003MPS 5000 BR NSC
FM281700 12003MPS CAVOK
TAF UUDL 281100Z 2812/2912 12003G08MPS 8000 OVC006 TXM06/2812Z TNM15/2903Z
TEMPO 2812/2820 OVC003
BECMG 2820/2822 BKN020=
Новинки
 


NOWCAST.SU UUDN 281400Z 10003MPS 9999 BKN110 M04/M06 Q1037 NOSIG
RMK ICE: MOD FL110/FL120 FBL FL10/FL190
AUTOTAF.ME UUDN 281200Z 2813/2822 10003MPS CAVOK TXM04/2813Z TNM06/2819Z
BECMG 2818/2819 BKN014
FM282000 10003MPS 3000 BR BKN005
BECMG 2821/2822 2000
 
Пахомово
 


NOWCAST.SU UUDP 281400Z 10004MPS 9999 FEW110 M05/M06 Q1036 NOSIG
RMK ICE: MOD FL120/FL130 FBL FL10/FL190
AUTOTAF.ME UUDP 280800Z 2809/2818 11005MPS CAVOK TXM03/2811Z TNM06/2817Z  
Хелипорт Реутов
 


NOWCAST.SU UUDR 281400Z 10003MPS 9999 BKN013 M06/M07 Q1039 NOSIG
RMK ICE: MOD FL110/FL150 FBL FL10/FL190
AUTOTAF.ME UUDR 280800Z 2809/2818 11003MPS 9999 BKN019 TXM05/2812Z TNM07/2816Z
BECMG 2817/2818 BR
 
Чулпаново
 


NOWCAST.SU UUDU 281400Z 10004MPS 9999 OVC011 M05/M06 Q1038 NOSIG
RMK ICE: MOD FL110/FL150 FBL FL10/FL190
AUTOTAF.ME UUDU 280800Z 2809/2818 11004MPS 9000 BR BKN012 TXM05/2809Z TNM07/2817Z
BECMG 2817/2818 BR
 
Взлетная
 


NOWCAST.SU UUDW 281400Z 10004MPS 9999 OVC012 M05/M06 Q1038 NOSIG
RMK ICE: MOD FL110/FL150 FBL FL10/FL190
AUTOTAF.ME UUDW 280800Z 2809/2818 11004MPS 9000 BR BKN013 TXM05/2809Z TNM07/2817Z
BECMG 2817/2818 BR
 
Киверичи (Запад)
 


NOWCAST.SU UUEC 281400Z 12003MPS 9999 OVC047 M07/M08 Q1038 NOSIG
RMK ICE: FBL FL10/FL190
AUTOTAF.ME UUEC 280800Z 2809/2818 12003MPS 9999 BKN018 TXM07/2809Z TNM08/2817Z
BECMG 2812/2813 OVC047
BECMG 2814/2815 NSC
BECMG 2815/2816 BKN047
FM281800 VRB02MPS 9000 BR BKN011
 
Москва (Шереметьево)
METAR UUEE 281400Z 11006MPS 9999 OVC006 M05/M06 Q1038 R06R/550140 R06C/550140 NOSIG


NOWCAST.SU UUEE 281400Z 11003MPS 9999 BKN011 M06/M07 Q1038 NOSIG
RMK ICE: MOD FL90/FL150 FBL FL10/FL190
AUTOTAF.ME UUEE 280900Z 2810/2819 12004MPS 9999 BKN015 TXM05/2812Z TNM07/2816Z
BECMG 2816/2817 NSC
BECMG 2817/2818 BR
BECMG 2818/2819 7000
TAF UUEE 281055Z 2812/2912 11005G10MPS 6000 -SN OVC007 TXM04/2813Z TNM06/2905Z
BECMG 2814/2816 OVC004
TEMPO 2816/2906 2100 -FZDZ BR OVC003=
 


NOSIG
 
Кимры (Борки)
 


NOWCAST.SU UUEI 281400Z 11003MPS 9999 BKN016 M07/M08 Q1039 NOSIG
RMK ICE: MOD FL90/FL100 FBL FL10/FL190
AUTOTAF.ME UUEI 280800Z 2809/2818 12003MPS 9999 BKN022 TXM06/2811Z TNM08/2816Z
BECMG 2816/2817 BKN012
BECMG 2817/2818 BR
 
Волен (Хелипорт)
 


NOWCAST.SU UUEJ 281400Z 12003MPS 9999 BKN013 M06/M08 Q1039 NOSIG
RMK ICE: MOD FL90/FL110 FBL FL10/FL190
AUTOTAF.ME UUEJ 280800Z 2809/2818 13004MPS 9999 BKN018 TXM05/2811Z TNM07/2816Z
BECMG 2816/2817 NSC
 
Конаково
 


NOWCAST.SU UUEL 281400Z 11003MPS 9999 OVC159 M05/M07 Q1038 NOSIG
RMK ICE: FBL FL10/FL190
AUTOTAF.ME UUEL 280800Z 2809/2818 12003MPS 9999 BKN016 TXM05/2810Z TNM07/2817Z
BECMG 2809/2810 OVC033
BECMG 2810/2811 OVC018
BECMG 2812/2813 NSC
FM281500 11003MPS 9999 OVC048
FM281700 VRB02MPS CAVOK
FM281800 VRB02MPS 8000 BR BKN012
 
Тверь (Мигалово)
 


NOWCAST.SU UUEM 281400Z 11003MPS 5000 BR OVC011 M05/M06 Q1038 NOSIG
RMK ICE: MOD FL110/FL120 FBL FL10/FL190
AUTOTAF.ME UUEM 280800Z 2809/2818 11003MPS 6000 BR OVC035 TXM05/2809Z TNM06/2816Z
FM281000 11003MPS 4000 BR OVC001
FM281100 11003MPS 9999 BKN015
FM281400 11003MPS 5000 BR OVC011
FM281600 11003MPS 9999 OVC011
 
Завидово (Русь)
 


NOWCAST.SU UUEP 281400Z 11003MPS 3000 -SN BR BKN005 M05/M06 Q1037 NOSIG
RMK ICE: MOD FL110/FL120 FBL FL10/FL190
AUTOTAF.ME UUEP 280800Z 2809/2818 11004MPS 9999 -SN OVC012 TXM04/2810Z TNM06/2817Z
FM281200 11003MPS 5000 -SN BR BKN012
FM281400 11003MPS 3000 -SN BR BKN005
BECMG 2815/2816 BR
FM281700 11003MPS 5000 BR BKN012
FM281800 11003MPS 9999 BKN012
 
Гурбан
 


NOWCAST.SU UUEQ 281400Z 11003MPS 9999 SKC M06/M07 Q1038 NOSIG
RMK ICE: MOD FL90/FL110 FBL FL10/FL190
AUTOTAF.ME UUEQ 280800Z 2809/2818 12004MPS 9999 BKN015 TXM05/2811Z TNM07/2816Z
BECMG 2812/2813 NSC
BECMG 2816/2817 BKN011
BECMG 2817/2818 BR
 
Талдом (Юркино)
 


NOWCAST.SU UUET 281400Z 12003MPS 9999 BKN012 M06/M08 Q1039 NOSIG
RMK ICE: MOD FL90/FL100 FBL FL10/FL190
AUTOTAF.ME UUET 280800Z 2809/2818 13004MPS 9999 BKN017 TXM05/2811Z TNM07/2815Z  
Залесье
 


NOWCAST.SU UUEX 281400Z 11003MPS 4500 BR BKN011 M05/M06 Q1037 NOSIG
RMK ICE: MOD FL90/FL120 FBL FL10/FL190
AUTOTAF.ME UUEX 280800Z 2809/2818 11004MPS 9999 -SN OVC014 TXM04/2811Z TNM06/2816Z
BECMG 2810/2811 6000
BECMG 2812/2813 -SN BR
BECMG 2813/2814 BR
FM281600 11003MPS 3500 BR BKN011
 
Юрьевское (Волжанка)
 


NOWCAST.SU UUEY 281400Z 10003MPS 9999 BKN012 M06/M07 Q1038 NOSIG
RMK ICE: MOD FL110/FL120 FBL FL10/FL190
AUTOTAF.ME UUEY 280800Z 2809/2818 11004MPS CAVOK TXM05/2811Z TNM07/2817Z
BECMG 2809/2810 OVC030
FM281200 11003MPS 6000 BR BKN015
 
Хатенки
 


NOWCAST.SU UUFH 281400Z 11004MPS 2000 BR BKN005 M02/M04 Q1034 NOSIG
RMK ICE: MOD FL110/FL120 FBL FL10/FL150
AUTOTAF.ME UUFH 280800Z 2809/2818 12004MPS 2600 -SN BR BKN005 TXM02/2809Z TNM03/2815Z
BECMG 2809/2810 BR
FM281500 11004MPS CAVOK
 
Михеево
 


NOWCAST.SU UUFM 281400Z 10004MPS 9999 FEW120 M04/M04 Q1036 NOSIG
RMK ICE: MOD FL90/FL120 FBL FL10/FL150
AUTOTAF.ME UUFM 280800Z 2809/2818 10004MPS 9999 -SN OVC010 TXM03/2809Z TNM05/2817Z
FM281000 11004MPS 4000 -SN BR BKN010
BECMG 2810/2811 9000
BECMG 2811/2812 -SN
FM281400 10004MPS CAVOK
FM281500 10003MPS 2000 BR OVC005
FM281700 10003MPS CAVOK
 
Недельное
 


NOWCAST.SU UUFN 281400Z 10003MPS 9999 SCT110 M04/M05 Q1036 NOSIG
RMK ICE: MOD FL110/FL150 FBL FL10/FL170
AUTOTAF.ME UUFN 280800Z 2809/2818 11004MPS 5000 BR BKN008 TXM03/2809Z TNM05/2816Z
BECMG 2809/2810 3000
FM281100 11004MPS 9999 -SN BKN008
FM281400 10003MPS CAVOK
FM281500 10003MPS 1000 BR BKN003
FM281600 10003MPS 2000 BR BKN005
 
Калуга (Орешково)
 


NOWCAST.SU UUFO 281400Z 11004MPS 2000 BR BKN005 M03/M04 Q1036 NOSIG
RMK ICE: MOD FL90/FL120 FBL FL10/FL150
AUTOTAF.ME UUFO 280800Z 2809/2818 12005MPS 3000 -SN BR BKN005 TXM02/2809Z TNM04/2816Z
BECMG 2811/2812 BR
BECMG 2813/2814 2000
FM281700 11004MPS 5000 BR BKN010
 
Стародуб
 


NOWCAST.SU UUFS 281400Z 11004MPS 2000 SN BR OVC005 00/M01 Q1031 NOSIG
RMK ICE: MOD FL30/FL70 FBL FL10/FL190
AUTOTAF.ME UUFS 280800Z 2809/2818 11004MPS 2000 BR OVC005 TX00/2809Z TNM01/2817Z
BECMG 2813/2814 SN BR
FM281500 11004MPS 9999 -SN OVC009
BECMG 2816/2817 NSC
FM281800 11005MPS 9999 -SN BKN009
 
Иваньково
 


NOWCAST.SU UUGI 281400Z 10004MPS 9999 SCT110 M05/M06 Q1037 NOSIG
RMK ICE: MOD FL110/FL120 FBL FL10/FL190
AUTOTAF.ME UUGI 280800Z 2809/2818 11005MPS CAVOK TXM04/2809Z TNM06/2817Z
FM281800 10004MPS 3000 BR BKN005
 
Дарьино
 


NOWCAST.SU UUID 281400Z 11003MPS 9999 OVC182 M08/M09 Q1039 NOSIG
RMK ICE: FBL FL10/FL190
AUTOTAF.ME UUID 280800Z 2809/2818 13003MPS CAVOK TXM07/2810Z TNM08/2809Z
FM281600 12003MPS 5000 BR NSC
 
Плес (Спасское)
 


NOWCAST.SU UUIE 281400Z 11003MPS 9999 SCT290 M09/M10 Q1043 NOSIG
RMK ICE: FBL FL10/FL20
AUTOTAF.ME UUIE 280800Z 2809/2818 12003MPS CAVOK TXM08/2809Z TNM10/2815Z  
Аэродром Доброград
 


NOWCAST.SU UUIG 281400Z 10003MPS 9999 SCT300 M08/M09 Q1041 NOSIG
RMK ICE: FBL FL10/FL20
AUTOTAF.ME UUIG 280800Z 2809/2818 11004MPS CAVOK TXM07/2809Z TNM09/2815Z  
Палех
 


NOWCAST.SU UUIH 281400Z 10003MPS 9999 FEW320 M09/M10 Q1043 NOSIG
RMK ICE: FBL FL10/FL20
AUTOTAF.ME UUIH 280800Z 2809/2818 12004MPS 9999 BKN017 TXM08/2809Z TNM10/2815Z
BECMG 2810/2811 NSC
 
Мордыш
 


NOWCAST.SU UUIM 281400Z 10003MPS 9999 BKN310 M09/M10 Q1042 NOSIG
RMK ICE: FBL FL10/FL20
AUTOTAF.ME UUIM 280800Z 2809/2818 11004MPS 9999 BKN018 TXM08/2809Z TNM10/2816Z
BECMG 2813/2814 NSC
BECMG 2814/2815 BR
 
Небылое
 


NOWCAST.SU UUIN 281400Z 10003MPS 5000 BR SCT290 M09/M10 Q1041 NOSIG
RMK ICE: FBL FL10/FL20
AUTOTAF.ME UUIN 280800Z 2809/2818 11004MPS 9999 BKN017 TXM09/2809Z TNM10/2815Z
BECMG 2809/2810 NSC
FM281200 10003MPS 5000 BR NSC
FM281600 11003MPS CAVOK
 
Павловское
 


NOWCAST.SU UUIP 281400Z 10003MPS 9999 BKN300 M09/M10 Q1042 NOSIG
RMK ICE: FBL FL10/FL20
AUTOTAF.ME UUIP 280800Z 2809/2818 11004MPS CAVOK TXM08/2809Z TNM10/2816Z
BECMG 2814/2815 BR
 
Сновицы
 


NOWCAST.SU UUIS 281400Z 09003MPS 9999 SCT290 M08/M09 Q1041 NOSIG
RMK ICE: FBL FL10/FL20
AUTOTAF.ME UUIS 280800Z 2809/2818 11003MPS CAVOK TXM07/2809Z TNM09/2815Z
BECMG 2814/2815 BR
 
Почаевский проезд
 


NOWCAST.SU UUIX 281400Z 09003MPS 9999 SCT290 M08/M09 Q1041 NOSIG
RMK ICE: FBL FL10/FL20
AUTOTAF.ME UUIX 280800Z 2809/2818 11003MPS CAVOK TXM07/2809Z TNM09/2816Z
BECMG 2814/2815 BR
 
Шилово (Крутицы)
 


NOWCAST.SU UUJK 281400Z 08004MPS 9999 SCT230 M05/M07 Q1039 NOSIG
RMK ICE: FBL FL10/FL30
AUTOTAF.ME UUJK 280800Z 2809/2818 09004MPS CAVOK TXM04/2809Z TNM07/2818Z  
Кубинка
 


NOWCAST.SU UUMB 281400Z 11003MPS 9999 SCT110 M05/M06 Q1037 NOSIG
RMK ICE: MOD FL120/FL130 FBL FL10/FL190
AUTOTAF.ME UUMB 280800Z 2809/2818 11004MPS 9999 BKN011 TXM04/2809Z TNM06/2818Z
BECMG 2809/2810 NSC
 
Черноголовка
 


NOWCAST.SU UUMC 281400Z 10003MPS 9999 BKN011 M06/M07 Q1039 NOSIG
RMK ICE: MOD FL120/FL130 FBL FL10/FL190
AUTOTAF.ME UUMC 280800Z 2809/2818 11003MPS 9999 BKN019 TXM06/2809Z TNM08/2818Z
BECMG 2813/2814 BKN011
BECMG 2815/2816 BR
BECMG 2817/2818 5000
 
Сельниково
 


NOWCAST.SU UUMD 281400Z 09003MPS 3000 BR OVC005 M05/M07 Q1039 NOSIG
RMK ICE: FBL FL10/FL190
AUTOTAF.ME UUMD 280800Z 2809/2818 10004MPS 9999 BKN012 TXM04/2811Z TNM07/2817Z
BECMG 2809/2810 NSC
FM281300 09003MPS 5000 BR NSC
FM281400 09003MPS 3000 BR OVC005
BECMG 2816/2817 2000
 
Северка
 


NOWCAST.SU UUML 281400Z 09004MPS 3000 BR OVC005 M05/M06 Q1038 NOSIG
RMK ICE: FBL FL10/FL190
AUTOTAF.ME UUML 280800Z 2809/2818 11005MPS 9999 BKN012 TXM04/2811Z TNM07/2818Z
BECMG 2809/2810 OVC024
FM281100 10004MPS 3000 BR OVC005
 
КС-18 Мышкин
 


NOWCAST.SU UUMN 281400Z 12003MPS 9999 BKN280 M09/M10 Q1041 NOSIG
RMK ICE: FBL FL10/FL20
AUTOTAF.ME UUMN 280800Z 2809/2818 13003MPS CAVOK TXM08/2809Z TNM09/2814Z
BECMG 2811/2812 SCT019
BECMG 2812/2813 NSC
 
Москва (Остафьево)
METAR UUMO 281400Z 12004MPS 9999 OVC016 M05/M07 Q1039 R07/520342 NOSIG RMK QFE764/1019


NOWCAST.SU UUMO 281400Z 10004MPS 9999 SKC M05/M06 Q1038 NOSIG
RMK ICE: MOD FL90/FL150 FBL FL10/FL190
AUTOTAF.ME UUMO 281000Z 2811/2820 11004MPS 9000 BR NSC TXM05/2811Z TNM07/2817Z
BECMG 2814/2815 OVC011
BECMG 2817/2818 BR
FM282000 10003MPS 3000 BR BKN005
TAF UUMO 281045Z 2812/2821 11005MPS 6000 OVC012
TEMPO 2812/2818 2100 -SN BR OVC004=
Буньково
 


NOWCAST.SU UUMR 281400Z 12004MPS 9999 FEW240 M05/M06 Q1038 NOSIG
RMK ICE: MOD FL90/FL150 FBL FL10/FL190
AUTOTAF.ME UUMR 280800Z 2809/2818 12004MPS 3500 BR BKN015 TXM05/2809Z TNM06/2815Z
BECMG 2810/2811 8000
FM281200 12004MPS CAVOK
BECMG 2817/2818 BR
 
Чкаловский
 


NOWCAST.SU UUMU 281400Z 10003MPS 9999 BKN012 M06/M07 Q1039 NOSIG
RMK ICE: MOD FL110/FL120 FBL FL10/FL190
AUTOTAF.ME UUMU 280800Z 2809/2818 11003MPS 9999 BKN017 TXM06/2809Z TNM07/2816Z
FM281600 10003MPS 5000 BR BKN014
FM281700 11003MPS 9999 BKN011
FM281800 11003MPS 5000 BR BKN011
 
Воскресенск
 


NOWCAST.SU UUMV 281400Z 09003MPS 9999 OVC012 M06/M07 Q1039 NOSIG
RMK ICE: FBL FL10/FL190
AUTOTAF.ME UUMV 280800Z 2809/2818 10003MPS 9999 BKN016 TXM05/2809Z TNM07/2816Z
BECMG 2809/2810 NSC
BECMG 2813/2814 OVC012
FM281500 09003MPS 5000 BR OVC014
FM281700 09003MPS 3000 BR OVC005
 
Аэродром Ватулино
 


NOWCAST.SU UUMW 281400Z 11004MPS 3000 BR BKN005 M04/M05 Q1036 NOSIG
RMK ICE: MOD FL90/FL150 FBL FL10/FL190
AUTOTAF.ME UUMW 280800Z 2809/2818 11004MPS 5000 -SN BR BKN009 TXM04/2809Z TNM05/2816Z
FM281100 12004MPS 3000 -SN BR BKN005
BECMG 2811/2812 BR
BECMG 2814/2815 2000
FM281600 11003MPS CAVOK
 
Благовещенье
 


NOWCAST.SU UUMX 281400Z 12003MPS 9999 OVC140 M07/M08 Q1039 NOSIG
RMK ICE: FBL FL10/FL190
AUTOTAF.ME UUMX 280800Z 2809/2818 13004MPS 9999 BKN018 TXM07/2809Z TNM08/2816Z
BECMG 2812/2813 NSC
BECMG 2815/2816 BKN012
BECMG 2816/2817 NSC
 
Озеры
 


NOWCAST.SU UUMY 281400Z 09004MPS 9999 OVC110 M05/M06 Q1038 NOSIG
RMK ICE: FBL FL10/FL190
AUTOTAF.ME UUMY 280800Z 2809/2818 11005MPS CAVOK TXM05/2809Z TNM07/2817Z
BECMG 2809/2810 OVC024
BECMG 2810/2811 NSC
FM281600 09004MPS 3000 BR OVC005
BECMG 2817/2818 2000
 
Белгород
METAR UUOB 281400Z 08006MPS 9999 OVC005 M02/M03 Q1032 R11/810355 NOSIG


NOWCAST.SU UUOB 281400Z 09005G11MPS 9999 BKN013 00/M03 Q1031 NOSIG
RMK ICE: FBL FL10/FL120 TURB: MOD SFC/FL20
AUTOTAF.ME UUOB 280900Z 2810/2819 11005MPS 9999 BKN019 TX01/2810Z TNM02/2818Z
BECMG 2814/2815 BKN011
BECMG 2817/2818 BKN016
TAF UUOB 281059Z 2812/2821 10005MPS 6000 OVC004=
Воронеж (Придача)
 


NOWCAST.SU UUOD 281400Z 09004MPS 9999 BKN075 M02/M05 Q1035 NOSIG
RMK ICE: MOD FL150/FL160 FBL FL110/FL190
AUTOTAF.ME UUOD 280800Z 2809/2818 10005MPS 9999 OVC030 TXM01/2810Z TNM03/2815Z
BECMG 2812/2813 NSC
 
Курск (Восточный)
METAR UUOK 281400Z 11005MPS 4400 BR OVC002 M03/M03 Q1033 R12/190055 NOSIG RMK QBB070 QFE757/1009


NOWCAST.SU UUOK 281400Z 10005G10MPS 5000 BR BKN055 M02/M04 Q1033 NOSIG
RMK ICE: FBL FL10/FL120
AUTOTAF.ME UUOK 281100Z 2812/2821 10004MPS 9999 BKN010 TXM02/2812Z TNM04/2819Z
FM281300 10005MPS 5000 BR BKN009
BECMG 2813/2814 NSC
BECMG 2814/2815 BKN008
BECMG 2815/2816 NSC
FM281700 10005G11MPS 9999 BKN010
FM281900 10004MPS 9999 BKN014
FM282000 10004MPS CAVOK
TAF UUOK 281053Z 2812/2821 12005G10MPS 2500 -SN BR OVC003
TEMPO 2812/2821 0700 -FZDZ FZFG OVC001=
Липецк
METAR UUOL 281400Z 09005MPS 9999 OVC013 M03/M05 Q1036 R15/0900// NOSIG


NOWCAST.SU UUOL 281400Z 09004MPS 9999 FEW110 M02/M06 Q1036 NOSIG
RMK ICE: FBL FL70/FL190
AUTOTAF.ME UUOL 280800Z 2809/2818 10005MPS 9999 BKN028 TXM02/2809Z TNM03/2816Z
BECMG 2812/2813 NSC
TAF UUOL 281100Z 2812/2821 11006MPS 9999 OVC016=
Воронеж (Чертовицкое)
METAR UUOO 281400Z 10002MPS 9999 BKN018 M04/M05 Q1035 R12/910240 NOSIG RMK QFE762


NOWCAST.SU UUOO 281400Z 09004MPS 9999 BKN080 M02/M05 Q1035 NOSIG
RMK ICE: MOD FL150/FL160 FBL FL110/FL190
AUTOTAF.ME UUOO 280800Z 2809/2818 10005MPS 9999 BKN021 TXM02/2809Z TNM03/2815Z
BECMG 2813/2814 NSC
TAF UUOO 281100Z 2812/2821 10003MPS 9999 OVC016=
Орел (Южный)
 


NOWCAST.SU UUOR 281400Z 11004MPS 9999 OVC120 M02/M04 Q1034 NOSIG
RMK ICE: MOD FL120/FL130 FBL FL10/FL110
AUTOTAF.ME UUOR 280800Z 2809/2818 12004MPS 5000 BR BKN009 TXM01/2809Z TNM03/2816Z
FM281000 12004MPS CAVOK
BECMG 2815/2816 BKN016
BECMG 2816/2817 NSC
FM281800 11004MPS 5000 BR NSC
 
Старый Оскол
 


NOWCAST.SU UUOS 281400Z 09004MPS 9999 BKN015 M02/M04 Q1034 NOSIG
RMK ICE: FBL FL10/FL150
AUTOTAF.ME UUOS 280800Z 2809/2818 10005MPS 9999 BKN018 TXM01/2809Z TNM03/2815Z
BECMG 2810/2811 NSC
BECMG 2813/2814 BKN015
BECMG 2814/2815 SCT024
FM281600 09005G10MPS CAVOK
 
Тамбов (Донское)
 


NOWCAST.SU UUOT 281400Z 09004MPS 9999 FEW210 M03/M09 Q1038 NOSIG
RMK TURB: MOD SFC/FL20
AUTOTAF.ME UUOT 280800Z 2809/2818 10004MPS 9999 SCT028 TXM02/2809Z TNM04/2816Z
BECMG 2809/2810 NSC
 
Усмань (Чистоозерская)
 


NOWCAST.SU UUOU 281400Z 09004MPS 9999 FEW110 M02/M06 Q1035 NOSIG
RMK ICE: FBL FL110/FL190 TURB: MOD SFC/FL20
AUTOTAF.ME UUOU 280800Z 2809/2818 10004MPS 9999 BKN025 TXM01/2810Z TNM03/2816Z
BECMG 2812/2813 NSC
 
Валуйки
 


NOWCAST.SU UUOW 281400Z 08004MPS 9999 FEW310 M01/M04 Q1032 NOSIG
RMK ICE: FBL FL10/FL120
AUTOTAF.ME UUOW 280800Z 2809/2818 10005MPS CAVOK TX01/2809Z TNM02/2818Z
BECMG 2809/2810 BKN022
BECMG 2813/2814 NSC
 
Воронеж (Солнечная)
 


NOWCAST.SU UUOZ 281400Z 09004MPS 9999 BKN075 M02/M05 Q1035 NOSIG
RMK ICE: MOD FL150/FL160 FBL FL110/FL190
AUTOTAF.ME UUOZ 280800Z 2809/2818 10005MPS 9999 BKN021 TXM02/2809Z TNM03/2815Z
BECMG 2813/2814 NSC
 
Гаврилов Ям (Агат)
 


NOWCAST.SU UUQA 281400Z 11003MPS 9999 BKN290 M10/M11 Q1042 NOSIG
RMK ICE: FBL FL10/FL20
AUTOTAF.ME UUQA 280800Z 2809/2818 12003MPS CAVOK TXM08/2809Z TNM11/2817Z
BECMG 2809/2810 SCT020
BECMG 2813/2814 NSC
FM281500 12003MPS 5000 BR NSC
FM281700 VRB02MPS CAVOK
 
Ярославль (Любим)
 


NOWCAST.SU UUQL 281400Z 11003MPS 9999 BKN290 M10/M11 Q1042 NOSIG
RMK ICE: FBL FL10/FL20
AUTOTAF.ME UUQL 280800Z 2809/2818 12003MPS CAVOK TXM08/2809Z TNM11/2817Z
BECMG 2809/2810 SCT021
BECMG 2813/2814 NSC
 
Попов Луг
 


NOWCAST.SU UUQP 281400Z 11003MPS 9999 OVC183 M08/M09 Q1039 NOSIG
RMK ICE: FBL FL10/FL190
AUTOTAF.ME UUQP 280800Z 2809/2818 13003MPS CAVOK TXM07/2810Z TNM08/2809Z
FM281700 12003MPS 5000 BR NSC
 
Рыбинск-Аксон
 


NOWCAST.SU UUQR 281400Z 12003MPS 9999 BKN290 M09/M10 Q1041 NOSIG
RMK ICE: FBL FL10/FL20
AUTOTAF.ME UUQR 280800Z 2809/2818 13003MPS 9999 BKN021 TXM08/2809Z TNM09/2814Z
BECMG 2811/2812 NSC
 
Лось
 


NOWCAST.SU UUQX 281400Z 11004MPS 9999 BKN240 M08/M09 Q1040 NOSIG
RMK ICE: FBL FL10/FL190
AUTOTAF.ME UUQX 280800Z 2809/2818 12004MPS CAVOK TXM07/2809Z TNM09/2816Z
BECMG 2817/2818 BKN015
 
Строгановка
 


NOWCAST.SU UURA 281400Z 21004MPS 9999 BKN040 M13/M15 Q1036 NOSIG
RMK ICE: FBL FL10/FL150
AUTOTAF.ME UURA 280800Z 2809/2818 22005MPS 9999 BKN012 TXM12/2818Z TNM13/2809Z
BECMG 2809/2810 NSC
BECMG 2812/2813 BKN045
BECMG 2814/2815 BKN012
FM281600 21004MPS 9999 BKN035
 
Сандивей ДНС
 


NOWCAST.SU UURD 281400Z 22004MPS 9999 BKN013 M15/M17 Q1037 NOSIG
RMK ICE: FBL FL10/FL150
AUTOTAF.ME UURD 280800Z 2809/2818 22005G10MPS 9999 BKN007 TXM14/2809Z TNM15/2813Z
BECMG 2809/2810 BKN013
BECMG 2814/2815 OVC006
 
 


NOSIG
 
Горовидка
 


NOWCAST.SU UUSG 281400Z 12005MPS 2000 BR BKN005 M03/M04 Q1035 NOSIG
RMK ICE: MOD FL20/FL110 FBL FL10/FL50
AUTOTAF.ME UUSG 280800Z 2809/2818 12005MPS 2000 SN BR BKN007 TXM03/2809Z TNM04/2816Z
BECMG 2810/2811 -SN BR
BECMG 2811/2812 BR
FM281600 12004MPS 1000 BR BKN003
FM281700 12004MPS 8000 BR NSC
 
Кирилловка
 


NOWCAST.SU UUTA 281400Z 11003MPS 9999 -SN BKN011 M05/M06 Q1037 NOSIG
RMK ICE: MOD FL110/FL120 FBL FL10/FL190
AUTOTAF.ME UUTA 280800Z 2809/2818 11004MPS 9999 -SN OVC013 TXM04/2810Z TNM06/2817Z
FM281100 11003MPS 2000 SN OVC011
BECMG 2811/2812 SN BR
FM281300 11003MPS 7000 -SN BR BKN011
BECMG 2813/2814 -SN
 
Адмиральская Бухта
 


NOWCAST.SU UUTB 281400Z 11003MPS 5000 BR OVC012 M05/M07 Q1038 NOSIG
RMK ICE: MOD FL110/FL120 FBL FL10/FL190
AUTOTAF.ME UUTB 280800Z 2809/2818 11003MPS 6000 BR OVC035 TXM05/2809Z TNM06/2815Z
FM281000 11003MPS 4000 BR NSC
FM281100 11003MPS 9999 BKN014
FM281400 11003MPS 5000 BR OVC012
FM281700 11003MPS 9999 BKN012
 
Серебряный Бор
 


NOWCAST.SU UUTF 281400Z 12004MPS 9999 BKN240 M05/M06 Q1037 NOSIG
RMK ICE: MOD FL110/FL120 FBL FL10/FL190
AUTOTAF.ME UUTF 280800Z 2809/2818 12004MPS 9999 BKN012 TXM05/2809Z TNM06/2815Z
FM281100 12003MPS 5000 BR NSC
BECMG 2811/2812 BKN008
FM281300 12003MPS 9000 BR NSC
BECMG 2816/2817 BR
 
 


NOSIG
 
Вараксино
 


NOWCAST.SU UUTH 281400Z 12004MPS 3000 BR BKN005 M03/M04 Q1035 NOSIG
RMK ICE: MOD FL20/FL110 FBL FL10/FL120 TURB: MOD SFC/FL20
AUTOTAF.ME UUTH 280800Z 2809/2818 12004MPS 1500 SN BR OVC009 TXM03/2809Z TNM04/2815Z
FM281100 12004MPS 5000 -SN BR OVC009
FM281200 12004MPS 3000 BR BKN005
BECMG 2817/2818 2000
 
Завидово (Треуголка)
 


NOWCAST.SU UUTJ 281400Z 11003MPS 9999 -SN OVC011 M05/M06 Q1038 NOSIG
RMK ICE: MOD FL110/FL120 FBL FL10/FL190
AUTOTAF.ME UUTJ 280800Z 2809/2818 11003MPS 9999 BKN015 TXM04/2812Z TNM06/2816Z
BECMG 2810/2811 -SN
 
Калязин
 


NOWCAST.SU UUTK 281400Z 11004MPS 9999 BKN161 M08/M09 Q1040 NOSIG
RMK ICE: FBL FL10/FL190
AUTOTAF.ME UUTK 280800Z 2809/2818 12004MPS CAVOK TXM07/2811Z TNM09/2817Z
BECMG 2817/2818 BKN011
 
Александровская Слобода
 


NOWCAST.SU UUTL 281400Z 10003MPS 9999 BKN012 M06/M07 Q1038 NOSIG
RMK ICE: MOD FL90/FL120 FBL FL10/FL190
AUTOTAF.ME UUTL 280800Z 2809/2818 11004MPS 9999 BKN018 TXM05/2812Z TNM07/2817Z
FM281200 11003MPS 6000 BR BKN014
 
Орловка
 


NOWCAST.SU UUTO 281400Z 12003MPS 3000 BR BKN005 M04/M05 Q1035 NOSIG
RMK ICE: MOD FL70/FL110 FBL FL10/FL170
AUTOTAF.ME UUTO 281100Z 2812/2821 12004MPS 5000 -SN BR BKN009 TXM03/2812Z TNM05/2819Z
FM281300 12003MPS 3000 -SN BR BKN005
BECMG 2813/2814 BR
BECMG 2814/2815 2000
FM282000 12003MPS CAVOK
 
Поповка
 


NOWCAST.SU UUTP 281400Z 11003MPS 9999 BKN250 M08/M09 Q1040 NOSIG
RMK ICE: FBL FL10/FL190
AUTOTAF.ME UUTP 280800Z 2809/2818 12003MPS CAVOK TXM08/2809Z TNM08/2809Z
BECMG 2816/2817 SCT015
 
Свердловка
 


NOWCAST.SU UUTQ 281400Z 11003MPS 9999 -SN OVC012 M05/M06 Q1038 NOSIG
RMK ICE: MOD FL120/FL130 FBL FL10/FL190
AUTOTAF.ME UUTQ 280800Z 2809/2818 11003MPS 9999 OVC048 TXM05/2809Z TNM06/2816Z
BECMG 2809/2810 -SN
BECMG 2811/2812 BKN012
BECMG 2812/2813 -SN BR
FM281400 11003MPS 9999 -SN OVC012
 
Старица
 


NOWCAST.SU UUTS 281400Z 11003MPS 3000 BR BKN005 M05/M06 Q1036 NOSIG
RMK ICE: MOD FL70/FL120 FBL FL10/FL190
AUTOTAF.ME UUTS 280800Z 2809/2818 11004MPS 2000 SN BKN013 TXM04/2809Z TNM05/2814Z
FM281100 11004MPS 9999 -SN BKN011
FM281200 11004MPS 5000 -SN BR OVC010
BECMG 2812/2813 BR
FM281400 11003MPS 3000 BR BKN005
FM281800 12003MPS 5000 BR BKN010
 
Волжская 7
 


NOWCAST.SU UUTV 281400Z 11003MPS 9999 -SN OVC012 M05/M06 Q1038 NOSIG
RMK ICE: MOD FL110/FL120 FBL FL10/FL190
AUTOTAF.ME UUTV 280800Z 2809/2818 11003MPS 9999 BKN015 TXM05/2809Z TNM07/2818Z
BECMG 2809/2810 -SN
BECMG 2812/2813 -SN BR
BECMG 2813/2814 -SN
 
Волга Кантри Клаб
 


NOWCAST.SU UUTW 281400Z 12004MPS 2000 BR BKN005 M04/M05 Q1035 NOSIG
RMK ICE: MOD FL50/FL110 FBL FL10/FL150
AUTOTAF.ME UUTW 280800Z 2809/2818 12004MPS 2000 SN BR OVC010 TXM03/2809Z TNM04/2814Z
BECMG 2809/2810 OVC005
BECMG 2810/2811 -SN BR
BECMG 2811/2812 BR
 
Завидово (Большое)
 


NOWCAST.SU UUTZ 281400Z 11003MPS 9999 -SN OVC011 M05/M06 Q1038 NOSIG
RMK ICE: MOD FL110/FL120 FBL FL10/FL190
AUTOTAF.ME UUTZ 280800Z 2809/2818 11003MPS 9999 BKN015 TXM05/2809Z TNM07/2818Z
BECMG 2809/2810 -SN
BECMG 2812/2813 -SN BR
BECMG 2813/2814 -SN
 
Москва (Кремль)
 


NOWCAST.SU UUUC 281400Z 10004MPS 9999 OVC012 M06/M06 Q1038 NOSIG
RMK ICE: MOD FL90/FL150 FBL FL10/FL190
AUTOTAF.ME UUUC 280800Z 2809/2818 11004MPS 9000 BR BKN012 TXM05/2809Z TNM07/2817Z
BECMG 2817/2818 BR
 
ГКБ №15
 


NOWCAST.SU UUUN 281400Z 10004MPS 9999 BKN012 M06/M07 Q1039 NOSIG
RMK ICE: MOD FL110/FL150 FBL FL10/FL190
AUTOTAF.ME UUUN 280800Z 2809/2818 11004MPS 9999 BKN013 TXM05/2810Z TNM08/2818Z
FM281700 10003MPS 3000 BR BKN005
 
 


NOSIG
 
Хелипорт-Москва
 


NOWCAST.SU UUUZ 281400Z 11003MPS 9999 BKN013 M06/M07 Q1038 NOSIG
RMK ICE: MOD FL110/FL150 FBL FL10/FL190
AUTOTAF.ME UUUZ 281100Z 2812/2821 11003MPS 9999 BKN013 TXM05/2812Z TNM07/2817Z
BECMG 2817/2818 BR
BECMG 2818/2819 7000
BECMG 2819/2820 5000
FM282100 VRB02MPS 3000 BR BKN005
 
Ермолино
 


NOWCAST.SU UUWE 281400Z 10003MPS 9999 SCT110 M04/M05 Q1036 NOSIG
RMK ICE: MOD FL110/FL150 FBL FL10/FL170
AUTOTAF.ME UUWE 281100Z 2812/2821 11004MPS 9999 -SN BKN009 TXM03/2812Z TNM06/2819Z
FM281400 10003MPS CAVOK
 
Аэроград Можайский
 


NOWCAST.SU UUWH 281400Z 11004MPS 2000 BR BKN005 M04/M05 Q1036 NOSIG
RMK ICE: MOD FL90/FL150 FBL FL10/FL170
AUTOTAF.ME UUWH 280800Z 2809/2818 11004MPS 5000 -SN BR BKN009 TXM04/2809Z TNM05/2816Z
FM281100 12004MPS 3000 BR BKN005
BECMG 2813/2814 2000
FM281600 11003MPS CAVOK
 
Кудиново
 


NOWCAST.SU UUWK 281400Z 10004MPS 9999 FEW120 M04/M05 Q1036 NOSIG
RMK ICE: MOD FL90/FL150 FBL FL10/FL70
AUTOTAF.ME UUWK 280800Z 2809/2818 10004MPS 5000 -SN BR OVC009 TXM03/2809Z TNM05/2817Z
BECMG 2810/2811 9000
BECMG 2811/2812 -SN
FM281400 10004MPS CAVOK
FM281500 10003MPS 1000 BR OVC003
FM281700 10003MPS 2000 BR BKN005
 
Лужки
 


NOWCAST.SU UUWL 281400Z 10003MPS 9999 OVC011 M05/M06 Q1037 NOSIG
RMK ICE: MOD FL110/FL120 FBL FL10/FL190
AUTOTAF.ME UUWL 280800Z 2809/2818 11004MPS CAVOK TXM04/2810Z TNM06/2816Z
BECMG 2810/2811 BKN011
 
Народное Небо
 


NOWCAST.SU UUWN 281400Z 11004MPS 2000 BR BKN005 M04/M05 Q1036 NOSIG
RMK ICE: MOD FL90/FL150 FBL FL10/FL170
AUTOTAF.ME UUWN 280800Z 2809/2818 11004MPS 5000 -SN BR BKN009 TXM04/2809Z TNM05/2816Z
FM281100 12004MPS 3000 BR BKN005
BECMG 2813/2814 2000
FM281600 11003MPS CAVOK
 
ГБУ Областной аэропорт Протасово
 


NOWCAST.SU UUWP 281400Z 08004MPS 3000 BR OVC005 M05/M06 Q1039 NOSIG
RMK ICE: FBL FL10/FL190
AUTOTAF.ME UUWP 281000Z 2811/2820 08004MPS 5000 BR BKN011 TXM04/2811Z TNM07/2819Z
FM281200 08004MPS 3000 BR BKN005
FM281700 09004MPS 9999 SCT018
FM281800 09003MPS 2000 BR BKN005
FM281900 09003MPS 1000 BR OVC003
FM282000 09003MPS CAVOK
 
Шишкин Лес
 


NOWCAST.SU UUWQ 281400Z 10003MPS 9999 SCT260 M05/M06 Q1037 NOSIG
RMK ICE: MOD FL110/FL120 FBL FL10/FL190
AUTOTAF.ME UUWQ 280800Z 2809/2818 11004MPS 9999 BKN010 TXM04/2809Z TNM06/2816Z
BECMG 2809/2810 NSC
BECMG 2815/2816 BKN011
 
Ясенево
 


NOWCAST.SU UUWR 281400Z 10004MPS 9999 SKC M05/M06 Q1038 NOSIG
RMK ICE: MOD FL90/FL150 FBL FL10/FL190
AUTOTAF.ME UUWR 280800Z 2809/2818 11004MPS 9000 BR BKN012 TXM05/2809Z TNM07/2817Z
BECMG 2810/2811 NSC
BECMG 2817/2818 BR
 
Москва (Внуково)
METAR UUWW 281400Z 10006MPS 9999 OVC009 M05/M07 Q1038 R06/510345 NOSIG


NOWCAST.SU UUWW 281400Z 10004MPS 9999 SKC M05/M06 Q1038 NOSIG
RMK ICE: MOD FL110/FL120 FBL FL10/FL190
AUTOTAF.ME UUWW 280900Z 2810/2819 11004MPS 9000 BR NSC TXM05/2810Z TNM07/2817Z
BECMG 2817/2818 BR
FM281900 10003MPS 3000 BR BKN005
TAF UUWW 281055Z 2812/2912 11005MPS 8000 OVC011 TXM04/2812Z TNM08/2903Z
TEMPO 2812/2824 -SN OVC004
PROB40 TEMPO 2812/2815 -FZDZ OVC003
TEMPO 2900/2903 2000 SN BR OVC004
BECMG 2903/2905 BKN016=
Аносино-2
 


NOWCAST.SU UUWY 281400Z 12004MPS 9999 FEW240 M05/M07 Q1038 NOSIG
RMK ICE: MOD FL110/FL150 FBL FL10/FL190
AUTOTAF.ME UUWY 280800Z 2809/2818 12004MPS 3500 BR BKN014 TXM05/2809Z TNM06/2815Z
BECMG 2810/2811 8000
BECMG 2812/2813 NSC
BECMG 2814/2815 OVC011
FM281800 12003MPS 9000 BR BKN011
 
Знаменское
 


NOWCAST.SU UUWZ 281400Z 10003MPS 9999 OVC012 M05/M06 Q1037 NOSIG
RMK ICE: MOD FL110/FL150 FBL FL10/FL190
AUTOTAF.ME UUWZ 280800Z 2809/2818 11004MPS 9999 BKN011 TXM04/2811Z TNM06/2816Z  
Черпаю (ДНС)
 


NOWCAST.SU UUXZ 281400Z 22005MPS 9000 BR OVC010 M14/M15 Q1036 NOSIG
RMK ICE: FBL FL10/FL150
AUTOTAF.ME UUXZ 280800Z 2809/2818 22004MPS 9999 -SN OVC045 TXM13/2809Z TNM14/2814Z
FM281000 22004MPS 9999 BKN010
BECMG 2813/2814 BR
BECMG 2814/2815 -SN BR
 
Ухта
 


NOWCAST.SU UUYH 281400Z VRB02MPS 1000 BR BKN003 M14/M14 Q1042 NOSIG
RMK ICE: FBL FL10/FL170
AUTOTAF.ME UUYH 280900Z 2810/2819 VRB02MPS 1000 BR BKN003 TXM14/2810Z TNM14/2810Z
FM281200 VRB02MPS 7000 BR BKN012
FM281300 VRB02MPS 1000 BR BKN003
FM281700 VRB02MPS 7000 BR BKN012
BECMG 2817/2818 BKN019
 
Инта
 


NOWCAST.SU UUYI 281400Z 24005G11MPS 9999 SCT021 M15/M18 Q1040 NOSIG
RMK ICE: FBL FL10/FL150
AUTOTAF.ME UUYI 280800Z 2809/2818 23005G11MPS CAVOK TXM14/2809Z TNM16/2815Z
BECMG 2812/2813 SCT021
BECMG 2817/2818 SCT008
 
Вуктыл
 


NOWCAST.SU UUYK 281400Z 17003MPS 1000 BR BKN003 M19/M20 Q1043 NOSIG
RMK ICE: FBL FL10/FL150
AUTOTAF.ME UUYK 280800Z 2809/2818 18003MPS CAVOK TXM18/2815Z TNM19/2809Z
FM281000 18003MPS 1000 BR BKN003
BECMG 2816/2817 SN BR
FM281800 17003MPS 2000 SN BR BKN005
 
Печора
 


NOWCAST.SU UUYP 281400Z 17003MPS 2000 BR OVC005 M16/M18 Q1041 NOSIG
RMK ICE: FBL FL10/FL150
AUTOTAF.ME UUYP 281200Z 2813/2822 17003MPS 2000 BR BKN005 TXM14/2822Z TNM16/2813Z
FM281800 16003MPS 4500 BR BKN008
BECMG 2821/2822 2600
 
Троицко-Печорск
 


NOWCAST.SU UUYR 281400Z VRB02MPS 9999 SCT200 M20/M20 Q1044 NOSIG
RMK ICE: FBL FL10/FL40
AUTOTAF.ME UUYR 280800Z 2809/2818 VRB02MPS CAVOK TXM18/2809Z TNM20/2814Z
FM281500 VRB02MPS 1000 BR OVC003
 
Усинск
 


NOWCAST.SU UUYS 281400Z 19004MPS 9999 BKN007 M16/M18 Q1040 NOSIG
RMK ICE: FBL FL10/FL150
AUTOTAF.ME UUYS 281000Z 2811/2820 20005MPS 9999 BKN007 TXM15/2817Z TNM16/2811Z
FM281500 19004MPS 6000 BR BKN007
BECMG 2818/2819 4000
 
Усть-Кулом
 


NOWCAST.SU UUYT 281400Z VRB02MPS 7000 BR BKN013 M14/M14 Q1044 NOSIG
RMK ICE: FBL FL10/FL40
AUTOTAF.ME UUYT 280800Z 2809/2818 VRB02MPS 7000 BR NSC TXM13/2817Z TNM14/2809Z
BECMG 2812/2813 BKN013
FM281700 VRB02MPS 1000 BR BKN003
 
Воркута
 


NOWCAST.SU UUYW 281400Z 20005MPS 5000 BR OVC009 M14/M15 Q1037 NOSIG
RMK ICE: MOD FL50/FL120 FBL FL10/FL150
AUTOTAF.ME UUYW 280900Z 2810/2819 20005MPS 7000 BR OVC012 TXM14/2811Z TNM15/2810Z
FM281300 20005MPS 5000 BR OVC009
BECMG 2817/2818 -SN BR
 
Усть-Цильма
 


NOWCAST.SU UUYX 281400Z VRB02MPS 1000 BR BKN003 M12/M13 Q1038 NOSIG
RMK ICE: FBL FL10/FL150
AUTOTAF.ME UUYX 280800Z 2809/2818 VRB02MPS 1000 BR BKN003 TXM11/2809Z TNM12/2810Z
FM281500 VRB02MPS 9999 BKN020
FM281700 VRB02MPS 1000 BR BKN003
 
Сыктывкар
METAR UUYY 281400Z 20001MPS 9999 BKN026 M07/M07 Q1043 R18/39//47 NOSIG RMK QFE774/1032


NOWCAST.SU UUYY 281400Z VRB02MPS 1000 BR OVC003 M12/M12 Q1044 NOSIG
RMK ICE: FBL FL10/FL40 TURB: MOD FL170/FL180
AUTOTAF.ME UUYY 280800Z 2809/2818 VRB02MPS 9999 BKN014 TXM11/2818Z TNM12/2809Z
FM281000 VRB02MPS 1000 BR OVC003
TAF UUYY 281100Z 2812/2912 21003MPS 6000 -SN BKN017
TEMPO 2812/2908 0300 SHSN FZDZ FZFG BKN002 BKN016CB
BECMG 2818/2820 24003MPS
TEMPO 2908/2912 1000 SHSN FZRA BR BKN005 BKN016CB=
Большое Болдино
 


NOWCAST.SU UWGB 281400Z 08003MPS 9999 FEW340 M11/M14 Q1042 NOSIG
RMK TURB: MOD FL170/FL180
AUTOTAF.ME UWGB 280800Z 2809/2818 09003MPS CAVOK TXM08/2809Z TNM12/2815Z  
Нижний Новгород (Стригино)
METAR UWGG 281400Z 11003MPS 9999 BKN011 M07/M09 Q1043 R36R/410050 NOSIG


NOWCAST.SU UWGG 281400Z VRB02MPS 9999 FEW340 M11/M12 Q1043 NOSIG
RMK ICE: FBL FL10/FL20
AUTOTAF.ME UWGG 281200Z 2813/2822 09003MPS CAVOK TXM10/2813Z TNM12/2816Z TAF UWGG 281051Z 2812/2912 11003G09MPS 8000 OVC011 TXM05/2812Z TNM10/2903Z
TEMPO 2812/2907 3000 -SN BR OVC006=
Бабино
 


NOWCAST.SU UWGI 281400Z 10003MPS 9999 FEW340 M10/M12 Q1043 NOSIG
RMK ICE: FBL FL10/FL20
AUTOTAF.ME UWGI 280800Z 2809/2818 10004MPS CAVOK TXM09/2809Z TNM12/2817Z  
Охлопково
 


NOWCAST.SU UWGO 281400Z 10003MPS 9999 FEW340 M10/M11 Q1043 NOSIG
RMK ICE: FBL FL10/FL20
AUTOTAF.ME UWGO 280800Z 2809/2818 10004MPS CAVOK TXM08/2809Z TNM12/2818Z  
Вознесенское
 


NOWCAST.SU UWGV 281400Z 08003MPS 9999 FEW330 M08/M10 Q1041 NOSIG
RMK ICE: FBL FL10/FL20
AUTOTAF.ME UWGV 281100Z 2812/2821 08003MPS CAVOK TXM06/2812Z TNM09/2816Z  
Бугульма
 


NOWCAST.SU UWKB 281400Z VRB02MPS 1000 BR OVC003 M13/M13 Q1042 NOSIG
RMK ICE: FBL FL10/FL70
AUTOTAF.ME UWKB 281000Z 2811/2820 VRB02MPS CAVOK TXM11/2811Z TNM15/2820Z
FM281300 VRB02MPS 1000 BR OVC003
 
Казань
METAR UWKD 281400Z 00000MPS 9999 BKN008 M08/M10 Q1044 R11/710045 NOSIG RMK QFE773/1030


NOWCAST.SU UWKD 281400Z 05003MPS 1000 BR OVC003 M11/M12 Q1045 NOSIG
RMK ICE: FBL FL10/FL40
AUTOTAF.ME UWKD 281000Z 2811/2820 VRB02MPS CAVOK TXM09/2811Z TNM13/2818Z
FM281200 04003MPS 1000 BR BKN003
FM281500 05003MPS CAVOK
FM281700 05003MPS 1000 BR OVC003
TAF UWKD 281054Z 2812/2912 06003MPS 2100 BR BKN004 TXM08/2812Z TNM15/2903Z
TEMPO 2812/2818 0500 FZFG BKN002
TEMPO 2818/2909 0500 FZFG VV002=
Бегишево
METAR UWKE 281400Z 05003MPS 9999 -SN OVC008 M09/M10 Q1043 R03/710060 NOSIG RMK OBST OBSC QFE765/1021


NOWCAST.SU UWKE 281400Z VRB02MPS 5000 BR SKC M12/M13 Q1044 NOSIG
RMK ICE: FBL FL10/FL50
AUTOTAF.ME UWKE 281000Z 2811/2820 VRB02MPS CAVOK TXM10/2811Z TNM13/2816Z
FM281400 VRB02MPS 5000 BR NSC
BECMG 2814/2815 9000
FM281600 VRB02MPS 1000 BR OVC003
TAF UWKE 281052Z 2812/2912 04003G09MPS 6000 OVC010
TEMPO 2812/2906 0500 SN FZFG OVC002
FM290600 36003G10MPS 9999 BKN016
TEMPO 2906/2912 6000 -SN BKN007=
Балтаси
 


NOWCAST.SU UWKF 281400Z VRB02MPS 6000 BR SKC M12/M13 Q1045 NOSIG
RMK ICE: FBL FL10/FL40
AUTOTAF.ME UWKF 280800Z 2809/2818 VRB02MPS CAVOK TXM10/2809Z TNM14/2818Z
FM281200 VRB02MPS 7000 BR NSC
BECMG 2812/2813 5000
FM281700 VRB02MPS 1000 BR OVC003
FM281800 VRB02MPS 7000 BR NSC
 
Казань (Борисоглебское)
 


NOWCAST.SU UWKG 281400Z VRB02MPS 9999 SKC M12/M12 Q1045 NOSIG
RMK ICE: FBL FL10/FL40
AUTOTAF.ME UWKG 280800Z 2809/2818 07003MPS CAVOK TXM08/2809Z TNM13/2816Z
BECMG 2815/2816 BR
BECMG 2816/2817 7000
 
Йошкар-Ола
 


NOWCAST.SU UWKJ 281400Z VRB02MPS 6000 BR SKC M10/M11 Q1045 NOSIG
RMK ICE: FBL FL10/FL30
AUTOTAF.ME UWKJ 280800Z 2809/2818 VRB02MPS CAVOK TXM07/2809Z TNM12/2818Z
FM281200 VRB02MPS 7000 BR NSC
 
Елабуга (Северный)
 


NOWCAST.SU UWKL 281400Z VRB02MPS 1000 BR OVC003 M12/M13 Q1045 NOSIG
RMK ICE: FBL FL10/FL40
AUTOTAF.ME UWKL 280800Z 2809/2818 07003MPS CAVOK TXM10/2809Z TNM13/2816Z
FM281200 VRB02MPS 5000 BR BKN012
FM281300 VRB02MPS 3000 BR BKN005
FM281400 VRB02MPS 1000 BR OVC003
FM281700 VRB02MPS 6000 BR NSC
 
Мензелинск
 


NOWCAST.SU UWKP 281400Z VRB02MPS 7000 BR BKN012 M12/M13 Q1044 NOSIG
RMK ICE: FBL FL10/FL40
AUTOTAF.ME UWKP 280800Z 2809/2818 03003MPS CAVOK TXM10/2809Z TNM13/2816Z
BECMG 2810/2811 BKN017
BECMG 2812/2813 BR
BECMG 2813/2814 7000
FM281500 VRB02MPS 6000 BR NSC
FM281600 VRB02MPS 5000 BR BKN009
FM281800 VRB02MPS 1000 BR OVC003
 
Сарманово
 


NOWCAST.SU UWKR 281400Z VRB02MPS 1000 BR OVC003 M13/M13 Q1044 NOSIG
RMK ICE: FBL FL10/FL50
AUTOTAF.ME UWKR 280800Z 2809/2818 05003MPS CAVOK TXM10/2809Z TNM13/2814Z
FM281100 VRB02MPS 9000 BR BKN013
FM281200 VRB02MPS 7000 BR NSC
FM281300 VRB02MPS 5000 BR BKN008
FM281400 VRB02MPS 1000 BR OVC003
 
Чебоксары (Синьялы)
METAR UWKS 281400Z 11003MPS 3500 BR BKN003 M08/M08 Q1044 R06/950542 NOSIG RMK QFE767


NOWCAST.SU UWKS 281400Z VRB02MPS 7000 BR SKC M10/M11 Q1045 NOSIG
RMK ICE: FBL FL10/FL20
AUTOTAF.ME UWKS 280800Z 2809/2818 09003MPS CAVOK TXM08/2809Z TNM12/2818Z
BECMG 2811/2812 BR
BECMG 2812/2813 7000
TAF UWKS 281049Z 2812/2821 09003G08MPS 9999 BKN005 TXM08/2812Z TNM11/2821Z=
Казань (Юдино)
 


NOWCAST.SU UWKW 281400Z VRB02MPS 9999 SKC M11/M12 Q1045 NOSIG
RMK ICE: FBL FL10/FL40
AUTOTAF.ME UWKW 280800Z 2809/2818 07003MPS CAVOK TXM08/2809Z TNM13/2817Z
BECMG 2815/2816 BR
BECMG 2816/2817 7000
 
Ульяновск (Баратаевка)
METAR UWLL 281400Z 06002MPS 9999 SCT015 M07/M08 Q1042 R02/810260 NOSIG RMK QFE769/1025


NOWCAST.SU UWLL 281400Z VRB02MPS 9999 SKC M09/M11 Q1043 NOSIG
RMK ICE: FBL FL10/FL20
AUTOTAF.ME UWLL 281100Z 2812/2821 VRB02MPS CAVOK TXM09/2812Z TNM10/2815Z
FM282000 VRB02MPS 7000 BR NSC
BECMG 2820/2821 5000
TAF AMD UWLL 281322Z 2813/2912 06003G08MPS 9999 SCT020 TXM06/2912Z TNM12/2903Z
TEMPO 2813/2906 OVC004=
Новоселки
 


NOWCAST.SU UWLN 281400Z 06004MPS 9999 SKC M09/M13 Q1043 NOSIG
RMK ICE: FBL FL10/FL30
AUTOTAF.ME UWLN 280800Z 2809/2818 07005MPS CAVOK TXM08/2810Z TNM10/2818Z  
Солдатская Ташла
 


NOWCAST.SU UWLS 281400Z 07003MPS 9999 SKC M08/M10 Q1042 NOSIG
RMK ICE: FBL FL10/FL20
AUTOTAF.ME UWLS 280800Z 2809/2818 08004MPS CAVOK TXM07/2809Z TNM09/2816Z  
Ульяновск (Восточный)
METAR UWLW 281400Z 05004MPS CAVOK M10/M11 Q1043 R02/820545 NOSIG RMK QFE775/1034


NOWCAST.SU UWLW 281400Z 07003MPS 9999 SKC M08/M11 Q1044 NOSIG
RMK ICE: FBL FL10/FL20
AUTOTAF.ME UWLW 280800Z 2809/2818 08004MPS CAVOK TXM07/2809Z TNM09/2816Z TAF UWLW 281055Z 2812/2912 03003MPS 9999 OVC016 TXM06/2812Z TNM12/2903Z
TEMPO 2812/2816 06003G09MPS=
Зилаир
 


NOWCAST.SU UWOI 281400Z 07005G11MPS 9999 OVC050 M13/M16 Q1038 NOSIG
RMK ICE: FBL FL70/FL150 TURB: MOD FL90/FL100
AUTOTAF.ME UWOI 280800Z 2809/2818 08006G12MPS 9999 BKN033 TXM12/2809Z TNM14/2818Z
BECMG 2813/2814 NSC
 
Оренбург
METAR UWOO 281400Z 08005MPS CAVOK M10/M16 Q1039 R08/CLRD60 NOSIG RMK QFE768/1025


NOWCAST.SU UWOO 281400Z 08005G11MPS 9999 BKN065 M09/M12 Q1040 NOSIG
RMK ICE: MOD FL110/FL120 FBL FL90/FL100
AUTOTAF.ME UWOO 280800Z 2809/2818 09004MPS CAVOK TXM08/2809Z TNM10/2818Z TAF UWOO 281047Z 2812/2912 08007G12MPS 9999 BKN020 TXM08/2812Z TNM12/2903Z
TEMPO 2814/2818 05003G10MPS
BECMG 2818/2820 04003G10MPS
TEMPO 2910/2912 36003MPS=
Первомайский
 


NOWCAST.SU UWOP 281400Z 06005G10MPS 9999 SKC M09/M11 Q1039 NOSIG
RMK ICE: FBL FL10/FL20
AUTOTAF.ME UWOP 280800Z 2809/2818 07004MPS CAVOK TXM07/2809Z TNM11/2818Z  
Орск
METAR UWOR 281400Z 03006MPS CAVOK M14/M17 Q1040 R07/910250 NOSIG RMK QFE754/1006


NOWCAST.SU UWOR 281400Z 06004MPS 9999 SCT016 M11/M13 Q1038 NOSIG
RMK ICE: MOD FL170/FL180 FBL FL10/FL150 TURB: MOD SFC/FL110
AUTOTAF.ME UWOR 280800Z 2809/2818 07005MPS CAVOK TXM10/2809Z TNM12/2817Z
BECMG 2810/2811 SCT014
TAF UWOR 281050Z 2812/2821 02006G12MPS 9999 BKN016 TXM13/2812Z TNM16/2821Z
TEMPO 2812/2821 04008MPS=
Бузулук
 


NOWCAST.SU UWOX 281400Z 07003MPS 9999 SKC M10/M12 Q1041 NOSIG
RMK ICE: FBL FL10/FL20
AUTOTAF.ME UWOX 280800Z 2809/2818 08004MPS CAVOK TXM07/2809Z TNM11/2816Z  
Кушкуль (Сакмара)
 


NOWCAST.SU UWOY 281400Z 07005G10MPS 9999 FEW019 M09/M12 Q1039 NOSIG
RMK ICE: FBL FL10/FL120
AUTOTAF.ME UWOY 280800Z 2809/2818 09005MPS 9999 BKN028 TXM08/2809Z TNM10/2815Z
BECMG 2810/2811 NSC
BECMG 2812/2813 SCT022
BECMG 2815/2816 NSC
 
Пенза (Терновка)
 


NOWCAST.SU UWPP 281400Z 09005MPS 9999 FEW340 M06/M11 Q1039 NOSIG
RMK TURB: MOD SFC/FL20
AUTOTAF.ME UWPP 280900Z 2810/2819 09005MPS CAVOK TXM05/2810Z TNM08/2818Z  
Саранск
METAR UWPS 281400Z 06005MPS 9999 SCT013 M08/M12 Q1040 R02/110155 NOSIG RMK QFE760


NOWCAST.SU UWPS 281400Z 08004MPS 9999 FEW350 M08/M11 Q1040 NOSIG
RMK ICE: FBL FL10/FL20 TURB: MOD FL170/FL180
AUTOTAF.ME UWPS 281200Z 2813/2822 08004MPS CAVOK TXM07/2813Z TNM10/2820Z TAF UWPS 281055Z 2812/2821 07003MPS 9999 SCT040 TXM06/2812Z TNM10/2821Z=
Балаково (Малая Быковка)
 


NOWCAST.SU UWSB 281400Z 06004MPS 9999 SKC M06/M11 Q1039 NOSIG
AUTOTAF.ME UWSB 280800Z 2809/2818 06004MPS CAVOK TXM05/2809Z TNM07/2816Z  
Саратов (Гагарин)
METAR UWSG 281400Z 04003MPS CAVOK M04/M10 Q1039 R08/CLRD70 NOSIG RMK QFE777/1036


NOWCAST.SU UWSG 281400Z 06006MPS 9999 FEW340 M04/M09 Q1038 NOSIG
RMK TURB: MOD SFC/FL20
AUTOTAF.ME UWSG 280800Z 2809/2818 06005MPS CAVOK TXM04/2809Z TNM05/2816Z TAF UWSG 281100Z 2812/2821 06006MPS CAVOK TXM02/2812Z TNM06/2821Z=
Красный Кут
 


NOWCAST.SU UWSK 281400Z 05005MPS 9999 FEW350 M05/M12 Q1037 NOSIG
AUTOTAF.ME UWSK 281200Z 2813/2822 05005MPS CAVOK TXM04/2813Z TNM08/2821Z  
Пугачев
 


NOWCAST.SU UWSP 281400Z 06005MPS 9999 SKC M07/M11 Q1039 NOSIG
AUTOTAF.ME UWSP 280800Z 2809/2818 07004MPS CAVOK TXM05/2809Z TNM08/2815Z  
Саратов (Центральный)
 


NOWCAST.SU UWSS 281400Z 06006MPS 9999 FEW330 M04/M09 Q1038 NOSIG
RMK TURB: MOD SFC/FL20
AUTOTAF.ME UWSS 280800Z 2809/2818 06005MPS CAVOK TXM03/2809Z TNM05/2817Z
BECMG 2814/2815 FEW043
BECMG 2817/2818 NSC
 
Балашов (Репное)
 


NOWCAST.SU UWSW 281400Z 08005MPS 9999 FEW210 M04/M10 Q1036 NOSIG
RMK TURB: MOD SFC/FL20
AUTOTAF.ME UWSW 280800Z 2809/2818 09005MPS CAVOK TXM02/2809Z TNM06/2818Z  
Караишево
 


NOWCAST.SU UWTK 281400Z 05003MPS 5000 BR SKC M11/M12 Q1045 NOSIG
RMK ICE: FBL FL10/FL40
AUTOTAF.ME UWTK 280800Z 2809/2818 06003MPS 9999 BKN014 TXM08/2809Z TNM12/2816Z
BECMG 2810/2811 NSC
FM281300 04003MPS 5000 BR NSC
FM281500 05003MPS CAVOK
 
Альметьевск (Пойма)
 


NOWCAST.SU UWTP 281400Z VRB02MPS 9999 SKC M12/M12 Q1043 NOSIG
RMK ICE: FBL FL10/FL50
AUTOTAF.ME UWTP 280800Z 2809/2818 06003MPS CAVOK TXM08/2809Z TNM14/2818Z
FM281800 VRB02MPS 8000 BR BKN035
 
Казань (Автодром)
 


NOWCAST.SU UWTX 281400Z VRB02MPS 9999 SKC M12/M13 Q1045 NOSIG
RMK ICE: FBL FL10/FL40
AUTOTAF.ME UWTX 280800Z 2809/2818 VRB02MPS 9999 BKN016 TXM09/2809Z TNM13/2816Z
BECMG 2810/2811 NSC
FM281200 VRB02MPS 1000 BR OVC003
FM281300 VRB02MPS CAVOK
BECMG 2814/2815 BR
BECMG 2816/2817 7000
FM281800 VRB02MPS 1000 BR OVC003
 
Белорецк
 


NOWCAST.SU UWUB 281400Z VRB02MPS 9999 OVC040 M16/M18 Q1040 NOSIG
RMK ICE: FBL FL70/FL150
AUTOTAF.ME UWUB 280800Z 2809/2818 VRB02MPS 9999 OVC016 TXM13/2809Z TNM17/2816Z
BECMG 2811/2812 OVC024
BECMG 2816/2817 NSC
 
Нефтекамск
 


NOWCAST.SU UWUF 281400Z VRB02MPS 1000 BR OVC003 M15/M15 Q1044 NOSIG
RMK ICE: FBL FL10/FL40
AUTOTAF.ME UWUF 280800Z 2809/2818 VRB02MPS CAVOK TXM10/2809Z TNM16/2816Z
FM281100 VRB02MPS 1000 BR OVC003
FM281500 VRB02MPS CAVOK
FM281600 VRB02MPS 1000 BR OVC003
 
Октябрьский
 


NOWCAST.SU UWUK 281400Z VRB02MPS 1000 BR BKN003 M14/M14 Q1043 NOSIG
RMK ICE: FBL FL10/FL50
AUTOTAF.ME UWUK 280800Z 2809/2818 VRB02MPS CAVOK TXM11/2809Z TNM15/2816Z
FM281200 VRB02MPS 7000 BR NSC
FM281300 VRB02MPS 1000 BR BKN003
FM281800 VRB02MPS 6000 BR NSC
 
Уфа (Максимовка)
 


NOWCAST.SU UWUM 281400Z VRB02MPS 1000 BR OVC003 M14/M15 Q1043 NOSIG
RMK ICE: FBL FL10/FL150
AUTOTAF.ME UWUM 280800Z 2809/2818 VRB02MPS 9999 BKN011 TXM08/2809Z TNM17/2818Z
BECMG 2809/2810 NSC
FM281400 VRB02MPS 1000 BR OVC003
FM281700 VRB02MPS 0500 FG IC VV002
 
Первушино
 


NOWCAST.SU UWUO 281400Z VRB02MPS 1000 BR OVC003 M13/M14 Q1043 NOSIG
RMK ICE: FBL FL10/FL90
AUTOTAF.ME UWUO 280800Z 2809/2818 VRB02MPS 9999 BKN014 TXM07/2809Z TNM16/2818Z
BECMG 2809/2810 NSC
FM281400 VRB02MPS 1000 BR OVC003
FM281700 VRB02MPS 0500 FG IC VV002
 
Стерлитамак
 


NOWCAST.SU UWUS 281400Z VRB02MPS 9999 OVC027 M13/M14 Q1042 NOSIG
RMK ICE: FBL FL50/FL150 TURB: MOD FL170/FL180
AUTOTAF.ME UWUS 281200Z 2813/2822 VRB02MPS 9999 BKN030 TXM11/2813Z TNM19/2822Z
BECMG 2816/2817 NSC
FM282200 VRB02MPS 1000 BR OVC003
 
Уфа
METAR UWUU 281400Z 32001MPS 5000 BR MIFG NSC M13/M14 Q1042 R14R/810544 TEMPO 0300 FZFG SCT005


NOWCAST.SU UWUU 281400Z VRB02MPS 1000 BR BKN003 M14/M15 Q1043 NOSIG
RMK ICE: FBL FL10/FL150
AUTOTAF.ME UWUU 280800Z 2809/2818 VRB02MPS CAVOK TXM08/2809Z TNM17/2817Z
FM281100 VRB02MPS 1000 BR OVC003
FM281700 VRB02MPS 0500 FG IC BKN002
TAF AMD UWUU 281207Z 2812/2912 VRB01MPS 6000 BKN016 TXM09/2812Z TNM20/2904Z
TEMPO 2812/2907 0300 FZFG SCT003
TEMPO 2907/2912 31003G08MPS=
Старосубхангулово (Бурзян)
 


NOWCAST.SU UWUW 281400Z 06003MPS 9999 OVC045 M13/M17 Q1039 NOSIG
RMK ICE: FBL FL70/FL150 TURB: MOD SFC/FL30
AUTOTAF.ME UWUW 280800Z 2809/2818 07003MPS 9999 OVC045 TXM11/2809Z TNM14/2818Z
BECMG 2810/2811 NSC
BECMG 2813/2814 OVC045
 
Бугуруслан (Главный)
 


NOWCAST.SU UWWB 281400Z 05003MPS 1000 BR OVC003 M12/M14 Q1042 NOSIG
RMK ICE: FBL FL10/FL50
AUTOTAF.ME UWWB 280800Z 2809/2818 06004MPS CAVOK TXM09/2809Z TNM14/2818Z
FM281400 05003MPS 1000 BR OVC003
 
Самара (Безымянка)
 


NOWCAST.SU UWWG 281400Z 05004MPS 9999 SKC M10/M12 Q1041 NOSIG
RMK ICE: FBL FL10/FL20
AUTOTAF.ME UWWG 280800Z 2809/2818 07005MPS CAVOK TXM08/2809Z TNM11/2817Z
BECMG 2809/2810 SCT023
BECMG 2811/2812 BKN013
BECMG 2812/2813 NSC
 
Красный Яр
 


NOWCAST.SU UWWQ 281400Z 06003MPS 9999 SKC M09/M12 Q1042 NOSIG
RMK ICE: FBL FL10/FL20
AUTOTAF.ME UWWQ 280800Z 2809/2818 07005MPS CAVOK TXM08/2809Z TNM10/2817Z  
Самара (Смышляевка)
 


NOWCAST.SU UWWS 281400Z 05004MPS 9999 SKC M10/M12 Q1041 NOSIG
AUTOTAF.ME UWWS 280800Z 2809/2818 07005MPS CAVOK TXM08/2809Z TNM11/2817Z
BECMG 2809/2810 SCT023
BECMG 2811/2812 BKN013
BECMG 2812/2813 NSC
 
Самара (Кряж)
 


NOWCAST.SU UWWV 281400Z 05005G10MPS 9999 SKC M09/M12 Q1041 NOSIG
RMK ICE: FBL FL10/FL20
AUTOTAF.ME UWWV 280800Z 2809/2818 07005MPS CAVOK TXM07/2809Z TNM10/2816Z  
Самара (Курумоч)
METAR UWWW 281400Z 04005MPS CAVOK M07/M10 Q1041 R15/CLRD60 NOSIG RMK QFE769/1025


NOWCAST.SU UWWW 281400Z 05003MPS 9999 SKC M09/M12 Q1042 NOSIG
RMK ICE: FBL FL10/FL20
AUTOTAF.ME UWWW 280800Z 2809/2818 08004MPS CAVOK TXM08/2809Z TNM10/2818Z TAF UWWW 281051Z 2812/2912 04005G10MPS 9999 SCT016 TXM08/2911Z TNM13/2903Z=
Бугуруслан (Северный)
 


NOWCAST.SU UWWZ 281400Z 05003MPS 1000 BR OVC003 M12/M13 Q1042 NOSIG
RMK ICE: FBL FL10/FL40
AUTOTAF.ME UWWZ 280800Z 2809/2818 06004MPS CAVOK TXM09/2809Z TNM13/2815Z
FM281400 05003MPS 1000 BR OVC003
 

Таблица обновляется в 12 и 42 минуты каждого часа круглосуточно.

Цвет рамки ячеек таблицы означает класс метеоусловий (высота нижней границы облаков* х видимость):
зелёный - VFR (выше 900х8000);
голубой - MVFR (ниже 900х8000, но не ниже 300х5000);
красный - IFR (ниже 300х5000, но не ниже 150х2000);
пурпурный - LIFR (ниже 150х2000, но не ниже 90х800);
фиолетовый - VLIFR (ниже 90х800).

*ВНГО - высота нижней границы самого нижнего слоя облаков, закрывающего более половины небосвода (BKN или OVC).